<?xml version="1.0" encoding="UTF-8" standalone="no" ?>
<gpx xmlns="http://www.topografix.com/GPX/1/1" xmlns:xsi="http://www.w3.org/2001/XMLSchema-instance" xsi:schemaLocation="http://www.topografix.com/GPX/1/1 http://www.topografix.com/GPX/1/1/gpx.xsd" version="1.1" creator="VisuGPX - https://www.visugpx.com">
  <metadata>
    <name>St Nic - Douarnenez</name>
    <desc><![CDATA[GR 34. 4ième étape]]></desc>
  </metadata>
  <trk>
    <name><![CDATA[2021-07-27_130612]]></name>
    <extensions>
      <line xmlns="http://www.topografix.com/GPX/gpx_style/0/2">
        <width>4</width>
      </line>
    </extensions>
    <trkseg>
      <trkpt lat="48.20082" lon="-4.28382">
        <ele>55.6</ele>
        <time>2021-07-27T11:06:12.000Z</time>
      </trkpt>
      <trkpt lat="48.20082" lon="-4.28382">
        <ele>55.6</ele>
        <time>2021-07-27T11:06:13.000Z</time>
      </trkpt>
      <trkpt lat="48.20082" lon="-4.28383">
        <ele>56</ele>
        <time>2021-07-27T11:06:25.000Z</time>
      </trkpt>
      <trkpt lat="48.20082" lon="-4.28383">
        <ele>56</ele>
        <time>2021-07-27T11:06:25.000Z</time>
      </trkpt>
      <trkpt lat="48.20097" lon="-4.28402">
        <ele>59.5</ele>
        <time>2021-07-27T11:06:48.000Z</time>
      </trkpt>
      <trkpt lat="48.20105" lon="-4.28427">
        <ele>59.2</ele>
        <time>2021-07-27T11:07:10.000Z</time>
      </trkpt>
      <trkpt lat="48.201" lon="-4.28454">
        <ele>58.1</ele>
        <time>2021-07-27T11:07:23.000Z</time>
      </trkpt>
      <trkpt lat="48.20096" lon="-4.28481">
        <ele>55.6</ele>
        <time>2021-07-27T11:07:36.000Z</time>
      </trkpt>
      <trkpt lat="48.20095" lon="-4.28508">
        <ele>55.2</ele>
        <time>2021-07-27T11:07:49.000Z</time>
      </trkpt>
      <trkpt lat="48.20089" lon="-4.28534">
        <ele>55.3</ele>
        <time>2021-07-27T11:08:02.000Z</time>
      </trkpt>
      <trkpt lat="48.20084" lon="-4.28561">
        <ele>55.6</ele>
        <time>2021-07-27T11:08:15.000Z</time>
      </trkpt>
      <trkpt lat="48.2008" lon="-4.28588">
        <ele>53.3</ele>
        <time>2021-07-27T11:08:27.000Z</time>
      </trkpt>
      <trkpt lat="48.20076" lon="-4.28615">
        <ele>51.7</ele>
        <time>2021-07-27T11:08:39.000Z</time>
      </trkpt>
      <trkpt lat="48.20071" lon="-4.28642">
        <ele>50.8</ele>
        <time>2021-07-27T11:08:51.000Z</time>
      </trkpt>
      <trkpt lat="48.20066" lon="-4.28668">
        <ele>49.9</ele>
        <time>2021-07-27T11:09:03.000Z</time>
      </trkpt>
      <trkpt lat="48.2006" lon="-4.28695">
        <ele>49.2</ele>
        <time>2021-07-27T11:09:16.000Z</time>
      </trkpt>
      <trkpt lat="48.20056" lon="-4.28722">
        <ele>47.9</ele>
        <time>2021-07-27T11:09:28.000Z</time>
      </trkpt>
      <trkpt lat="48.20053" lon="-4.28749">
        <ele>46.9</ele>
        <time>2021-07-27T11:09:40.000Z</time>
      </trkpt>
      <trkpt lat="48.20053" lon="-4.28776">
        <ele>46.6</ele>
        <time>2021-07-27T11:09:52.000Z</time>
      </trkpt>
      <trkpt lat="48.20056" lon="-4.28803">
        <ele>46.7</ele>
        <time>2021-07-27T11:10:04.000Z</time>
      </trkpt>
      <trkpt lat="48.20061" lon="-4.28829">
        <ele>46.2</ele>
        <time>2021-07-27T11:10:17.000Z</time>
      </trkpt>
      <trkpt lat="48.20067" lon="-4.28856">
        <ele>46.3</ele>
        <time>2021-07-27T11:10:30.000Z</time>
      </trkpt>
      <trkpt lat="48.20072" lon="-4.28882">
        <ele>45.9</ele>
        <time>2021-07-27T11:10:43.000Z</time>
      </trkpt>
      <trkpt lat="48.20075" lon="-4.28909">
        <ele>45.5</ele>
        <time>2021-07-27T11:10:56.000Z</time>
      </trkpt>
      <trkpt lat="48.20078" lon="-4.28936">
        <ele>44.6</ele>
        <time>2021-07-27T11:11:08.000Z</time>
      </trkpt>
      <trkpt lat="48.20078" lon="-4.28964">
        <ele>43.9</ele>
        <time>2021-07-27T11:11:20.000Z</time>
      </trkpt>
      <trkpt lat="48.20075" lon="-4.28991">
        <ele>43.4</ele>
        <time>2021-07-27T11:11:32.000Z</time>
      </trkpt>
      <trkpt lat="48.20069" lon="-4.29018">
        <ele>42.3</ele>
        <time>2021-07-27T11:11:44.000Z</time>
      </trkpt>
      <trkpt lat="48.20062" lon="-4.29043">
        <ele>41.3</ele>
        <time>2021-07-27T11:11:56.000Z</time>
      </trkpt>
      <trkpt lat="48.20055" lon="-4.29069">
        <ele>40.7</ele>
        <time>2021-07-27T11:12:08.000Z</time>
      </trkpt>
      <trkpt lat="48.20047" lon="-4.29093">
        <ele>40.6</ele>
        <time>2021-07-27T11:12:20.000Z</time>
      </trkpt>
      <trkpt lat="48.20038" lon="-4.29118">
        <ele>40.5</ele>
        <time>2021-07-27T11:12:32.000Z</time>
      </trkpt>
      <trkpt lat="48.2003" lon="-4.29142">
        <ele>40.2</ele>
        <time>2021-07-27T11:12:44.000Z</time>
      </trkpt>
      <trkpt lat="48.20022" lon="-4.29167">
        <ele>39.5</ele>
        <time>2021-07-27T11:12:56.000Z</time>
      </trkpt>
      <trkpt lat="48.20014" lon="-4.29192">
        <ele>38.8</ele>
        <time>2021-07-27T11:13:08.000Z</time>
      </trkpt>
      <trkpt lat="48.20005" lon="-4.29216">
        <ele>37.8</ele>
        <time>2021-07-27T11:13:20.000Z</time>
      </trkpt>
      <trkpt lat="48.19992" lon="-4.29236">
        <ele>37.3</ele>
        <time>2021-07-27T11:13:32.000Z</time>
      </trkpt>
      <trkpt lat="48.19977" lon="-4.29252">
        <ele>37.1</ele>
        <time>2021-07-27T11:13:44.000Z</time>
      </trkpt>
      <trkpt lat="48.1996" lon="-4.29261">
        <ele>36.1</ele>
        <time>2021-07-27T11:13:56.000Z</time>
      </trkpt>
      <trkpt lat="48.19942" lon="-4.29268">
        <ele>36.3</ele>
        <time>2021-07-27T11:14:08.000Z</time>
      </trkpt>
      <trkpt lat="48.19924" lon="-4.29277">
        <ele>35.6</ele>
        <time>2021-07-27T11:14:21.000Z</time>
      </trkpt>
      <trkpt lat="48.19906" lon="-4.29286">
        <ele>34.8</ele>
        <time>2021-07-27T11:14:34.000Z</time>
      </trkpt>
      <trkpt lat="48.19889" lon="-4.29298">
        <ele>34.1</ele>
        <time>2021-07-27T11:14:46.000Z</time>
      </trkpt>
      <trkpt lat="48.19873" lon="-4.29314">
        <ele>33.3</ele>
        <time>2021-07-27T11:14:59.000Z</time>
      </trkpt>
      <trkpt lat="48.19858" lon="-4.2933">
        <ele>33</ele>
        <time>2021-07-27T11:15:12.000Z</time>
      </trkpt>
      <trkpt lat="48.19844" lon="-4.29347">
        <ele>32.4</ele>
        <time>2021-07-27T11:15:24.000Z</time>
      </trkpt>
      <trkpt lat="48.19829" lon="-4.29364">
        <ele>31.3</ele>
        <time>2021-07-27T11:15:36.000Z</time>
      </trkpt>
      <trkpt lat="48.19815" lon="-4.29381">
        <ele>30.3</ele>
        <time>2021-07-27T11:15:48.000Z</time>
      </trkpt>
      <trkpt lat="48.19799" lon="-4.29397">
        <ele>30</ele>
        <time>2021-07-27T11:16:01.000Z</time>
      </trkpt>
      <trkpt lat="48.19786" lon="-4.29415">
        <ele>30.1</ele>
        <time>2021-07-27T11:16:13.000Z</time>
      </trkpt>
      <trkpt lat="48.19778" lon="-4.29442">
        <ele>28.9</ele>
        <time>2021-07-27T11:16:26.000Z</time>
      </trkpt>
      <trkpt lat="48.19773" lon="-4.29468">
        <ele>28.3</ele>
        <time>2021-07-27T11:16:38.000Z</time>
      </trkpt>
      <trkpt lat="48.19769" lon="-4.29496">
        <ele>27.5</ele>
        <time>2021-07-27T11:16:51.000Z</time>
      </trkpt>
      <trkpt lat="48.19767" lon="-4.29524">
        <ele>26.9</ele>
        <time>2021-07-27T11:17:05.000Z</time>
      </trkpt>
      <trkpt lat="48.19756" lon="-4.29546">
        <ele>27.3</ele>
        <time>2021-07-27T11:17:18.000Z</time>
      </trkpt>
      <trkpt lat="48.19747" lon="-4.29571">
        <ele>28.5</ele>
        <time>2021-07-27T11:17:32.000Z</time>
      </trkpt>
      <trkpt lat="48.19742" lon="-4.29597">
        <ele>29.7</ele>
        <time>2021-07-27T11:17:46.000Z</time>
      </trkpt>
      <trkpt lat="48.19741" lon="-4.29625">
        <ele>31.7</ele>
        <time>2021-07-27T11:17:59.000Z</time>
      </trkpt>
      <trkpt lat="48.19742" lon="-4.29654">
        <ele>32.6</ele>
        <time>2021-07-27T11:18:12.000Z</time>
      </trkpt>
      <trkpt lat="48.1974" lon="-4.29683">
        <ele>34.8</ele>
        <time>2021-07-27T11:18:25.000Z</time>
      </trkpt>
      <trkpt lat="48.1974" lon="-4.2971">
        <ele>34.3</ele>
        <time>2021-07-27T11:18:37.000Z</time>
      </trkpt>
      <trkpt lat="48.19737" lon="-4.29739">
        <ele>33.3</ele>
        <time>2021-07-27T11:18:50.000Z</time>
      </trkpt>
      <trkpt lat="48.19731" lon="-4.29766">
        <ele>33.1</ele>
        <time>2021-07-27T11:19:03.000Z</time>
      </trkpt>
      <trkpt lat="48.19723" lon="-4.29792">
        <ele>33.5</ele>
        <time>2021-07-27T11:19:16.000Z</time>
      </trkpt>
      <trkpt lat="48.19716" lon="-4.29818">
        <ele>32.5</ele>
        <time>2021-07-27T11:19:28.000Z</time>
      </trkpt>
      <trkpt lat="48.19708" lon="-4.29842">
        <ele>33</ele>
        <time>2021-07-27T11:19:40.000Z</time>
      </trkpt>
      <trkpt lat="48.19701" lon="-4.29867">
        <ele>33.6</ele>
        <time>2021-07-27T11:19:52.000Z</time>
      </trkpt>
      <trkpt lat="48.19695" lon="-4.29893">
        <ele>32.3</ele>
        <time>2021-07-27T11:20:04.000Z</time>
      </trkpt>
      <trkpt lat="48.19687" lon="-4.29918">
        <ele>30.5</ele>
        <time>2021-07-27T11:20:16.000Z</time>
      </trkpt>
      <trkpt lat="48.19677" lon="-4.29941">
        <ele>29.4</ele>
        <time>2021-07-27T11:20:28.000Z</time>
      </trkpt>
      <trkpt lat="48.19664" lon="-4.29961">
        <ele>29</ele>
        <time>2021-07-27T11:20:40.000Z</time>
      </trkpt>
      <trkpt lat="48.19649" lon="-4.29979">
        <ele>27.8</ele>
        <time>2021-07-27T11:20:53.000Z</time>
      </trkpt>
      <trkpt lat="48.19632" lon="-4.29994">
        <ele>26.7</ele>
        <time>2021-07-27T11:21:06.000Z</time>
      </trkpt>
      <trkpt lat="48.19616" lon="-4.30009">
        <ele>25.8</ele>
        <time>2021-07-27T11:21:19.000Z</time>
      </trkpt>
      <trkpt lat="48.19601" lon="-4.30024">
        <ele>24.6</ele>
        <time>2021-07-27T11:21:32.000Z</time>
      </trkpt>
      <trkpt lat="48.19585" lon="-4.30037">
        <ele>23.7</ele>
        <time>2021-07-27T11:21:45.000Z</time>
      </trkpt>
      <trkpt lat="48.19571" lon="-4.30056">
        <ele>21.6</ele>
        <time>2021-07-27T11:21:58.000Z</time>
      </trkpt>
      <trkpt lat="48.19566" lon="-4.30083">
        <ele>19.7</ele>
        <time>2021-07-27T11:22:11.000Z</time>
      </trkpt>
      <trkpt lat="48.19566" lon="-4.3011">
        <ele>16.9</ele>
        <time>2021-07-27T11:22:23.000Z</time>
      </trkpt>
      <trkpt lat="48.1957" lon="-4.30138">
        <ele>15.5</ele>
        <time>2021-07-27T11:22:36.000Z</time>
      </trkpt>
      <trkpt lat="48.19577" lon="-4.30165">
        <ele>14.5</ele>
        <time>2021-07-27T11:22:49.000Z</time>
      </trkpt>
      <trkpt lat="48.19583" lon="-4.30191">
        <ele>13.1</ele>
        <time>2021-07-27T11:23:02.000Z</time>
      </trkpt>
      <trkpt lat="48.19588" lon="-4.30219">
        <ele>11.2</ele>
        <time>2021-07-27T11:23:15.000Z</time>
      </trkpt>
      <trkpt lat="48.19593" lon="-4.30246">
        <ele>10.4</ele>
        <time>2021-07-27T11:23:28.000Z</time>
      </trkpt>
      <trkpt lat="48.19597" lon="-4.30273">
        <ele>9.7</ele>
        <time>2021-07-27T11:23:41.000Z</time>
      </trkpt>
      <trkpt lat="48.19581" lon="-4.30289">
        <ele>9.8</ele>
        <time>2021-07-27T11:23:55.000Z</time>
      </trkpt>
      <trkpt lat="48.19564" lon="-4.30299">
        <ele>10.3</ele>
        <time>2021-07-27T11:24:09.000Z</time>
      </trkpt>
      <trkpt lat="48.19547" lon="-4.30311">
        <ele>10.8</ele>
        <time>2021-07-27T11:24:24.000Z</time>
      </trkpt>
      <trkpt lat="48.19529" lon="-4.30319">
        <ele>9</ele>
        <time>2021-07-27T11:24:37.000Z</time>
      </trkpt>
      <trkpt lat="48.19511" lon="-4.30323">
        <ele>8.5</ele>
        <time>2021-07-27T11:24:50.000Z</time>
      </trkpt>
      <trkpt lat="48.19493" lon="-4.30315">
        <ele>8.5</ele>
        <time>2021-07-27T11:25:03.000Z</time>
      </trkpt>
      <trkpt lat="48.19476" lon="-4.30304">
        <ele>8.5</ele>
        <time>2021-07-27T11:25:16.000Z</time>
      </trkpt>
      <trkpt lat="48.19459" lon="-4.30294">
        <ele>8.2</ele>
        <time>2021-07-27T11:25:29.000Z</time>
      </trkpt>
      <trkpt lat="48.19442" lon="-4.30283">
        <ele>8.3</ele>
        <time>2021-07-27T11:25:42.000Z</time>
      </trkpt>
      <trkpt lat="48.19424" lon="-4.30272">
        <ele>9.2</ele>
        <time>2021-07-27T11:25:55.000Z</time>
      </trkpt>
      <trkpt lat="48.19407" lon="-4.30262">
        <ele>9.3</ele>
        <time>2021-07-27T11:26:08.000Z</time>
      </trkpt>
      <trkpt lat="48.1939" lon="-4.30251">
        <ele>8.8</ele>
        <time>2021-07-27T11:26:21.000Z</time>
      </trkpt>
      <trkpt lat="48.19373" lon="-4.30239">
        <ele>9.1</ele>
        <time>2021-07-27T11:26:35.000Z</time>
      </trkpt>
      <trkpt lat="48.19356" lon="-4.30229">
        <ele>8.9</ele>
        <time>2021-07-27T11:26:48.000Z</time>
      </trkpt>
      <trkpt lat="48.19339" lon="-4.30218">
        <ele>8.5</ele>
        <time>2021-07-27T11:27:02.000Z</time>
      </trkpt>
      <trkpt lat="48.19335" lon="-4.30215">
        <ele>8.6</ele>
        <time>2021-07-27T11:27:08.000Z</time>
      </trkpt>
      <trkpt lat="48.19334" lon="-4.30215">
        <ele>8.4</ele>
        <time>2021-07-27T11:27:22.000Z</time>
      </trkpt>
      <trkpt lat="48.19335" lon="-4.30215">
        <ele>8.4</ele>
        <time>2021-07-27T11:27:24.000Z</time>
      </trkpt>
      <trkpt lat="48.19334" lon="-4.30215">
        <ele>8.4</ele>
        <time>2021-07-27T11:27:33.000Z</time>
      </trkpt>
      <trkpt lat="48.19335" lon="-4.30215">
        <ele>8.4</ele>
        <time>2021-07-27T11:27:35.000Z</time>
      </trkpt>
      <trkpt lat="48.19334" lon="-4.30215">
        <ele>8.4</ele>
        <time>2021-07-27T11:27:37.000Z</time>
      </trkpt>
      <trkpt lat="48.19334" lon="-4.30215">
        <ele>8.4</ele>
        <time>2021-07-27T11:27:38.000Z</time>
      </trkpt>
      <trkpt lat="48.19335" lon="-4.30215">
        <ele>8.3</ele>
        <time>2021-07-27T11:27:39.000Z</time>
      </trkpt>
      <trkpt lat="48.19317" lon="-4.30205">
        <ele>8.1</ele>
        <time>2021-07-27T11:27:54.000Z</time>
      </trkpt>
      <trkpt lat="48.193" lon="-4.30195">
        <ele>7.8</ele>
        <time>2021-07-27T11:28:07.000Z</time>
      </trkpt>
      <trkpt lat="48.19283" lon="-4.30181">
        <ele>8.1</ele>
        <time>2021-07-27T11:28:21.000Z</time>
      </trkpt>
      <trkpt lat="48.19266" lon="-4.30169">
        <ele>8.1</ele>
        <time>2021-07-27T11:28:35.000Z</time>
      </trkpt>
      <trkpt lat="48.1925" lon="-4.30158">
        <ele>7.9</ele>
        <time>2021-07-27T11:28:48.000Z</time>
      </trkpt>
      <trkpt lat="48.19233" lon="-4.30149">
        <ele>8.2</ele>
        <time>2021-07-27T11:29:01.000Z</time>
      </trkpt>
      <trkpt lat="48.19216" lon="-4.30137">
        <ele>8.4</ele>
        <time>2021-07-27T11:29:14.000Z</time>
      </trkpt>
      <trkpt lat="48.19199" lon="-4.30127">
        <ele>9</ele>
        <time>2021-07-27T11:29:27.000Z</time>
      </trkpt>
      <trkpt lat="48.19183" lon="-4.30115">
        <ele>8.4</ele>
        <time>2021-07-27T11:29:40.000Z</time>
      </trkpt>
      <trkpt lat="48.19165" lon="-4.30105">
        <ele>8.5</ele>
        <time>2021-07-27T11:29:54.000Z</time>
      </trkpt>
      <trkpt lat="48.19147" lon="-4.30094">
        <ele>8.7</ele>
        <time>2021-07-27T11:30:08.000Z</time>
      </trkpt>
      <trkpt lat="48.1913" lon="-4.30084">
        <ele>8.5</ele>
        <time>2021-07-27T11:30:21.000Z</time>
      </trkpt>
      <trkpt lat="48.19113" lon="-4.30074">
        <ele>8.3</ele>
        <time>2021-07-27T11:30:34.000Z</time>
      </trkpt>
      <trkpt lat="48.19097" lon="-4.30062">
        <ele>8.5</ele>
        <time>2021-07-27T11:30:47.000Z</time>
      </trkpt>
      <trkpt lat="48.1908" lon="-4.30052">
        <ele>8.1</ele>
        <time>2021-07-27T11:31:00.000Z</time>
      </trkpt>
      <trkpt lat="48.19062" lon="-4.3004">
        <ele>8.9</ele>
        <time>2021-07-27T11:31:14.000Z</time>
      </trkpt>
      <trkpt lat="48.19045" lon="-4.30029">
        <ele>9</ele>
        <time>2021-07-27T11:31:27.000Z</time>
      </trkpt>
      <trkpt lat="48.19028" lon="-4.30019">
        <ele>9.1</ele>
        <time>2021-07-27T11:31:40.000Z</time>
      </trkpt>
      <trkpt lat="48.19011" lon="-4.30008">
        <ele>9.2</ele>
        <time>2021-07-27T11:31:53.000Z</time>
      </trkpt>
      <trkpt lat="48.18994" lon="-4.29997">
        <ele>9.1</ele>
        <time>2021-07-27T11:32:06.000Z</time>
      </trkpt>
      <trkpt lat="48.18979" lon="-4.29978">
        <ele>8.7</ele>
        <time>2021-07-27T11:32:20.000Z</time>
      </trkpt>
      <trkpt lat="48.18961" lon="-4.29969">
        <ele>8.7</ele>
        <time>2021-07-27T11:32:34.000Z</time>
      </trkpt>
      <trkpt lat="48.18944" lon="-4.29958">
        <ele>8.4</ele>
        <time>2021-07-27T11:32:47.000Z</time>
      </trkpt>
      <trkpt lat="48.18927" lon="-4.29946">
        <ele>8.5</ele>
        <time>2021-07-27T11:33:00.000Z</time>
      </trkpt>
      <trkpt lat="48.1891" lon="-4.29935">
        <ele>8.6</ele>
        <time>2021-07-27T11:33:13.000Z</time>
      </trkpt>
      <trkpt lat="48.18893" lon="-4.29926">
        <ele>8.6</ele>
        <time>2021-07-27T11:33:26.000Z</time>
      </trkpt>
      <trkpt lat="48.18876" lon="-4.29914">
        <ele>8.7</ele>
        <time>2021-07-27T11:33:39.000Z</time>
      </trkpt>
      <trkpt lat="48.18865" lon="-4.2991">
        <ele>8.9</ele>
        <time>2021-07-27T11:33:52.000Z</time>
      </trkpt>
      <trkpt lat="48.18865" lon="-4.2991">
        <ele>8.8</ele>
        <time>2021-07-27T11:34:00.000Z</time>
      </trkpt>
      <trkpt lat="48.18865" lon="-4.2991">
        <ele>8.9</ele>
        <time>2021-07-27T11:34:01.000Z</time>
      </trkpt>
      <trkpt lat="48.18865" lon="-4.29909">
        <ele>9</ele>
        <time>2021-07-27T11:35:01.000Z</time>
      </trkpt>
      <trkpt lat="48.18849" lon="-4.29895">
        <ele>9.6</ele>
        <time>2021-07-27T11:35:15.000Z</time>
      </trkpt>
      <trkpt lat="48.18832" lon="-4.29883">
        <ele>9.5</ele>
        <time>2021-07-27T11:35:29.000Z</time>
      </trkpt>
      <trkpt lat="48.18814" lon="-4.29871">
        <ele>9.1</ele>
        <time>2021-07-27T11:35:43.000Z</time>
      </trkpt>
      <trkpt lat="48.18797" lon="-4.2986">
        <ele>9</ele>
        <time>2021-07-27T11:35:56.000Z</time>
      </trkpt>
      <trkpt lat="48.1878" lon="-4.29847">
        <ele>9.2</ele>
        <time>2021-07-27T11:36:09.000Z</time>
      </trkpt>
      <trkpt lat="48.18762" lon="-4.29835">
        <ele>9.2</ele>
        <time>2021-07-27T11:36:22.000Z</time>
      </trkpt>
      <trkpt lat="48.18746" lon="-4.29823">
        <ele>8.7</ele>
        <time>2021-07-27T11:36:34.000Z</time>
      </trkpt>
      <trkpt lat="48.18729" lon="-4.29809">
        <ele>8.1</ele>
        <time>2021-07-27T11:36:47.000Z</time>
      </trkpt>
      <trkpt lat="48.18714" lon="-4.29795">
        <ele>7.9</ele>
        <time>2021-07-27T11:37:00.000Z</time>
      </trkpt>
      <trkpt lat="48.18698" lon="-4.29781">
        <ele>7.6</ele>
        <time>2021-07-27T11:37:13.000Z</time>
      </trkpt>
      <trkpt lat="48.18682" lon="-4.29768">
        <ele>7.6</ele>
        <time>2021-07-27T11:37:26.000Z</time>
      </trkpt>
      <trkpt lat="48.18665" lon="-4.29755">
        <ele>7.7</ele>
        <time>2021-07-27T11:37:39.000Z</time>
      </trkpt>
      <trkpt lat="48.18648" lon="-4.29745">
        <ele>8</ele>
        <time>2021-07-27T11:37:52.000Z</time>
      </trkpt>
      <trkpt lat="48.18631" lon="-4.29735">
        <ele>8</ele>
        <time>2021-07-27T11:38:06.000Z</time>
      </trkpt>
      <trkpt lat="48.18614" lon="-4.29724">
        <ele>7.9</ele>
        <time>2021-07-27T11:38:20.000Z</time>
      </trkpt>
      <trkpt lat="48.18597" lon="-4.29711">
        <ele>7.5</ele>
        <time>2021-07-27T11:38:34.000Z</time>
      </trkpt>
      <trkpt lat="48.1858" lon="-4.297">
        <ele>7.3</ele>
        <time>2021-07-27T11:38:48.000Z</time>
      </trkpt>
      <trkpt lat="48.18563" lon="-4.29689">
        <ele>7.6</ele>
        <time>2021-07-27T11:39:01.000Z</time>
      </trkpt>
      <trkpt lat="48.18547" lon="-4.29675">
        <ele>7.3</ele>
        <time>2021-07-27T11:39:15.000Z</time>
      </trkpt>
      <trkpt lat="48.18531" lon="-4.2966">
        <ele>7.2</ele>
        <time>2021-07-27T11:39:29.000Z</time>
      </trkpt>
      <trkpt lat="48.18515" lon="-4.29644">
        <ele>6.4</ele>
        <time>2021-07-27T11:39:43.000Z</time>
      </trkpt>
      <trkpt lat="48.185" lon="-4.29626">
        <ele>7</ele>
        <time>2021-07-27T11:39:58.000Z</time>
      </trkpt>
      <trkpt lat="48.18489" lon="-4.29603">
        <ele>7.5</ele>
        <time>2021-07-27T11:40:12.000Z</time>
      </trkpt>
      <trkpt lat="48.18477" lon="-4.29582">
        <ele>7.5</ele>
        <time>2021-07-27T11:40:26.000Z</time>
      </trkpt>
      <trkpt lat="48.18469" lon="-4.29556">
        <ele>7.4</ele>
        <time>2021-07-27T11:40:40.000Z</time>
      </trkpt>
      <trkpt lat="48.18467" lon="-4.29528">
        <ele>8.4</ele>
        <time>2021-07-27T11:40:54.000Z</time>
      </trkpt>
      <trkpt lat="48.18455" lon="-4.29505">
        <ele>8.4</ele>
        <time>2021-07-27T11:41:08.000Z</time>
      </trkpt>
      <trkpt lat="48.18439" lon="-4.29491">
        <ele>8.2</ele>
        <time>2021-07-27T11:41:22.000Z</time>
      </trkpt>
      <trkpt lat="48.18423" lon="-4.29479">
        <ele>8.2</ele>
        <time>2021-07-27T11:41:35.000Z</time>
      </trkpt>
      <trkpt lat="48.18404" lon="-4.29475">
        <ele>8.7</ele>
        <time>2021-07-27T11:41:49.000Z</time>
      </trkpt>
      <trkpt lat="48.18385" lon="-4.29478">
        <ele>8.5</ele>
        <time>2021-07-27T11:42:04.000Z</time>
      </trkpt>
      <trkpt lat="48.18367" lon="-4.29481">
        <ele>7.7</ele>
        <time>2021-07-27T11:42:18.000Z</time>
      </trkpt>
      <trkpt lat="48.1835" lon="-4.29492">
        <ele>7.9</ele>
        <time>2021-07-27T11:42:33.000Z</time>
      </trkpt>
      <trkpt lat="48.18332" lon="-4.29498">
        <ele>7.9</ele>
        <time>2021-07-27T11:42:48.000Z</time>
      </trkpt>
      <trkpt lat="48.1833" lon="-4.29499">
        <ele>7.9</ele>
        <time>2021-07-27T11:42:53.000Z</time>
      </trkpt>
      <trkpt lat="48.1833" lon="-4.29499">
        <ele>7.9</ele>
        <time>2021-07-27T11:43:00.000Z</time>
      </trkpt>
      <trkpt lat="48.18313" lon="-4.29488">
        <ele>7</ele>
        <time>2021-07-27T11:43:15.000Z</time>
      </trkpt>
      <trkpt lat="48.18294" lon="-4.29482">
        <ele>6.4</ele>
        <time>2021-07-27T11:43:29.000Z</time>
      </trkpt>
      <trkpt lat="48.18275" lon="-4.29478">
        <ele>6.6</ele>
        <time>2021-07-27T11:43:43.000Z</time>
      </trkpt>
      <trkpt lat="48.18256" lon="-4.29474">
        <ele>6.7</ele>
        <time>2021-07-27T11:43:57.000Z</time>
      </trkpt>
      <trkpt lat="48.18238" lon="-4.29468">
        <ele>7.2</ele>
        <time>2021-07-27T11:44:11.000Z</time>
      </trkpt>
      <trkpt lat="48.1822" lon="-4.29461">
        <ele>7.2</ele>
        <time>2021-07-27T11:44:25.000Z</time>
      </trkpt>
      <trkpt lat="48.18202" lon="-4.29451">
        <ele>6.8</ele>
        <time>2021-07-27T11:44:39.000Z</time>
      </trkpt>
      <trkpt lat="48.18185" lon="-4.29442">
        <ele>7.3</ele>
        <time>2021-07-27T11:44:53.000Z</time>
      </trkpt>
      <trkpt lat="48.18168" lon="-4.29434">
        <ele>7.4</ele>
        <time>2021-07-27T11:45:07.000Z</time>
      </trkpt>
      <trkpt lat="48.1815" lon="-4.29428">
        <ele>7.1</ele>
        <time>2021-07-27T11:45:23.000Z</time>
      </trkpt>
      <trkpt lat="48.18135" lon="-4.29412">
        <ele>6.8</ele>
        <time>2021-07-27T11:45:37.000Z</time>
      </trkpt>
      <trkpt lat="48.18117" lon="-4.29403">
        <ele>6.9</ele>
        <time>2021-07-27T11:45:50.000Z</time>
      </trkpt>
      <trkpt lat="48.18099" lon="-4.29394">
        <ele>7.3</ele>
        <time>2021-07-27T11:46:04.000Z</time>
      </trkpt>
      <trkpt lat="48.18082" lon="-4.29385">
        <ele>6.9</ele>
        <time>2021-07-27T11:46:17.000Z</time>
      </trkpt>
      <trkpt lat="48.18064" lon="-4.29377">
        <ele>7.1</ele>
        <time>2021-07-27T11:46:30.000Z</time>
      </trkpt>
      <trkpt lat="48.18046" lon="-4.2937">
        <ele>7.2</ele>
        <time>2021-07-27T11:46:43.000Z</time>
      </trkpt>
      <trkpt lat="48.18029" lon="-4.29362">
        <ele>7</ele>
        <time>2021-07-27T11:46:56.000Z</time>
      </trkpt>
      <trkpt lat="48.18011" lon="-4.29355">
        <ele>6.6</ele>
        <time>2021-07-27T11:47:09.000Z</time>
      </trkpt>
      <trkpt lat="48.17994" lon="-4.29346">
        <ele>6.8</ele>
        <time>2021-07-27T11:47:22.000Z</time>
      </trkpt>
      <trkpt lat="48.17977" lon="-4.29337">
        <ele>6.7</ele>
        <time>2021-07-27T11:47:35.000Z</time>
      </trkpt>
      <trkpt lat="48.1796" lon="-4.29328">
        <ele>6.2</ele>
        <time>2021-07-27T11:47:48.000Z</time>
      </trkpt>
      <trkpt lat="48.17943" lon="-4.29319">
        <ele>6.4</ele>
        <time>2021-07-27T11:48:01.000Z</time>
      </trkpt>
      <trkpt lat="48.17925" lon="-4.2931">
        <ele>6.6</ele>
        <time>2021-07-27T11:48:14.000Z</time>
      </trkpt>
      <trkpt lat="48.17907" lon="-4.29302">
        <ele>7</ele>
        <time>2021-07-27T11:48:28.000Z</time>
      </trkpt>
      <trkpt lat="48.17889" lon="-4.29292">
        <ele>7.4</ele>
        <time>2021-07-27T11:48:42.000Z</time>
      </trkpt>
      <trkpt lat="48.17872" lon="-4.29282">
        <ele>6.9</ele>
        <time>2021-07-27T11:48:55.000Z</time>
      </trkpt>
      <trkpt lat="48.17855" lon="-4.29271">
        <ele>6.8</ele>
        <time>2021-07-27T11:49:08.000Z</time>
      </trkpt>
      <trkpt lat="48.17838" lon="-4.2926">
        <ele>7</ele>
        <time>2021-07-27T11:49:21.000Z</time>
      </trkpt>
      <trkpt lat="48.1782" lon="-4.29255">
        <ele>7.2</ele>
        <time>2021-07-27T11:49:35.000Z</time>
      </trkpt>
      <trkpt lat="48.17801" lon="-4.29252">
        <ele>7.3</ele>
        <time>2021-07-27T11:49:49.000Z</time>
      </trkpt>
      <trkpt lat="48.17785" lon="-4.29238">
        <ele>7.1</ele>
        <time>2021-07-27T11:50:02.000Z</time>
      </trkpt>
      <trkpt lat="48.17768" lon="-4.29225">
        <ele>7.6</ele>
        <time>2021-07-27T11:50:16.000Z</time>
      </trkpt>
      <trkpt lat="48.17751" lon="-4.29214">
        <ele>7.7</ele>
        <time>2021-07-27T11:50:29.000Z</time>
      </trkpt>
      <trkpt lat="48.17733" lon="-4.29205">
        <ele>8</ele>
        <time>2021-07-27T11:50:42.000Z</time>
      </trkpt>
      <trkpt lat="48.17717" lon="-4.29192">
        <ele>7.8</ele>
        <time>2021-07-27T11:50:56.000Z</time>
      </trkpt>
      <trkpt lat="48.17702" lon="-4.29175">
        <ele>6.9</ele>
        <time>2021-07-27T11:51:09.000Z</time>
      </trkpt>
      <trkpt lat="48.17689" lon="-4.29154">
        <ele>6.4</ele>
        <time>2021-07-27T11:51:23.000Z</time>
      </trkpt>
      <trkpt lat="48.17673" lon="-4.29141">
        <ele>6.8</ele>
        <time>2021-07-27T11:51:37.000Z</time>
      </trkpt>
      <trkpt lat="48.17658" lon="-4.29123">
        <ele>7.1</ele>
        <time>2021-07-27T11:51:51.000Z</time>
      </trkpt>
      <trkpt lat="48.17644" lon="-4.29106">
        <ele>7.3</ele>
        <time>2021-07-27T11:52:05.000Z</time>
      </trkpt>
      <trkpt lat="48.17626" lon="-4.29104">
        <ele>7</ele>
        <time>2021-07-27T11:52:18.000Z</time>
      </trkpt>
      <trkpt lat="48.17607" lon="-4.29101">
        <ele>6.6</ele>
        <time>2021-07-27T11:52:32.000Z</time>
      </trkpt>
      <trkpt lat="48.17587" lon="-4.29099">
        <ele>6.5</ele>
        <time>2021-07-27T11:52:46.000Z</time>
      </trkpt>
      <trkpt lat="48.17569" lon="-4.29099">
        <ele>6.2</ele>
        <time>2021-07-27T11:53:00.000Z</time>
      </trkpt>
      <trkpt lat="48.17552" lon="-4.29086">
        <ele>6.2</ele>
        <time>2021-07-27T11:53:17.000Z</time>
      </trkpt>
      <trkpt lat="48.17547" lon="-4.29058">
        <ele>6.2</ele>
        <time>2021-07-27T11:53:33.000Z</time>
      </trkpt>
      <trkpt lat="48.17542" lon="-4.29031">
        <ele>5.9</ele>
        <time>2021-07-27T11:53:48.000Z</time>
      </trkpt>
      <trkpt lat="48.17539" lon="-4.29008">
        <ele>6.2</ele>
        <time>2021-07-27T11:54:03.000Z</time>
      </trkpt>
      <trkpt lat="48.17539" lon="-4.29008">
        <ele>6.2</ele>
        <time>2021-07-27T11:54:06.000Z</time>
      </trkpt>
      <trkpt lat="48.17535" lon="-4.29005">
        <ele>6.4</ele>
        <time>2021-07-27T11:54:14.000Z</time>
      </trkpt>
      <trkpt lat="48.17535" lon="-4.29005">
        <ele>6.5</ele>
        <time>2021-07-27T11:54:16.000Z</time>
      </trkpt>
      <trkpt lat="48.17535" lon="-4.29005">
        <ele>6.5</ele>
        <time>2021-07-27T11:54:17.000Z</time>
      </trkpt>
      <trkpt lat="48.17536" lon="-4.29005">
        <ele>6.6</ele>
        <time>2021-07-27T11:54:18.000Z</time>
      </trkpt>
      <trkpt lat="48.17536" lon="-4.29005">
        <ele>6.6</ele>
        <time>2021-07-27T11:54:19.000Z</time>
      </trkpt>
      <trkpt lat="48.17535" lon="-4.29005">
        <ele>6.6</ele>
        <time>2021-07-27T11:54:20.000Z</time>
      </trkpt>
      <trkpt lat="48.17535" lon="-4.29005">
        <ele>6.6</ele>
        <time>2021-07-27T11:54:21.000Z</time>
      </trkpt>
      <trkpt lat="48.17535" lon="-4.29004">
        <ele>7</ele>
        <time>2021-07-27T11:54:43.000Z</time>
      </trkpt>
      <trkpt lat="48.17535" lon="-4.29004">
        <ele>7.2</ele>
        <time>2021-07-27T11:54:45.000Z</time>
      </trkpt>
      <trkpt lat="48.17535" lon="-4.29003">
        <ele>7.1</ele>
        <time>2021-07-27T11:55:17.000Z</time>
      </trkpt>
      <trkpt lat="48.17535" lon="-4.29003">
        <ele>7.1</ele>
        <time>2021-07-27T11:55:18.000Z</time>
      </trkpt>
      <trkpt lat="48.17535" lon="-4.29003">
        <ele>7.2</ele>
        <time>2021-07-27T11:55:25.000Z</time>
      </trkpt>
      <trkpt lat="48.17535" lon="-4.29003">
        <ele>7</ele>
        <time>2021-07-27T11:55:26.000Z</time>
      </trkpt>
      <trkpt lat="48.17536" lon="-4.29003">
        <ele>6.9</ele>
        <time>2021-07-27T11:55:28.000Z</time>
      </trkpt>
      <trkpt lat="48.17535" lon="-4.29004">
        <ele>6.7</ele>
        <time>2021-07-27T11:55:32.000Z</time>
      </trkpt>
      <trkpt lat="48.17535" lon="-4.29004">
        <ele>6.6</ele>
        <time>2021-07-27T11:55:43.000Z</time>
      </trkpt>
      <trkpt lat="48.17535" lon="-4.29004">
        <ele>6.6</ele>
        <time>2021-07-27T11:55:44.000Z</time>
      </trkpt>
      <trkpt lat="48.17535" lon="-4.29004">
        <ele>6.8</ele>
        <time>2021-07-27T11:55:48.000Z</time>
      </trkpt>
      <trkpt lat="48.17526" lon="-4.28979">
        <ele>8.2</ele>
        <time>2021-07-27T11:56:14.000Z</time>
      </trkpt>
      <trkpt lat="48.17513" lon="-4.28962">
        <ele>8.5</ele>
        <time>2021-07-27T11:56:30.000Z</time>
      </trkpt>
      <trkpt lat="48.17512" lon="-4.28962">
        <ele>8.5</ele>
        <time>2021-07-27T11:56:33.000Z</time>
      </trkpt>
      <trkpt lat="48.17498" lon="-4.28946">
        <ele>9.5</ele>
        <time>2021-07-27T11:56:49.000Z</time>
      </trkpt>
      <trkpt lat="48.17481" lon="-4.28935">
        <ele>11.4</ele>
        <time>2021-07-27T11:57:02.000Z</time>
      </trkpt>
      <trkpt lat="48.17463" lon="-4.28924">
        <ele>12.4</ele>
        <time>2021-07-27T11:57:16.000Z</time>
      </trkpt>
      <trkpt lat="48.17446" lon="-4.28915">
        <ele>13.3</ele>
        <time>2021-07-27T11:57:29.000Z</time>
      </trkpt>
      <trkpt lat="48.17432" lon="-4.28895">
        <ele>13.8</ele>
        <time>2021-07-27T11:57:43.000Z</time>
      </trkpt>
      <trkpt lat="48.17415" lon="-4.28907">
        <ele>15.5</ele>
        <time>2021-07-27T11:58:01.000Z</time>
      </trkpt>
      <trkpt lat="48.17414" lon="-4.28909">
        <ele>16.7</ele>
        <time>2021-07-27T11:58:05.000Z</time>
      </trkpt>
      <trkpt lat="48.17414" lon="-4.28909">
        <ele>16.7</ele>
        <time>2021-07-27T11:58:06.000Z</time>
      </trkpt>
      <trkpt lat="48.17415" lon="-4.28909">
        <ele>16.9</ele>
        <time>2021-07-27T11:58:08.000Z</time>
      </trkpt>
      <trkpt lat="48.17415" lon="-4.28909">
        <ele>17.3</ele>
        <time>2021-07-27T11:58:09.000Z</time>
      </trkpt>
      <trkpt lat="48.17404" lon="-4.28932">
        <ele>20.3</ele>
        <time>2021-07-27T11:58:23.000Z</time>
      </trkpt>
      <trkpt lat="48.17393" lon="-4.28955">
        <ele>22.8</ele>
        <time>2021-07-27T11:58:36.000Z</time>
      </trkpt>
      <trkpt lat="48.17382" lon="-4.2898">
        <ele>23</ele>
        <time>2021-07-27T11:58:49.000Z</time>
      </trkpt>
      <trkpt lat="48.17369" lon="-4.28999">
        <ele>23.7</ele>
        <time>2021-07-27T11:59:01.000Z</time>
      </trkpt>
      <trkpt lat="48.17354" lon="-4.29018">
        <ele>24</ele>
        <time>2021-07-27T11:59:14.000Z</time>
      </trkpt>
      <trkpt lat="48.1734" lon="-4.29034">
        <ele>24.7</ele>
        <time>2021-07-27T11:59:26.000Z</time>
      </trkpt>
      <trkpt lat="48.17327" lon="-4.29055">
        <ele>25.3</ele>
        <time>2021-07-27T11:59:39.000Z</time>
      </trkpt>
      <trkpt lat="48.17317" lon="-4.29078">
        <ele>24.7</ele>
        <time>2021-07-27T11:59:51.000Z</time>
      </trkpt>
      <trkpt lat="48.17304" lon="-4.29099">
        <ele>23.8</ele>
        <time>2021-07-27T12:00:04.000Z</time>
      </trkpt>
      <trkpt lat="48.17286" lon="-4.29108">
        <ele>23.6</ele>
        <time>2021-07-27T12:00:18.000Z</time>
      </trkpt>
      <trkpt lat="48.17268" lon="-4.29115">
        <ele>23</ele>
        <time>2021-07-27T12:00:31.000Z</time>
      </trkpt>
      <trkpt lat="48.17252" lon="-4.2913">
        <ele>22.5</ele>
        <time>2021-07-27T12:00:45.000Z</time>
      </trkpt>
      <trkpt lat="48.17237" lon="-4.29145">
        <ele>21.2</ele>
        <time>2021-07-27T12:00:59.000Z</time>
      </trkpt>
      <trkpt lat="48.17224" lon="-4.29166">
        <ele>17.9</ele>
        <time>2021-07-27T12:01:19.000Z</time>
      </trkpt>
      <trkpt lat="48.17218" lon="-4.29186">
        <ele>15.7</ele>
        <time>2021-07-27T12:01:35.000Z</time>
      </trkpt>
      <trkpt lat="48.17218" lon="-4.29186">
        <ele>15.5</ele>
        <time>2021-07-27T12:01:37.000Z</time>
      </trkpt>
      <trkpt lat="48.17201" lon="-4.29176">
        <ele>10.1</ele>
        <time>2021-07-27T12:02:04.000Z</time>
      </trkpt>
      <trkpt lat="48.17182" lon="-4.29171">
        <ele>7.3</ele>
        <time>2021-07-27T12:02:19.000Z</time>
      </trkpt>
      <trkpt lat="48.17164" lon="-4.29166">
        <ele>5.9</ele>
        <time>2021-07-27T12:02:33.000Z</time>
      </trkpt>
      <trkpt lat="48.17145" lon="-4.29161">
        <ele>4.9</ele>
        <time>2021-07-27T12:02:48.000Z</time>
      </trkpt>
      <trkpt lat="48.17126" lon="-4.29158">
        <ele>4.4</ele>
        <time>2021-07-27T12:03:03.000Z</time>
      </trkpt>
      <trkpt lat="48.17108" lon="-4.29154">
        <ele>3.8</ele>
        <time>2021-07-27T12:03:17.000Z</time>
      </trkpt>
      <trkpt lat="48.17088" lon="-4.29152">
        <ele>4.2</ele>
        <time>2021-07-27T12:03:31.000Z</time>
      </trkpt>
      <trkpt lat="48.1707" lon="-4.29151">
        <ele>4.1</ele>
        <time>2021-07-27T12:03:45.000Z</time>
      </trkpt>
      <trkpt lat="48.17051" lon="-4.29151">
        <ele>3.3</ele>
        <time>2021-07-27T12:03:58.000Z</time>
      </trkpt>
      <trkpt lat="48.17032" lon="-4.29152">
        <ele>3.2</ele>
        <time>2021-07-27T12:04:12.000Z</time>
      </trkpt>
      <trkpt lat="48.17013" lon="-4.29155">
        <ele>3.6</ele>
        <time>2021-07-27T12:04:26.000Z</time>
      </trkpt>
      <trkpt lat="48.16994" lon="-4.29159">
        <ele>3.9</ele>
        <time>2021-07-27T12:04:40.000Z</time>
      </trkpt>
      <trkpt lat="48.16976" lon="-4.29165">
        <ele>4.5</ele>
        <time>2021-07-27T12:04:53.000Z</time>
      </trkpt>
      <trkpt lat="48.16959" lon="-4.29173">
        <ele>4.6</ele>
        <time>2021-07-27T12:05:06.000Z</time>
      </trkpt>
      <trkpt lat="48.1694" lon="-4.29181">
        <ele>4.4</ele>
        <time>2021-07-27T12:05:20.000Z</time>
      </trkpt>
      <trkpt lat="48.16923" lon="-4.29191">
        <ele>4</ele>
        <time>2021-07-27T12:05:34.000Z</time>
      </trkpt>
      <trkpt lat="48.16906" lon="-4.29202">
        <ele>3.9</ele>
        <time>2021-07-27T12:05:48.000Z</time>
      </trkpt>
      <trkpt lat="48.16888" lon="-4.29208">
        <ele>5.3</ele>
        <time>2021-07-27T12:06:06.000Z</time>
      </trkpt>
      <trkpt lat="48.16872" lon="-4.29223">
        <ele>5.3</ele>
        <time>2021-07-27T12:06:20.000Z</time>
      </trkpt>
      <trkpt lat="48.16857" lon="-4.29241">
        <ele>6.4</ele>
        <time>2021-07-27T12:06:34.000Z</time>
      </trkpt>
      <trkpt lat="48.16841" lon="-4.29256">
        <ele>6.9</ele>
        <time>2021-07-27T12:06:47.000Z</time>
      </trkpt>
      <trkpt lat="48.16825" lon="-4.29272">
        <ele>7.2</ele>
        <time>2021-07-27T12:07:00.000Z</time>
      </trkpt>
      <trkpt lat="48.16811" lon="-4.2929">
        <ele>6.9</ele>
        <time>2021-07-27T12:07:13.000Z</time>
      </trkpt>
      <trkpt lat="48.16797" lon="-4.29311">
        <ele>5.4</ele>
        <time>2021-07-27T12:07:26.000Z</time>
      </trkpt>
      <trkpt lat="48.16784" lon="-4.2933">
        <ele>5.2</ele>
        <time>2021-07-27T12:07:39.000Z</time>
      </trkpt>
      <trkpt lat="48.1677" lon="-4.29349">
        <ele>5.7</ele>
        <time>2021-07-27T12:07:52.000Z</time>
      </trkpt>
      <trkpt lat="48.16758" lon="-4.2937">
        <ele>5.3</ele>
        <time>2021-07-27T12:08:06.000Z</time>
      </trkpt>
      <trkpt lat="48.16746" lon="-4.29391">
        <ele>9.8</ele>
        <time>2021-07-27T12:08:39.000Z</time>
      </trkpt>
      <trkpt lat="48.16755" lon="-4.29412">
        <ele>16</ele>
        <time>2021-07-27T12:09:24.000Z</time>
      </trkpt>
      <trkpt lat="48.16755" lon="-4.29412">
        <ele>16.1</ele>
        <time>2021-07-27T12:09:26.000Z</time>
      </trkpt>
      <trkpt lat="48.16755" lon="-4.29415">
        <ele>15.5</ele>
        <time>2021-07-27T12:09:30.000Z</time>
      </trkpt>
      <trkpt lat="48.16756" lon="-4.29416">
        <ele>15.5</ele>
        <time>2021-07-27T12:09:37.000Z</time>
      </trkpt>
      <trkpt lat="48.16756" lon="-4.29416">
        <ele>15.5</ele>
        <time>2021-07-27T12:09:38.000Z</time>
      </trkpt>
      <trkpt lat="48.16756" lon="-4.29415">
        <ele>15.6</ele>
        <time>2021-07-27T12:10:36.000Z</time>
      </trkpt>
      <trkpt lat="48.16756" lon="-4.29415">
        <ele>15.6</ele>
        <time>2021-07-27T12:10:37.000Z</time>
      </trkpt>
      <trkpt lat="48.16756" lon="-4.29415">
        <ele>15.5</ele>
        <time>2021-07-27T12:11:32.000Z</time>
      </trkpt>
      <trkpt lat="48.16755" lon="-4.29416">
        <ele>15.4</ele>
        <time>2021-07-27T12:11:36.000Z</time>
      </trkpt>
      <trkpt lat="48.16755" lon="-4.29416">
        <ele>15.3</ele>
        <time>2021-07-27T12:11:37.000Z</time>
      </trkpt>
      <trkpt lat="48.16755" lon="-4.29417">
        <ele>15.1</ele>
        <time>2021-07-27T12:11:45.000Z</time>
      </trkpt>
      <trkpt lat="48.16754" lon="-4.29417">
        <ele>15.1</ele>
        <time>2021-07-27T12:11:46.000Z</time>
      </trkpt>
      <trkpt lat="48.16755" lon="-4.29417">
        <ele>15.5</ele>
        <time>2021-07-27T12:11:49.000Z</time>
      </trkpt>
      <trkpt lat="48.16755" lon="-4.29417">
        <ele>15.5</ele>
        <time>2021-07-27T12:12:02.000Z</time>
      </trkpt>
      <trkpt lat="48.16755" lon="-4.29417">
        <ele>15.5</ele>
        <time>2021-07-27T12:12:03.000Z</time>
      </trkpt>
      <trkpt lat="48.16755" lon="-4.29417">
        <ele>15.8</ele>
        <time>2021-07-27T12:12:10.000Z</time>
      </trkpt>
      <trkpt lat="48.16755" lon="-4.29417">
        <ele>15.8</ele>
        <time>2021-07-27T12:12:11.000Z</time>
      </trkpt>
      <trkpt lat="48.16755" lon="-4.29417">
        <ele>15.8</ele>
        <time>2021-07-27T12:12:40.000Z</time>
      </trkpt>
      <trkpt lat="48.16755" lon="-4.29417">
        <ele>15.8</ele>
        <time>2021-07-27T12:12:41.000Z</time>
      </trkpt>
      <trkpt lat="48.16755" lon="-4.29417">
        <ele>15.8</ele>
        <time>2021-07-27T12:13:09.000Z</time>
      </trkpt>
      <trkpt lat="48.16755" lon="-4.29417">
        <ele>15.8</ele>
        <time>2021-07-27T12:13:10.000Z</time>
      </trkpt>
      <trkpt lat="48.16755" lon="-4.29416">
        <ele>15.9</ele>
        <time>2021-07-27T12:13:14.000Z</time>
      </trkpt>
      <trkpt lat="48.16755" lon="-4.29416">
        <ele>15.9</ele>
        <time>2021-07-27T12:13:15.000Z</time>
      </trkpt>
      <trkpt lat="48.16756" lon="-4.29416">
        <ele>16</ele>
        <time>2021-07-27T12:13:19.000Z</time>
      </trkpt>
      <trkpt lat="48.16756" lon="-4.29416">
        <ele>15.9</ele>
        <time>2021-07-27T12:13:21.000Z</time>
      </trkpt>
      <trkpt lat="48.16756" lon="-4.29417">
        <ele>15.8</ele>
        <time>2021-07-27T12:13:23.000Z</time>
      </trkpt>
      <trkpt lat="48.16756" lon="-4.29417">
        <ele>15.7</ele>
        <time>2021-07-27T12:13:25.000Z</time>
      </trkpt>
      <trkpt lat="48.16756" lon="-4.29418">
        <ele>15.7</ele>
        <time>2021-07-27T12:14:06.000Z</time>
      </trkpt>
      <trkpt lat="48.16765" lon="-4.29443">
        <ele>15.9</ele>
        <time>2021-07-27T12:14:22.000Z</time>
      </trkpt>
      <trkpt lat="48.16776" lon="-4.29466">
        <ele>16</ele>
        <time>2021-07-27T12:14:36.000Z</time>
      </trkpt>
      <trkpt lat="48.16792" lon="-4.2948">
        <ele>16.6</ele>
        <time>2021-07-27T12:14:48.000Z</time>
      </trkpt>
      <trkpt lat="48.16809" lon="-4.29494">
        <ele>16.4</ele>
        <time>2021-07-27T12:15:01.000Z</time>
      </trkpt>
      <trkpt lat="48.16819" lon="-4.29501">
        <ele>13.2</ele>
        <time>2021-07-27T12:15:16.000Z</time>
      </trkpt>
      <trkpt lat="48.16819" lon="-4.29501">
        <ele>13.1</ele>
        <time>2021-07-27T12:15:28.000Z</time>
      </trkpt>
      <trkpt lat="48.1682" lon="-4.29503">
        <ele>12.9</ele>
        <time>2021-07-27T12:15:40.000Z</time>
      </trkpt>
      <trkpt lat="48.16821" lon="-4.29504">
        <ele>13</ele>
        <time>2021-07-27T12:16:15.000Z</time>
      </trkpt>
      <trkpt lat="48.1683" lon="-4.29529">
        <ele>13.9</ele>
        <time>2021-07-27T12:16:29.000Z</time>
      </trkpt>
      <trkpt lat="48.16834" lon="-4.29557">
        <ele>13.9</ele>
        <time>2021-07-27T12:16:42.000Z</time>
      </trkpt>
      <trkpt lat="48.1684" lon="-4.29583">
        <ele>12.8</ele>
        <time>2021-07-27T12:16:54.000Z</time>
      </trkpt>
      <trkpt lat="48.16848" lon="-4.29609">
        <ele>12.8</ele>
        <time>2021-07-27T12:17:08.000Z</time>
      </trkpt>
      <trkpt lat="48.16851" lon="-4.29636">
        <ele>12.7</ele>
        <time>2021-07-27T12:17:23.000Z</time>
      </trkpt>
      <trkpt lat="48.16854" lon="-4.29663">
        <ele>12.3</ele>
        <time>2021-07-27T12:17:37.000Z</time>
      </trkpt>
      <trkpt lat="48.16853" lon="-4.29669">
        <ele>12.7</ele>
        <time>2021-07-27T12:17:42.000Z</time>
      </trkpt>
      <trkpt lat="48.16853" lon="-4.2967">
        <ele>12.8</ele>
        <time>2021-07-27T12:17:51.000Z</time>
      </trkpt>
      <trkpt lat="48.16858" lon="-4.29697">
        <ele>12.6</ele>
        <time>2021-07-27T12:18:03.000Z</time>
      </trkpt>
      <trkpt lat="48.16861" lon="-4.29725">
        <ele>12.8</ele>
        <time>2021-07-27T12:18:16.000Z</time>
      </trkpt>
      <trkpt lat="48.16851" lon="-4.29748">
        <ele>15</ele>
        <time>2021-07-27T12:18:32.000Z</time>
      </trkpt>
      <trkpt lat="48.16839" lon="-4.2977">
        <ele>17.4</ele>
        <time>2021-07-27T12:18:50.000Z</time>
      </trkpt>
      <trkpt lat="48.16826" lon="-4.2979">
        <ele>22.7</ele>
        <time>2021-07-27T12:19:07.000Z</time>
      </trkpt>
      <trkpt lat="48.1681" lon="-4.29805">
        <ele>24.7</ele>
        <time>2021-07-27T12:19:23.000Z</time>
      </trkpt>
      <trkpt lat="48.16794" lon="-4.29819">
        <ele>25.6</ele>
        <time>2021-07-27T12:19:37.000Z</time>
      </trkpt>
      <trkpt lat="48.16787" lon="-4.29833">
        <ele>26.8</ele>
        <time>2021-07-27T12:19:49.000Z</time>
      </trkpt>
      <trkpt lat="48.16787" lon="-4.29833">
        <ele>26.9</ele>
        <time>2021-07-27T12:19:58.000Z</time>
      </trkpt>
      <trkpt lat="48.16785" lon="-4.29838">
        <ele>26.6</ele>
        <time>2021-07-27T12:20:05.000Z</time>
      </trkpt>
      <trkpt lat="48.16785" lon="-4.29838">
        <ele>26.5</ele>
        <time>2021-07-27T12:20:06.000Z</time>
      </trkpt>
      <trkpt lat="48.16771" lon="-4.29855">
        <ele>24.7</ele>
        <time>2021-07-27T12:20:25.000Z</time>
      </trkpt>
      <trkpt lat="48.16753" lon="-4.29843">
        <ele>23.1</ele>
        <time>2021-07-27T12:20:48.000Z</time>
      </trkpt>
      <trkpt lat="48.16739" lon="-4.29826">
        <ele>21.6</ele>
        <time>2021-07-27T12:21:03.000Z</time>
      </trkpt>
      <trkpt lat="48.16731" lon="-4.29812">
        <ele>21.2</ele>
        <time>2021-07-27T12:21:23.000Z</time>
      </trkpt>
      <trkpt lat="48.16731" lon="-4.29812">
        <ele>20.9</ele>
        <time>2021-07-27T12:21:44.000Z</time>
      </trkpt>
      <trkpt lat="48.16723" lon="-4.29787">
        <ele>21.1</ele>
        <time>2021-07-27T12:21:59.000Z</time>
      </trkpt>
      <trkpt lat="48.16718" lon="-4.29759">
        <ele>20.7</ele>
        <time>2021-07-27T12:22:14.000Z</time>
      </trkpt>
      <trkpt lat="48.16706" lon="-4.29738">
        <ele>20.3</ele>
        <time>2021-07-27T12:22:33.000Z</time>
      </trkpt>
      <trkpt lat="48.16687" lon="-4.29729">
        <ele>20.6</ele>
        <time>2021-07-27T12:22:48.000Z</time>
      </trkpt>
      <trkpt lat="48.16672" lon="-4.29713">
        <ele>19.8</ele>
        <time>2021-07-27T12:23:02.000Z</time>
      </trkpt>
      <trkpt lat="48.16652" lon="-4.29709">
        <ele>20.1</ele>
        <time>2021-07-27T12:23:15.000Z</time>
      </trkpt>
      <trkpt lat="48.16634" lon="-4.29706">
        <ele>19.3</ele>
        <time>2021-07-27T12:23:27.000Z</time>
      </trkpt>
      <trkpt lat="48.16615" lon="-4.29709">
        <ele>18.5</ele>
        <time>2021-07-27T12:23:41.000Z</time>
      </trkpt>
      <trkpt lat="48.16597" lon="-4.29717">
        <ele>16.3</ele>
        <time>2021-07-27T12:23:55.000Z</time>
      </trkpt>
      <trkpt lat="48.16579" lon="-4.29723">
        <ele>15.3</ele>
        <time>2021-07-27T12:24:08.000Z</time>
      </trkpt>
      <trkpt lat="48.16561" lon="-4.29725">
        <ele>15.1</ele>
        <time>2021-07-27T12:24:21.000Z</time>
      </trkpt>
      <trkpt lat="48.16543" lon="-4.2972">
        <ele>13.7</ele>
        <time>2021-07-27T12:24:38.000Z</time>
      </trkpt>
      <trkpt lat="48.16542" lon="-4.29693">
        <ele>13.3</ele>
        <time>2021-07-27T12:24:53.000Z</time>
      </trkpt>
      <trkpt lat="48.16532" lon="-4.2967">
        <ele>10.8</ele>
        <time>2021-07-27T12:25:07.000Z</time>
      </trkpt>
      <trkpt lat="48.16531" lon="-4.29641">
        <ele>9.5</ele>
        <time>2021-07-27T12:25:21.000Z</time>
      </trkpt>
      <trkpt lat="48.16538" lon="-4.29615">
        <ele>10.2</ele>
        <time>2021-07-27T12:25:34.000Z</time>
      </trkpt>
      <trkpt lat="48.16545" lon="-4.2959">
        <ele>11.5</ele>
        <time>2021-07-27T12:25:48.000Z</time>
      </trkpt>
      <trkpt lat="48.16546" lon="-4.29563">
        <ele>12.1</ele>
        <time>2021-07-27T12:26:04.000Z</time>
      </trkpt>
      <trkpt lat="48.16547" lon="-4.29535">
        <ele>12.2</ele>
        <time>2021-07-27T12:26:21.000Z</time>
      </trkpt>
      <trkpt lat="48.16537" lon="-4.29512">
        <ele>13.5</ele>
        <time>2021-07-27T12:26:36.000Z</time>
      </trkpt>
      <trkpt lat="48.16521" lon="-4.29496">
        <ele>13.6</ele>
        <time>2021-07-27T12:26:49.000Z</time>
      </trkpt>
      <trkpt lat="48.16507" lon="-4.29477">
        <ele>15.1</ele>
        <time>2021-07-27T12:27:02.000Z</time>
      </trkpt>
      <trkpt lat="48.16492" lon="-4.29459">
        <ele>14.1</ele>
        <time>2021-07-27T12:27:17.000Z</time>
      </trkpt>
      <trkpt lat="48.16483" lon="-4.29435">
        <ele>13.2</ele>
        <time>2021-07-27T12:27:30.000Z</time>
      </trkpt>
      <trkpt lat="48.16478" lon="-4.29408">
        <ele>13.1</ele>
        <time>2021-07-27T12:27:44.000Z</time>
      </trkpt>
      <trkpt lat="48.16471" lon="-4.29383">
        <ele>15.2</ele>
        <time>2021-07-27T12:27:59.000Z</time>
      </trkpt>
      <trkpt lat="48.16458" lon="-4.29362">
        <ele>16.4</ele>
        <time>2021-07-27T12:28:14.000Z</time>
      </trkpt>
      <trkpt lat="48.16442" lon="-4.29347">
        <ele>18.9</ele>
        <time>2021-07-27T12:28:29.000Z</time>
      </trkpt>
      <trkpt lat="48.16424" lon="-4.29345">
        <ele>19.4</ele>
        <time>2021-07-27T12:28:42.000Z</time>
      </trkpt>
      <trkpt lat="48.16406" lon="-4.29352">
        <ele>19.6</ele>
        <time>2021-07-27T12:28:55.000Z</time>
      </trkpt>
      <trkpt lat="48.16387" lon="-4.29352">
        <ele>20.4</ele>
        <time>2021-07-27T12:29:09.000Z</time>
      </trkpt>
      <trkpt lat="48.16368" lon="-4.29355">
        <ele>20.7</ele>
        <time>2021-07-27T12:29:23.000Z</time>
      </trkpt>
      <trkpt lat="48.16349" lon="-4.29351">
        <ele>22.1</ele>
        <time>2021-07-27T12:29:37.000Z</time>
      </trkpt>
      <trkpt lat="48.1633" lon="-4.29347">
        <ele>22.2</ele>
        <time>2021-07-27T12:29:50.000Z</time>
      </trkpt>
      <trkpt lat="48.16312" lon="-4.29346">
        <ele>22.6</ele>
        <time>2021-07-27T12:30:02.000Z</time>
      </trkpt>
      <trkpt lat="48.16293" lon="-4.29343">
        <ele>23.1</ele>
        <time>2021-07-27T12:30:15.000Z</time>
      </trkpt>
      <trkpt lat="48.16274" lon="-4.2934">
        <ele>24.1</ele>
        <time>2021-07-27T12:30:28.000Z</time>
      </trkpt>
      <trkpt lat="48.16255" lon="-4.29337">
        <ele>24.9</ele>
        <time>2021-07-27T12:30:41.000Z</time>
      </trkpt>
      <trkpt lat="48.16237" lon="-4.29339">
        <ele>25.8</ele>
        <time>2021-07-27T12:30:54.000Z</time>
      </trkpt>
      <trkpt lat="48.16219" lon="-4.29346">
        <ele>26.1</ele>
        <time>2021-07-27T12:31:07.000Z</time>
      </trkpt>
      <trkpt lat="48.16203" lon="-4.29363">
        <ele>26.1</ele>
        <time>2021-07-27T12:31:21.000Z</time>
      </trkpt>
      <trkpt lat="48.16187" lon="-4.29377">
        <ele>27.8</ele>
        <time>2021-07-27T12:31:34.000Z</time>
      </trkpt>
      <trkpt lat="48.16174" lon="-4.29396">
        <ele>28.8</ele>
        <time>2021-07-27T12:31:47.000Z</time>
      </trkpt>
      <trkpt lat="48.16164" lon="-4.29419">
        <ele>28.5</ele>
        <time>2021-07-27T12:32:00.000Z</time>
      </trkpt>
      <trkpt lat="48.16153" lon="-4.29443">
        <ele>28.2</ele>
        <time>2021-07-27T12:32:14.000Z</time>
      </trkpt>
      <trkpt lat="48.1614" lon="-4.29464">
        <ele>28.3</ele>
        <time>2021-07-27T12:32:27.000Z</time>
      </trkpt>
      <trkpt lat="48.16131" lon="-4.29487">
        <ele>28.1</ele>
        <time>2021-07-27T12:32:39.000Z</time>
      </trkpt>
      <trkpt lat="48.16123" lon="-4.29512">
        <ele>27.4</ele>
        <time>2021-07-27T12:32:52.000Z</time>
      </trkpt>
      <trkpt lat="48.16106" lon="-4.29523">
        <ele>24.4</ele>
        <time>2021-07-27T12:33:08.000Z</time>
      </trkpt>
      <trkpt lat="48.16093" lon="-4.29503">
        <ele>22.5</ele>
        <time>2021-07-27T12:33:23.000Z</time>
      </trkpt>
      <trkpt lat="48.16087" lon="-4.29477">
        <ele>24.3</ele>
        <time>2021-07-27T12:33:43.000Z</time>
      </trkpt>
      <trkpt lat="48.16073" lon="-4.2946">
        <ele>28.4</ele>
        <time>2021-07-27T12:34:01.000Z</time>
      </trkpt>
      <trkpt lat="48.16055" lon="-4.2947">
        <ele>32.3</ele>
        <time>2021-07-27T12:34:19.000Z</time>
      </trkpt>
      <trkpt lat="48.16039" lon="-4.29487">
        <ele>35.7</ele>
        <time>2021-07-27T12:34:34.000Z</time>
      </trkpt>
      <trkpt lat="48.16028" lon="-4.29509">
        <ele>37.3</ele>
        <time>2021-07-27T12:34:47.000Z</time>
      </trkpt>
      <trkpt lat="48.16018" lon="-4.29531">
        <ele>37.9</ele>
        <time>2021-07-27T12:35:00.000Z</time>
      </trkpt>
      <trkpt lat="48.16004" lon="-4.29548">
        <ele>40.3</ele>
        <time>2021-07-27T12:35:20.000Z</time>
      </trkpt>
      <trkpt lat="48.16006" lon="-4.29555">
        <ele>39.4</ele>
        <time>2021-07-27T12:35:31.000Z</time>
      </trkpt>
      <trkpt lat="48.16006" lon="-4.29555">
        <ele>39.3</ele>
        <time>2021-07-27T12:35:34.000Z</time>
      </trkpt>
      <trkpt lat="48.16006" lon="-4.29555">
        <ele>39.3</ele>
        <time>2021-07-27T12:35:35.000Z</time>
      </trkpt>
      <trkpt lat="48.16006" lon="-4.29555">
        <ele>39.3</ele>
        <time>2021-07-27T12:35:37.000Z</time>
      </trkpt>
      <trkpt lat="48.16006" lon="-4.29554">
        <ele>39.4</ele>
        <time>2021-07-27T12:35:39.000Z</time>
      </trkpt>
      <trkpt lat="48.16006" lon="-4.29554">
        <ele>39.5</ele>
        <time>2021-07-27T12:35:41.000Z</time>
      </trkpt>
      <trkpt lat="48.16006" lon="-4.29553">
        <ele>39.9</ele>
        <time>2021-07-27T12:35:43.000Z</time>
      </trkpt>
      <trkpt lat="48.16006" lon="-4.29554">
        <ele>39.9</ele>
        <time>2021-07-27T12:35:45.000Z</time>
      </trkpt>
      <trkpt lat="48.16006" lon="-4.29554">
        <ele>40.1</ele>
        <time>2021-07-27T12:35:48.000Z</time>
      </trkpt>
      <trkpt lat="48.16006" lon="-4.29554">
        <ele>40.4</ele>
        <time>2021-07-27T12:35:57.000Z</time>
      </trkpt>
      <trkpt lat="48.16006" lon="-4.29554">
        <ele>40.5</ele>
        <time>2021-07-27T12:35:58.000Z</time>
      </trkpt>
      <trkpt lat="48.16007" lon="-4.29553">
        <ele>40.3</ele>
        <time>2021-07-27T12:35:59.000Z</time>
      </trkpt>
      <trkpt lat="48.15992" lon="-4.29535">
        <ele>39.2</ele>
        <time>2021-07-27T12:36:17.000Z</time>
      </trkpt>
      <trkpt lat="48.1598" lon="-4.29513">
        <ele>40.1</ele>
        <time>2021-07-27T12:36:30.000Z</time>
      </trkpt>
      <trkpt lat="48.15964" lon="-4.29498">
        <ele>40.7</ele>
        <time>2021-07-27T12:36:44.000Z</time>
      </trkpt>
      <trkpt lat="48.15949" lon="-4.29483">
        <ele>40.6</ele>
        <time>2021-07-27T12:36:57.000Z</time>
      </trkpt>
      <trkpt lat="48.15936" lon="-4.29462">
        <ele>42</ele>
        <time>2021-07-27T12:37:10.000Z</time>
      </trkpt>
      <trkpt lat="48.15922" lon="-4.29441">
        <ele>41.7</ele>
        <time>2021-07-27T12:37:24.000Z</time>
      </trkpt>
      <trkpt lat="48.15904" lon="-4.29435">
        <ele>40.3</ele>
        <time>2021-07-27T12:37:38.000Z</time>
      </trkpt>
      <trkpt lat="48.1589" lon="-4.29417">
        <ele>38.9</ele>
        <time>2021-07-27T12:37:52.000Z</time>
      </trkpt>
      <trkpt lat="48.15879" lon="-4.29394">
        <ele>37.2</ele>
        <time>2021-07-27T12:38:06.000Z</time>
      </trkpt>
      <trkpt lat="48.15869" lon="-4.29371">
        <ele>34.7</ele>
        <time>2021-07-27T12:38:20.000Z</time>
      </trkpt>
      <trkpt lat="48.15863" lon="-4.29347">
        <ele>32.7</ele>
        <time>2021-07-27T12:38:45.000Z</time>
      </trkpt>
      <trkpt lat="48.15863" lon="-4.29347">
        <ele>32.6</ele>
        <time>2021-07-27T12:39:07.000Z</time>
      </trkpt>
      <trkpt lat="48.15862" lon="-4.29349">
        <ele>32.6</ele>
        <time>2021-07-27T12:39:12.000Z</time>
      </trkpt>
      <trkpt lat="48.15862" lon="-4.2935">
        <ele>32.5</ele>
        <time>2021-07-27T12:39:15.000Z</time>
      </trkpt>
      <trkpt lat="48.15862" lon="-4.2935">
        <ele>32.3</ele>
        <time>2021-07-27T12:39:17.000Z</time>
      </trkpt>
      <trkpt lat="48.15862" lon="-4.29349">
        <ele>31.9</ele>
        <time>2021-07-27T12:39:27.000Z</time>
      </trkpt>
      <trkpt lat="48.15871" lon="-4.29325">
        <ele>29.9</ele>
        <time>2021-07-27T12:39:39.000Z</time>
      </trkpt>
      <trkpt lat="48.15881" lon="-4.29302">
        <ele>29.1</ele>
        <time>2021-07-27T12:39:52.000Z</time>
      </trkpt>
      <trkpt lat="48.15891" lon="-4.29277">
        <ele>28.1</ele>
        <time>2021-07-27T12:40:05.000Z</time>
      </trkpt>
      <trkpt lat="48.15903" lon="-4.29257">
        <ele>27.7</ele>
        <time>2021-07-27T12:40:17.000Z</time>
      </trkpt>
      <trkpt lat="48.15916" lon="-4.29237">
        <ele>26.4</ele>
        <time>2021-07-27T12:40:31.000Z</time>
      </trkpt>
      <trkpt lat="48.15928" lon="-4.29216">
        <ele>25.1</ele>
        <time>2021-07-27T12:40:45.000Z</time>
      </trkpt>
      <trkpt lat="48.15945" lon="-4.29205">
        <ele>24.6</ele>
        <time>2021-07-27T12:40:58.000Z</time>
      </trkpt>
      <trkpt lat="48.15962" lon="-4.29192">
        <ele>24.2</ele>
        <time>2021-07-27T12:41:12.000Z</time>
      </trkpt>
      <trkpt lat="48.15978" lon="-4.29177">
        <ele>24.4</ele>
        <time>2021-07-27T12:41:25.000Z</time>
      </trkpt>
      <trkpt lat="48.15996" lon="-4.29168">
        <ele>24.7</ele>
        <time>2021-07-27T12:41:38.000Z</time>
      </trkpt>
      <trkpt lat="48.16014" lon="-4.29167">
        <ele>26.4</ele>
        <time>2021-07-27T12:41:51.000Z</time>
      </trkpt>
      <trkpt lat="48.16032" lon="-4.29161">
        <ele>28</ele>
        <time>2021-07-27T12:42:08.000Z</time>
      </trkpt>
      <trkpt lat="48.16045" lon="-4.2914">
        <ele>28.7</ele>
        <time>2021-07-27T12:42:20.000Z</time>
      </trkpt>
      <trkpt lat="48.16057" lon="-4.29118">
        <ele>28.9</ele>
        <time>2021-07-27T12:42:33.000Z</time>
      </trkpt>
      <trkpt lat="48.16069" lon="-4.29096">
        <ele>29.3</ele>
        <time>2021-07-27T12:42:47.000Z</time>
      </trkpt>
      <trkpt lat="48.16081" lon="-4.29073">
        <ele>29.8</ele>
        <time>2021-07-27T12:43:00.000Z</time>
      </trkpt>
      <trkpt lat="48.16091" lon="-4.29051">
        <ele>30</ele>
        <time>2021-07-27T12:43:13.000Z</time>
      </trkpt>
      <trkpt lat="48.1609" lon="-4.29023">
        <ele>30.3</ele>
        <time>2021-07-27T12:43:27.000Z</time>
      </trkpt>
      <trkpt lat="48.16077" lon="-4.29002">
        <ele>28.8</ele>
        <time>2021-07-27T12:43:41.000Z</time>
      </trkpt>
      <trkpt lat="48.16067" lon="-4.28979">
        <ele>26.6</ele>
        <time>2021-07-27T12:43:55.000Z</time>
      </trkpt>
      <trkpt lat="48.16056" lon="-4.28955">
        <ele>24.4</ele>
        <time>2021-07-27T12:44:09.000Z</time>
      </trkpt>
      <trkpt lat="48.16046" lon="-4.28932">
        <ele>22.4</ele>
        <time>2021-07-27T12:44:23.000Z</time>
      </trkpt>
      <trkpt lat="48.16034" lon="-4.28909">
        <ele>20.6</ele>
        <time>2021-07-27T12:44:37.000Z</time>
      </trkpt>
      <trkpt lat="48.16024" lon="-4.28886">
        <ele>20.1</ele>
        <time>2021-07-27T12:44:50.000Z</time>
      </trkpt>
      <trkpt lat="48.16013" lon="-4.28863">
        <ele>18.5</ele>
        <time>2021-07-27T12:45:03.000Z</time>
      </trkpt>
      <trkpt lat="48.16003" lon="-4.2884">
        <ele>16.1</ele>
        <time>2021-07-27T12:45:16.000Z</time>
      </trkpt>
      <trkpt lat="48.15992" lon="-4.28817">
        <ele>14.3</ele>
        <time>2021-07-27T12:45:30.000Z</time>
      </trkpt>
      <trkpt lat="48.15981" lon="-4.28794">
        <ele>14.3</ele>
        <time>2021-07-27T12:45:44.000Z</time>
      </trkpt>
      <trkpt lat="48.15969" lon="-4.28771">
        <ele>14.5</ele>
        <time>2021-07-27T12:45:59.000Z</time>
      </trkpt>
      <trkpt lat="48.15957" lon="-4.28749">
        <ele>13.9</ele>
        <time>2021-07-27T12:46:13.000Z</time>
      </trkpt>
      <trkpt lat="48.15945" lon="-4.28729">
        <ele>12.7</ele>
        <time>2021-07-27T12:46:24.000Z</time>
      </trkpt>
      <trkpt lat="48.15927" lon="-4.28723">
        <ele>14.2</ele>
        <time>2021-07-27T12:46:39.000Z</time>
      </trkpt>
      <trkpt lat="48.15909" lon="-4.2873">
        <ele>15</ele>
        <time>2021-07-27T12:46:53.000Z</time>
      </trkpt>
      <trkpt lat="48.1589" lon="-4.28734">
        <ele>16.6</ele>
        <time>2021-07-27T12:47:09.000Z</time>
      </trkpt>
      <trkpt lat="48.15873" lon="-4.28747">
        <ele>17.2</ele>
        <time>2021-07-27T12:47:22.000Z</time>
      </trkpt>
      <trkpt lat="48.15856" lon="-4.2876">
        <ele>18.1</ele>
        <time>2021-07-27T12:47:36.000Z</time>
      </trkpt>
      <trkpt lat="48.1584" lon="-4.28775">
        <ele>18.6</ele>
        <time>2021-07-27T12:47:49.000Z</time>
      </trkpt>
      <trkpt lat="48.15825" lon="-4.2879">
        <ele>19.6</ele>
        <time>2021-07-27T12:48:01.000Z</time>
      </trkpt>
      <trkpt lat="48.1581" lon="-4.28808">
        <ele>20.3</ele>
        <time>2021-07-27T12:48:14.000Z</time>
      </trkpt>
      <trkpt lat="48.15796" lon="-4.28827">
        <ele>20.8</ele>
        <time>2021-07-27T12:48:27.000Z</time>
      </trkpt>
      <trkpt lat="48.15777" lon="-4.28836">
        <ele>19.6</ele>
        <time>2021-07-27T12:48:41.000Z</time>
      </trkpt>
      <trkpt lat="48.15766" lon="-4.28815">
        <ele>16.8</ele>
        <time>2021-07-27T12:48:58.000Z</time>
      </trkpt>
      <trkpt lat="48.15754" lon="-4.28793">
        <ele>18.1</ele>
        <time>2021-07-27T12:49:12.000Z</time>
      </trkpt>
      <trkpt lat="48.15735" lon="-4.28789">
        <ele>17.6</ele>
        <time>2021-07-27T12:49:25.000Z</time>
      </trkpt>
      <trkpt lat="48.15717" lon="-4.28779">
        <ele>17.7</ele>
        <time>2021-07-27T12:49:38.000Z</time>
      </trkpt>
      <trkpt lat="48.15704" lon="-4.28761">
        <ele>17.3</ele>
        <time>2021-07-27T12:49:51.000Z</time>
      </trkpt>
      <trkpt lat="48.15692" lon="-4.28738">
        <ele>17.2</ele>
        <time>2021-07-27T12:50:05.000Z</time>
      </trkpt>
      <trkpt lat="48.15681" lon="-4.28715">
        <ele>16.2</ele>
        <time>2021-07-27T12:50:19.000Z</time>
      </trkpt>
      <trkpt lat="48.15666" lon="-4.287">
        <ele>16.1</ele>
        <time>2021-07-27T12:50:32.000Z</time>
      </trkpt>
      <trkpt lat="48.15649" lon="-4.28688">
        <ele>16.5</ele>
        <time>2021-07-27T12:50:45.000Z</time>
      </trkpt>
      <trkpt lat="48.15635" lon="-4.2867">
        <ele>17.5</ele>
        <time>2021-07-27T12:50:58.000Z</time>
      </trkpt>
      <trkpt lat="48.15623" lon="-4.28649">
        <ele>17.8</ele>
        <time>2021-07-27T12:51:12.000Z</time>
      </trkpt>
      <trkpt lat="48.1561" lon="-4.2863">
        <ele>18.4</ele>
        <time>2021-07-27T12:51:29.000Z</time>
      </trkpt>
      <trkpt lat="48.15606" lon="-4.28603">
        <ele>18</ele>
        <time>2021-07-27T12:51:43.000Z</time>
      </trkpt>
      <trkpt lat="48.15603" lon="-4.28577">
        <ele>17.3</ele>
        <time>2021-07-27T12:51:58.000Z</time>
      </trkpt>
      <trkpt lat="48.15603" lon="-4.28578">
        <ele>17.1</ele>
        <time>2021-07-27T12:52:08.000Z</time>
      </trkpt>
      <trkpt lat="48.15603" lon="-4.28578">
        <ele>17</ele>
        <time>2021-07-27T12:52:10.000Z</time>
      </trkpt>
      <trkpt lat="48.15603" lon="-4.28577">
        <ele>17</ele>
        <time>2021-07-27T12:52:16.000Z</time>
      </trkpt>
      <trkpt lat="48.15607" lon="-4.28549">
        <ele>16.9</ele>
        <time>2021-07-27T12:52:31.000Z</time>
      </trkpt>
      <trkpt lat="48.15606" lon="-4.28529">
        <ele>18.2</ele>
        <time>2021-07-27T12:52:44.000Z</time>
      </trkpt>
      <trkpt lat="48.15606" lon="-4.28529">
        <ele>18.2</ele>
        <time>2021-07-27T12:52:45.000Z</time>
      </trkpt>
      <trkpt lat="48.15606" lon="-4.28529">
        <ele>18.5</ele>
        <time>2021-07-27T12:52:46.000Z</time>
      </trkpt>
      <trkpt lat="48.15605" lon="-4.28529">
        <ele>18.4</ele>
        <time>2021-07-27T12:53:34.000Z</time>
      </trkpt>
      <trkpt lat="48.15605" lon="-4.28529">
        <ele>18.4</ele>
        <time>2021-07-27T12:53:35.000Z</time>
      </trkpt>
      <trkpt lat="48.15606" lon="-4.28529">
        <ele>18.4</ele>
        <time>2021-07-27T12:54:34.000Z</time>
      </trkpt>
      <trkpt lat="48.15606" lon="-4.28529">
        <ele>18.5</ele>
        <time>2021-07-27T12:54:35.000Z</time>
      </trkpt>
      <trkpt lat="48.15605" lon="-4.28529">
        <ele>18.4</ele>
        <time>2021-07-27T12:54:36.000Z</time>
      </trkpt>
      <trkpt lat="48.15611" lon="-4.28501">
        <ele>16.2</ele>
        <time>2021-07-27T12:54:59.000Z</time>
      </trkpt>
      <trkpt lat="48.15613" lon="-4.28473">
        <ele>15</ele>
        <time>2021-07-27T12:55:13.000Z</time>
      </trkpt>
      <trkpt lat="48.1562" lon="-4.28447">
        <ele>14.8</ele>
        <time>2021-07-27T12:55:28.000Z</time>
      </trkpt>
      <trkpt lat="48.15631" lon="-4.28426">
        <ele>15.1</ele>
        <time>2021-07-27T12:55:43.000Z</time>
      </trkpt>
      <trkpt lat="48.15644" lon="-4.28407">
        <ele>16.4</ele>
        <time>2021-07-27T12:55:57.000Z</time>
      </trkpt>
      <trkpt lat="48.15659" lon="-4.28389">
        <ele>16.6</ele>
        <time>2021-07-27T12:56:11.000Z</time>
      </trkpt>
      <trkpt lat="48.15674" lon="-4.28376">
        <ele>17.2</ele>
        <time>2021-07-27T12:56:25.000Z</time>
      </trkpt>
      <trkpt lat="48.1569" lon="-4.28364">
        <ele>16.2</ele>
        <time>2021-07-27T12:56:40.000Z</time>
      </trkpt>
      <trkpt lat="48.15697" lon="-4.28337">
        <ele>15.8</ele>
        <time>2021-07-27T12:56:55.000Z</time>
      </trkpt>
      <trkpt lat="48.157" lon="-4.2831">
        <ele>17.6</ele>
        <time>2021-07-27T12:57:07.000Z</time>
      </trkpt>
      <trkpt lat="48.15702" lon="-4.28282">
        <ele>18.5</ele>
        <time>2021-07-27T12:57:22.000Z</time>
      </trkpt>
      <trkpt lat="48.15701" lon="-4.28253">
        <ele>18.9</ele>
        <time>2021-07-27T12:57:37.000Z</time>
      </trkpt>
      <trkpt lat="48.15699" lon="-4.28225">
        <ele>19.4</ele>
        <time>2021-07-27T12:57:52.000Z</time>
      </trkpt>
      <trkpt lat="48.15692" lon="-4.28199">
        <ele>19.6</ele>
        <time>2021-07-27T12:58:08.000Z</time>
      </trkpt>
      <trkpt lat="48.15694" lon="-4.28172">
        <ele>18.5</ele>
        <time>2021-07-27T12:58:22.000Z</time>
      </trkpt>
      <trkpt lat="48.15693" lon="-4.28144">
        <ele>18.2</ele>
        <time>2021-07-27T12:58:41.000Z</time>
      </trkpt>
      <trkpt lat="48.15678" lon="-4.28125">
        <ele>20.3</ele>
        <time>2021-07-27T12:58:56.000Z</time>
      </trkpt>
      <trkpt lat="48.15669" lon="-4.28101">
        <ele>20.5</ele>
        <time>2021-07-27T12:59:09.000Z</time>
      </trkpt>
      <trkpt lat="48.15667" lon="-4.28072">
        <ele>20.1</ele>
        <time>2021-07-27T12:59:24.000Z</time>
      </trkpt>
      <trkpt lat="48.15668" lon="-4.28045">
        <ele>19.4</ele>
        <time>2021-07-27T12:59:40.000Z</time>
      </trkpt>
      <trkpt lat="48.1566" lon="-4.28018">
        <ele>19.5</ele>
        <time>2021-07-27T12:59:54.000Z</time>
      </trkpt>
      <trkpt lat="48.15653" lon="-4.27993">
        <ele>18.8</ele>
        <time>2021-07-27T13:00:09.000Z</time>
      </trkpt>
      <trkpt lat="48.15645" lon="-4.27968">
        <ele>18.8</ele>
        <time>2021-07-27T13:00:24.000Z</time>
      </trkpt>
      <trkpt lat="48.15643" lon="-4.27955">
        <ele>20.5</ele>
        <time>2021-07-27T13:00:34.000Z</time>
      </trkpt>
      <trkpt lat="48.15643" lon="-4.27955">
        <ele>20.7</ele>
        <time>2021-07-27T13:00:38.000Z</time>
      </trkpt>
      <trkpt lat="48.15643" lon="-4.27955">
        <ele>20.8</ele>
        <time>2021-07-27T13:00:39.000Z</time>
      </trkpt>
      <trkpt lat="48.15643" lon="-4.27955">
        <ele>21</ele>
        <time>2021-07-27T13:00:40.000Z</time>
      </trkpt>
      <trkpt lat="48.15639" lon="-4.27927">
        <ele>21.5</ele>
        <time>2021-07-27T13:00:55.000Z</time>
      </trkpt>
      <trkpt lat="48.15632" lon="-4.279">
        <ele>22</ele>
        <time>2021-07-27T13:01:10.000Z</time>
      </trkpt>
      <trkpt lat="48.1563" lon="-4.27872">
        <ele>20.4</ele>
        <time>2021-07-27T13:01:24.000Z</time>
      </trkpt>
      <trkpt lat="48.15629" lon="-4.27843">
        <ele>20.5</ele>
        <time>2021-07-27T13:01:37.000Z</time>
      </trkpt>
      <trkpt lat="48.15626" lon="-4.27815">
        <ele>21.7</ele>
        <time>2021-07-27T13:01:51.000Z</time>
      </trkpt>
      <trkpt lat="48.15624" lon="-4.27789">
        <ele>21.2</ele>
        <time>2021-07-27T13:02:06.000Z</time>
      </trkpt>
      <trkpt lat="48.15624" lon="-4.27761">
        <ele>20.1</ele>
        <time>2021-07-27T13:02:20.000Z</time>
      </trkpt>
      <trkpt lat="48.15622" lon="-4.27734">
        <ele>19.7</ele>
        <time>2021-07-27T13:02:34.000Z</time>
      </trkpt>
      <trkpt lat="48.15614" lon="-4.27709">
        <ele>18.7</ele>
        <time>2021-07-27T13:02:48.000Z</time>
      </trkpt>
      <trkpt lat="48.1562" lon="-4.27682">
        <ele>18.7</ele>
        <time>2021-07-27T13:03:04.000Z</time>
      </trkpt>
      <trkpt lat="48.15622" lon="-4.27655">
        <ele>18.2</ele>
        <time>2021-07-27T13:03:18.000Z</time>
      </trkpt>
      <trkpt lat="48.15624" lon="-4.27627">
        <ele>17.9</ele>
        <time>2021-07-27T13:03:32.000Z</time>
      </trkpt>
      <trkpt lat="48.15623" lon="-4.27607">
        <ele>17.7</ele>
        <time>2021-07-27T13:03:45.000Z</time>
      </trkpt>
      <trkpt lat="48.15623" lon="-4.27606">
        <ele>17.8</ele>
        <time>2021-07-27T13:03:46.000Z</time>
      </trkpt>
      <trkpt lat="48.15623" lon="-4.27577">
        <ele>17.8</ele>
        <time>2021-07-27T13:03:59.000Z</time>
      </trkpt>
      <trkpt lat="48.15622" lon="-4.2755">
        <ele>18.4</ele>
        <time>2021-07-27T13:04:12.000Z</time>
      </trkpt>
      <trkpt lat="48.15619" lon="-4.27521">
        <ele>19.2</ele>
        <time>2021-07-27T13:04:26.000Z</time>
      </trkpt>
      <trkpt lat="48.15616" lon="-4.27494">
        <ele>18.6</ele>
        <time>2021-07-27T13:04:41.000Z</time>
      </trkpt>
      <trkpt lat="48.15612" lon="-4.27481">
        <ele>17.8</ele>
        <time>2021-07-27T13:04:50.000Z</time>
      </trkpt>
      <trkpt lat="48.15612" lon="-4.27481">
        <ele>17.7</ele>
        <time>2021-07-27T13:04:51.000Z</time>
      </trkpt>
      <trkpt lat="48.15612" lon="-4.27481">
        <ele>17.7</ele>
        <time>2021-07-27T13:04:52.000Z</time>
      </trkpt>
      <trkpt lat="48.15613" lon="-4.27481">
        <ele>17.6</ele>
        <time>2021-07-27T13:05:01.000Z</time>
      </trkpt>
      <trkpt lat="48.15606" lon="-4.27455">
        <ele>16.2</ele>
        <time>2021-07-27T13:05:17.000Z</time>
      </trkpt>
      <trkpt lat="48.15605" lon="-4.2744">
        <ele>16</ele>
        <time>2021-07-27T13:05:28.000Z</time>
      </trkpt>
      <trkpt lat="48.15605" lon="-4.2744">
        <ele>15.9</ele>
        <time>2021-07-27T13:05:33.000Z</time>
      </trkpt>
      <trkpt lat="48.15587" lon="-4.27435">
        <ele>13.5</ele>
        <time>2021-07-27T13:05:51.000Z</time>
      </trkpt>
      <trkpt lat="48.15568" lon="-4.27426">
        <ele>10.7</ele>
        <time>2021-07-27T13:06:05.000Z</time>
      </trkpt>
      <trkpt lat="48.15551" lon="-4.2742">
        <ele>9.8</ele>
        <time>2021-07-27T13:06:18.000Z</time>
      </trkpt>
      <trkpt lat="48.15537" lon="-4.274">
        <ele>8.8</ele>
        <time>2021-07-27T13:06:33.000Z</time>
      </trkpt>
      <trkpt lat="48.15526" lon="-4.27377">
        <ele>6.3</ele>
        <time>2021-07-27T13:06:48.000Z</time>
      </trkpt>
      <trkpt lat="48.15508" lon="-4.27373">
        <ele>4.8</ele>
        <time>2021-07-27T13:07:16.000Z</time>
      </trkpt>
      <trkpt lat="48.15494" lon="-4.27356">
        <ele>4.8</ele>
        <time>2021-07-27T13:07:30.000Z</time>
      </trkpt>
      <trkpt lat="48.15477" lon="-4.27348">
        <ele>4.2</ele>
        <time>2021-07-27T13:07:44.000Z</time>
      </trkpt>
      <trkpt lat="48.15458" lon="-4.2734">
        <ele>3.6</ele>
        <time>2021-07-27T13:07:57.000Z</time>
      </trkpt>
      <trkpt lat="48.15442" lon="-4.27329">
        <ele>4.1</ele>
        <time>2021-07-27T13:08:10.000Z</time>
      </trkpt>
      <trkpt lat="48.15424" lon="-4.27319">
        <ele>4.3</ele>
        <time>2021-07-27T13:08:24.000Z</time>
      </trkpt>
      <trkpt lat="48.15407" lon="-4.2731">
        <ele>4.9</ele>
        <time>2021-07-27T13:08:37.000Z</time>
      </trkpt>
      <trkpt lat="48.15389" lon="-4.27303">
        <ele>5.7</ele>
        <time>2021-07-27T13:08:51.000Z</time>
      </trkpt>
      <trkpt lat="48.1537" lon="-4.27295">
        <ele>6.3</ele>
        <time>2021-07-27T13:09:04.000Z</time>
      </trkpt>
      <trkpt lat="48.15352" lon="-4.27287">
        <ele>4.8</ele>
        <time>2021-07-27T13:09:17.000Z</time>
      </trkpt>
      <trkpt lat="48.15335" lon="-4.27279">
        <ele>4.5</ele>
        <time>2021-07-27T13:09:30.000Z</time>
      </trkpt>
      <trkpt lat="48.15319" lon="-4.27262">
        <ele>4.6</ele>
        <time>2021-07-27T13:09:44.000Z</time>
      </trkpt>
      <trkpt lat="48.15306" lon="-4.27244">
        <ele>3.6</ele>
        <time>2021-07-27T13:09:57.000Z</time>
      </trkpt>
      <trkpt lat="48.15288" lon="-4.27234">
        <ele>4.3</ele>
        <time>2021-07-27T13:10:10.000Z</time>
      </trkpt>
      <trkpt lat="48.1527" lon="-4.27226">
        <ele>4.5</ele>
        <time>2021-07-27T13:10:23.000Z</time>
      </trkpt>
      <trkpt lat="48.15252" lon="-4.27219">
        <ele>3.9</ele>
        <time>2021-07-27T13:10:36.000Z</time>
      </trkpt>
      <trkpt lat="48.15236" lon="-4.27205">
        <ele>2.6</ele>
        <time>2021-07-27T13:10:49.000Z</time>
      </trkpt>
      <trkpt lat="48.1522" lon="-4.2719">
        <ele>3.4</ele>
        <time>2021-07-27T13:11:04.000Z</time>
      </trkpt>
      <trkpt lat="48.15205" lon="-4.27174">
        <ele>4.4</ele>
        <time>2021-07-27T13:11:21.000Z</time>
      </trkpt>
      <trkpt lat="48.15189" lon="-4.27186">
        <ele>4.2</ele>
        <time>2021-07-27T13:11:36.000Z</time>
      </trkpt>
      <trkpt lat="48.15172" lon="-4.27199">
        <ele>3.8</ele>
        <time>2021-07-27T13:11:51.000Z</time>
      </trkpt>
      <trkpt lat="48.15155" lon="-4.2721">
        <ele>3.8</ele>
        <time>2021-07-27T13:12:07.000Z</time>
      </trkpt>
      <trkpt lat="48.15139" lon="-4.27224">
        <ele>3</ele>
        <time>2021-07-27T13:12:23.000Z</time>
      </trkpt>
      <trkpt lat="48.15128" lon="-4.27233">
        <ele>3.1</ele>
        <time>2021-07-27T13:12:36.000Z</time>
      </trkpt>
      <trkpt lat="48.15128" lon="-4.27233">
        <ele>3.2</ele>
        <time>2021-07-27T13:12:43.000Z</time>
      </trkpt>
      <trkpt lat="48.1511" lon="-4.27237">
        <ele>4.9</ele>
        <time>2021-07-27T13:13:00.000Z</time>
      </trkpt>
      <trkpt lat="48.15092" lon="-4.27243">
        <ele>6.4</ele>
        <time>2021-07-27T13:13:16.000Z</time>
      </trkpt>
      <trkpt lat="48.15075" lon="-4.27258">
        <ele>9.8</ele>
        <time>2021-07-27T13:13:40.000Z</time>
      </trkpt>
      <trkpt lat="48.15071" lon="-4.27284">
        <ele>11.1</ele>
        <time>2021-07-27T13:13:54.000Z</time>
      </trkpt>
      <trkpt lat="48.15067" lon="-4.27311">
        <ele>12.9</ele>
        <time>2021-07-27T13:14:08.000Z</time>
      </trkpt>
      <trkpt lat="48.15068" lon="-4.27338">
        <ele>12.8</ele>
        <time>2021-07-27T13:14:22.000Z</time>
      </trkpt>
      <trkpt lat="48.15063" lon="-4.27365">
        <ele>13.9</ele>
        <time>2021-07-27T13:14:35.000Z</time>
      </trkpt>
      <trkpt lat="48.15052" lon="-4.27387">
        <ele>14.5</ele>
        <time>2021-07-27T13:14:48.000Z</time>
      </trkpt>
      <trkpt lat="48.15048" lon="-4.27414">
        <ele>15.9</ele>
        <time>2021-07-27T13:15:03.000Z</time>
      </trkpt>
      <trkpt lat="48.15046" lon="-4.27442">
        <ele>16.1</ele>
        <time>2021-07-27T13:15:17.000Z</time>
      </trkpt>
      <trkpt lat="48.15045" lon="-4.27472">
        <ele>16.1</ele>
        <time>2021-07-27T13:15:30.000Z</time>
      </trkpt>
      <trkpt lat="48.15043" lon="-4.27499">
        <ele>16.3</ele>
        <time>2021-07-27T13:15:43.000Z</time>
      </trkpt>
      <trkpt lat="48.1505" lon="-4.27526">
        <ele>16.3</ele>
        <time>2021-07-27T13:15:57.000Z</time>
      </trkpt>
      <trkpt lat="48.15032" lon="-4.27521">
        <ele>14</ele>
        <time>2021-07-27T13:16:16.000Z</time>
      </trkpt>
      <trkpt lat="48.15023" lon="-4.27497">
        <ele>14</ele>
        <time>2021-07-27T13:16:30.000Z</time>
      </trkpt>
      <trkpt lat="48.15013" lon="-4.27473">
        <ele>13.8</ele>
        <time>2021-07-27T13:16:44.000Z</time>
      </trkpt>
      <trkpt lat="48.15008" lon="-4.27462">
        <ele>12.9</ele>
        <time>2021-07-27T13:16:58.000Z</time>
      </trkpt>
      <trkpt lat="48.15008" lon="-4.27462">
        <ele>12.9</ele>
        <time>2021-07-27T13:17:05.000Z</time>
      </trkpt>
      <trkpt lat="48.15008" lon="-4.27462">
        <ele>12.9</ele>
        <time>2021-07-27T13:17:06.000Z</time>
      </trkpt>
      <trkpt lat="48.15009" lon="-4.27461">
        <ele>13</ele>
        <time>2021-07-27T13:17:07.000Z</time>
      </trkpt>
      <trkpt lat="48.15002" lon="-4.27434">
        <ele>14.2</ele>
        <time>2021-07-27T13:17:24.000Z</time>
      </trkpt>
      <trkpt lat="48.14988" lon="-4.27417">
        <ele>14.6</ele>
        <time>2021-07-27T13:17:38.000Z</time>
      </trkpt>
      <trkpt lat="48.14976" lon="-4.27395">
        <ele>15.7</ele>
        <time>2021-07-27T13:17:55.000Z</time>
      </trkpt>
      <trkpt lat="48.14965" lon="-4.27372">
        <ele>17.3</ele>
        <time>2021-07-27T13:18:10.000Z</time>
      </trkpt>
      <trkpt lat="48.14949" lon="-4.27356">
        <ele>18.2</ele>
        <time>2021-07-27T13:18:24.000Z</time>
      </trkpt>
      <trkpt lat="48.14934" lon="-4.27338">
        <ele>19</ele>
        <time>2021-07-27T13:18:37.000Z</time>
      </trkpt>
      <trkpt lat="48.14921" lon="-4.27319">
        <ele>18.9</ele>
        <time>2021-07-27T13:18:52.000Z</time>
      </trkpt>
      <trkpt lat="48.14907" lon="-4.273">
        <ele>20.1</ele>
        <time>2021-07-27T13:19:07.000Z</time>
      </trkpt>
      <trkpt lat="48.14903" lon="-4.27297">
        <ele>19.4</ele>
        <time>2021-07-27T13:19:13.000Z</time>
      </trkpt>
      <trkpt lat="48.14903" lon="-4.27296">
        <ele>19.2</ele>
        <time>2021-07-27T13:19:14.000Z</time>
      </trkpt>
      <trkpt lat="48.14889" lon="-4.27275">
        <ele>18.8</ele>
        <time>2021-07-27T13:19:26.000Z</time>
      </trkpt>
      <trkpt lat="48.14879" lon="-4.27251">
        <ele>18.5</ele>
        <time>2021-07-27T13:19:38.000Z</time>
      </trkpt>
      <trkpt lat="48.14867" lon="-4.2723">
        <ele>19.9</ele>
        <time>2021-07-27T13:19:50.000Z</time>
      </trkpt>
      <trkpt lat="48.14851" lon="-4.27217">
        <ele>18.1</ele>
        <time>2021-07-27T13:20:04.000Z</time>
      </trkpt>
      <trkpt lat="48.14834" lon="-4.27206">
        <ele>16.2</ele>
        <time>2021-07-27T13:20:19.000Z</time>
      </trkpt>
      <trkpt lat="48.14815" lon="-4.27199">
        <ele>14.7</ele>
        <time>2021-07-27T13:20:33.000Z</time>
      </trkpt>
      <trkpt lat="48.14796" lon="-4.27195">
        <ele>12.2</ele>
        <time>2021-07-27T13:20:48.000Z</time>
      </trkpt>
      <trkpt lat="48.14787" lon="-4.27196">
        <ele>8.7</ele>
        <time>2021-07-27T13:21:02.000Z</time>
      </trkpt>
      <trkpt lat="48.14787" lon="-4.27196">
        <ele>8.5</ele>
        <time>2021-07-27T13:21:11.000Z</time>
      </trkpt>
      <trkpt lat="48.14769" lon="-4.27186">
        <ele>8</ele>
        <time>2021-07-27T13:21:24.000Z</time>
      </trkpt>
      <trkpt lat="48.1475" lon="-4.2718">
        <ele>7.9</ele>
        <time>2021-07-27T13:21:38.000Z</time>
      </trkpt>
      <trkpt lat="48.14737" lon="-4.27183">
        <ele>7.5</ele>
        <time>2021-07-27T13:21:50.000Z</time>
      </trkpt>
      <trkpt lat="48.14737" lon="-4.27183">
        <ele>7.4</ele>
        <time>2021-07-27T13:21:51.000Z</time>
      </trkpt>
      <trkpt lat="48.14719" lon="-4.27191">
        <ele>7</ele>
        <time>2021-07-27T13:22:03.000Z</time>
      </trkpt>
      <trkpt lat="48.147" lon="-4.27196">
        <ele>6.3</ele>
        <time>2021-07-27T13:22:16.000Z</time>
      </trkpt>
      <trkpt lat="48.14683" lon="-4.27205">
        <ele>5.6</ele>
        <time>2021-07-27T13:22:29.000Z</time>
      </trkpt>
      <trkpt lat="48.14666" lon="-4.27215">
        <ele>5.7</ele>
        <time>2021-07-27T13:22:41.000Z</time>
      </trkpt>
      <trkpt lat="48.14649" lon="-4.27226">
        <ele>4.8</ele>
        <time>2021-07-27T13:22:56.000Z</time>
      </trkpt>
      <trkpt lat="48.14632" lon="-4.27237">
        <ele>4.5</ele>
        <time>2021-07-27T13:23:09.000Z</time>
      </trkpt>
      <trkpt lat="48.14615" lon="-4.27246">
        <ele>4.6</ele>
        <time>2021-07-27T13:23:21.000Z</time>
      </trkpt>
      <trkpt lat="48.14596" lon="-4.27253">
        <ele>5.1</ele>
        <time>2021-07-27T13:23:35.000Z</time>
      </trkpt>
      <trkpt lat="48.14577" lon="-4.27254">
        <ele>5.7</ele>
        <time>2021-07-27T13:23:48.000Z</time>
      </trkpt>
      <trkpt lat="48.14558" lon="-4.27253">
        <ele>7</ele>
        <time>2021-07-27T13:24:02.000Z</time>
      </trkpt>
      <trkpt lat="48.1454" lon="-4.2726">
        <ele>7.5</ele>
        <time>2021-07-27T13:24:16.000Z</time>
      </trkpt>
      <trkpt lat="48.14523" lon="-4.2725">
        <ele>6</ele>
        <time>2021-07-27T13:24:31.000Z</time>
      </trkpt>
      <trkpt lat="48.14505" lon="-4.27254">
        <ele>6.1</ele>
        <time>2021-07-27T13:24:44.000Z</time>
      </trkpt>
      <trkpt lat="48.14486" lon="-4.27259">
        <ele>5</ele>
        <time>2021-07-27T13:24:58.000Z</time>
      </trkpt>
      <trkpt lat="48.14467" lon="-4.27257">
        <ele>4.4</ele>
        <time>2021-07-27T13:25:12.000Z</time>
      </trkpt>
      <trkpt lat="48.14448" lon="-4.27251">
        <ele>4.2</ele>
        <time>2021-07-27T13:25:27.000Z</time>
      </trkpt>
      <trkpt lat="48.14431" lon="-4.2724">
        <ele>4.3</ele>
        <time>2021-07-27T13:25:42.000Z</time>
      </trkpt>
      <trkpt lat="48.14412" lon="-4.27235">
        <ele>4.5</ele>
        <time>2021-07-27T13:25:56.000Z</time>
      </trkpt>
      <trkpt lat="48.14395" lon="-4.27228">
        <ele>5.6</ele>
        <time>2021-07-27T13:26:09.000Z</time>
      </trkpt>
      <trkpt lat="48.14376" lon="-4.27221">
        <ele>5</ele>
        <time>2021-07-27T13:26:22.000Z</time>
      </trkpt>
      <trkpt lat="48.14358" lon="-4.27216">
        <ele>5.8</ele>
        <time>2021-07-27T13:26:35.000Z</time>
      </trkpt>
      <trkpt lat="48.14342" lon="-4.2723">
        <ele>7.4</ele>
        <time>2021-07-27T13:26:50.000Z</time>
      </trkpt>
      <trkpt lat="48.14335" lon="-4.27239">
        <ele>8.1</ele>
        <time>2021-07-27T13:27:00.000Z</time>
      </trkpt>
      <trkpt lat="48.14335" lon="-4.27239">
        <ele>8.1</ele>
        <time>2021-07-27T13:27:08.000Z</time>
      </trkpt>
      <trkpt lat="48.14334" lon="-4.27243">
        <ele>7.8</ele>
        <time>2021-07-27T13:27:14.000Z</time>
      </trkpt>
      <trkpt lat="48.14334" lon="-4.27243">
        <ele>7.7</ele>
        <time>2021-07-27T13:27:17.000Z</time>
      </trkpt>
      <trkpt lat="48.1432" lon="-4.27262">
        <ele>6.8</ele>
        <time>2021-07-27T13:27:35.000Z</time>
      </trkpt>
      <trkpt lat="48.14301" lon="-4.27259">
        <ele>6.1</ele>
        <time>2021-07-27T13:27:49.000Z</time>
      </trkpt>
      <trkpt lat="48.14286" lon="-4.27244">
        <ele>5.7</ele>
        <time>2021-07-27T13:28:07.000Z</time>
      </trkpt>
      <trkpt lat="48.14271" lon="-4.27227">
        <ele>4.8</ele>
        <time>2021-07-27T13:28:22.000Z</time>
      </trkpt>
      <trkpt lat="48.14253" lon="-4.27219">
        <ele>5.2</ele>
        <time>2021-07-27T13:28:36.000Z</time>
      </trkpt>
      <trkpt lat="48.14234" lon="-4.27217">
        <ele>5.2</ele>
        <time>2021-07-27T13:28:51.000Z</time>
      </trkpt>
      <trkpt lat="48.14215" lon="-4.27221">
        <ele>5.1</ele>
        <time>2021-07-27T13:29:06.000Z</time>
      </trkpt>
      <trkpt lat="48.14196" lon="-4.27217">
        <ele>5.5</ele>
        <time>2021-07-27T13:29:21.000Z</time>
      </trkpt>
      <trkpt lat="48.14178" lon="-4.27208">
        <ele>4.8</ele>
        <time>2021-07-27T13:29:36.000Z</time>
      </trkpt>
      <trkpt lat="48.1416" lon="-4.27212">
        <ele>5.3</ele>
        <time>2021-07-27T13:29:51.000Z</time>
      </trkpt>
      <trkpt lat="48.14142" lon="-4.27211">
        <ele>5.2</ele>
        <time>2021-07-27T13:30:04.000Z</time>
      </trkpt>
      <trkpt lat="48.14123" lon="-4.2721">
        <ele>4.3</ele>
        <time>2021-07-27T13:30:19.000Z</time>
      </trkpt>
      <trkpt lat="48.14104" lon="-4.27203">
        <ele>4.9</ele>
        <time>2021-07-27T13:30:35.000Z</time>
      </trkpt>
      <trkpt lat="48.14086" lon="-4.27199">
        <ele>6.1</ele>
        <time>2021-07-27T13:30:48.000Z</time>
      </trkpt>
      <trkpt lat="48.14067" lon="-4.27197">
        <ele>5.8</ele>
        <time>2021-07-27T13:31:01.000Z</time>
      </trkpt>
      <trkpt lat="48.14048" lon="-4.27199">
        <ele>6.7</ele>
        <time>2021-07-27T13:31:13.000Z</time>
      </trkpt>
      <trkpt lat="48.14031" lon="-4.27193">
        <ele>7.3</ele>
        <time>2021-07-27T13:31:26.000Z</time>
      </trkpt>
      <trkpt lat="48.14012" lon="-4.27187">
        <ele>6.2</ele>
        <time>2021-07-27T13:31:40.000Z</time>
      </trkpt>
      <trkpt lat="48.13994" lon="-4.27184">
        <ele>6.3</ele>
        <time>2021-07-27T13:31:54.000Z</time>
      </trkpt>
      <trkpt lat="48.13975" lon="-4.27178">
        <ele>6.6</ele>
        <time>2021-07-27T13:32:08.000Z</time>
      </trkpt>
      <trkpt lat="48.13957" lon="-4.27174">
        <ele>6.5</ele>
        <time>2021-07-27T13:32:21.000Z</time>
      </trkpt>
      <trkpt lat="48.13938" lon="-4.2717">
        <ele>6.1</ele>
        <time>2021-07-27T13:32:35.000Z</time>
      </trkpt>
      <trkpt lat="48.13919" lon="-4.27168">
        <ele>5.5</ele>
        <time>2021-07-27T13:32:49.000Z</time>
      </trkpt>
      <trkpt lat="48.139" lon="-4.27163">
        <ele>5.9</ele>
        <time>2021-07-27T13:33:03.000Z</time>
      </trkpt>
      <trkpt lat="48.13882" lon="-4.27161">
        <ele>6.1</ele>
        <time>2021-07-27T13:33:16.000Z</time>
      </trkpt>
      <trkpt lat="48.13864" lon="-4.27159">
        <ele>6.5</ele>
        <time>2021-07-27T13:33:29.000Z</time>
      </trkpt>
      <trkpt lat="48.13846" lon="-4.27154">
        <ele>7.7</ele>
        <time>2021-07-27T13:33:42.000Z</time>
      </trkpt>
      <trkpt lat="48.13827" lon="-4.27148">
        <ele>7.1</ele>
        <time>2021-07-27T13:33:56.000Z</time>
      </trkpt>
      <trkpt lat="48.13808" lon="-4.27143">
        <ele>7.1</ele>
        <time>2021-07-27T13:34:11.000Z</time>
      </trkpt>
      <trkpt lat="48.13789" lon="-4.27139">
        <ele>6.1</ele>
        <time>2021-07-27T13:34:25.000Z</time>
      </trkpt>
      <trkpt lat="48.13771" lon="-4.27135">
        <ele>5.5</ele>
        <time>2021-07-27T13:34:39.000Z</time>
      </trkpt>
      <trkpt lat="48.13752" lon="-4.27132">
        <ele>4.7</ele>
        <time>2021-07-27T13:34:54.000Z</time>
      </trkpt>
      <trkpt lat="48.13733" lon="-4.27128">
        <ele>4.6</ele>
        <time>2021-07-27T13:35:08.000Z</time>
      </trkpt>
      <trkpt lat="48.13715" lon="-4.27122">
        <ele>6.6</ele>
        <time>2021-07-27T13:35:20.000Z</time>
      </trkpt>
      <trkpt lat="48.13696" lon="-4.2712">
        <ele>6.9</ele>
        <time>2021-07-27T13:35:34.000Z</time>
      </trkpt>
      <trkpt lat="48.13677" lon="-4.27116">
        <ele>7.2</ele>
        <time>2021-07-27T13:35:48.000Z</time>
      </trkpt>
      <trkpt lat="48.13658" lon="-4.27112">
        <ele>7.3</ele>
        <time>2021-07-27T13:36:02.000Z</time>
      </trkpt>
      <trkpt lat="48.1364" lon="-4.27106">
        <ele>7</ele>
        <time>2021-07-27T13:36:16.000Z</time>
      </trkpt>
      <trkpt lat="48.13636" lon="-4.2708">
        <ele>5.7</ele>
        <time>2021-07-27T13:36:32.000Z</time>
      </trkpt>
      <trkpt lat="48.13639" lon="-4.27056">
        <ele>6.3</ele>
        <time>2021-07-27T13:36:47.000Z</time>
      </trkpt>
      <trkpt lat="48.13639" lon="-4.27057">
        <ele>6.3</ele>
        <time>2021-07-27T13:36:48.000Z</time>
      </trkpt>
      <trkpt lat="48.13639" lon="-4.27058">
        <ele>6.5</ele>
        <time>2021-07-27T13:36:51.000Z</time>
      </trkpt>
      <trkpt lat="48.13639" lon="-4.27058">
        <ele>6.6</ele>
        <time>2021-07-27T13:36:52.000Z</time>
      </trkpt>
      <trkpt lat="48.13639" lon="-4.27058">
        <ele>6.8</ele>
        <time>2021-07-27T13:36:53.000Z</time>
      </trkpt>
      <trkpt lat="48.13639" lon="-4.27058">
        <ele>6.8</ele>
        <time>2021-07-27T13:36:54.000Z</time>
      </trkpt>
      <trkpt lat="48.13639" lon="-4.27058">
        <ele>6.7</ele>
        <time>2021-07-27T13:36:57.000Z</time>
      </trkpt>
      <trkpt lat="48.13638" lon="-4.27058">
        <ele>6.9</ele>
        <time>2021-07-27T13:36:59.000Z</time>
      </trkpt>
      <trkpt lat="48.13638" lon="-4.27058">
        <ele>6.7</ele>
        <time>2021-07-27T13:37:01.000Z</time>
      </trkpt>
      <trkpt lat="48.13638" lon="-4.27058">
        <ele>6.8</ele>
        <time>2021-07-27T13:37:20.000Z</time>
      </trkpt>
      <trkpt lat="48.13638" lon="-4.27058">
        <ele>6.8</ele>
        <time>2021-07-27T13:37:21.000Z</time>
      </trkpt>
      <trkpt lat="48.13639" lon="-4.27058">
        <ele>6.7</ele>
        <time>2021-07-27T13:38:04.000Z</time>
      </trkpt>
      <trkpt lat="48.13635" lon="-4.2703">
        <ele>6.8</ele>
        <time>2021-07-27T13:38:23.000Z</time>
      </trkpt>
      <trkpt lat="48.13619" lon="-4.27018">
        <ele>6.9</ele>
        <time>2021-07-27T13:38:38.000Z</time>
      </trkpt>
      <trkpt lat="48.136" lon="-4.27016">
        <ele>5.9</ele>
        <time>2021-07-27T13:38:52.000Z</time>
      </trkpt>
      <trkpt lat="48.13581" lon="-4.27014">
        <ele>6.3</ele>
        <time>2021-07-27T13:39:06.000Z</time>
      </trkpt>
      <trkpt lat="48.13563" lon="-4.2701">
        <ele>6.3</ele>
        <time>2021-07-27T13:39:20.000Z</time>
      </trkpt>
      <trkpt lat="48.13544" lon="-4.27003">
        <ele>6.9</ele>
        <time>2021-07-27T13:39:34.000Z</time>
      </trkpt>
      <trkpt lat="48.13527" lon="-4.26995">
        <ele>6</ele>
        <time>2021-07-27T13:39:48.000Z</time>
      </trkpt>
      <trkpt lat="48.13509" lon="-4.26987">
        <ele>5.8</ele>
        <time>2021-07-27T13:40:02.000Z</time>
      </trkpt>
      <trkpt lat="48.13491" lon="-4.26979">
        <ele>5.9</ele>
        <time>2021-07-27T13:40:16.000Z</time>
      </trkpt>
      <trkpt lat="48.13472" lon="-4.26971">
        <ele>5.9</ele>
        <time>2021-07-27T13:40:30.000Z</time>
      </trkpt>
      <trkpt lat="48.13455" lon="-4.26965">
        <ele>5.9</ele>
        <time>2021-07-27T13:40:43.000Z</time>
      </trkpt>
      <trkpt lat="48.13437" lon="-4.26957">
        <ele>6.3</ele>
        <time>2021-07-27T13:40:56.000Z</time>
      </trkpt>
      <trkpt lat="48.13421" lon="-4.26944">
        <ele>6.6</ele>
        <time>2021-07-27T13:41:10.000Z</time>
      </trkpt>
      <trkpt lat="48.13404" lon="-4.26933">
        <ele>6</ele>
        <time>2021-07-27T13:41:25.000Z</time>
      </trkpt>
      <trkpt lat="48.13386" lon="-4.26927">
        <ele>5.8</ele>
        <time>2021-07-27T13:41:46.000Z</time>
      </trkpt>
      <trkpt lat="48.13367" lon="-4.26928">
        <ele>6.1</ele>
        <time>2021-07-27T13:42:00.000Z</time>
      </trkpt>
      <trkpt lat="48.13349" lon="-4.26929">
        <ele>7.3</ele>
        <time>2021-07-27T13:42:14.000Z</time>
      </trkpt>
      <trkpt lat="48.13348" lon="-4.26928">
        <ele>8.5</ele>
        <time>2021-07-27T13:42:28.000Z</time>
      </trkpt>
      <trkpt lat="48.13348" lon="-4.26928">
        <ele>8.5</ele>
        <time>2021-07-27T13:42:30.000Z</time>
      </trkpt>
      <trkpt lat="48.13347" lon="-4.26927">
        <ele>8.4</ele>
        <time>2021-07-27T13:42:35.000Z</time>
      </trkpt>
      <trkpt lat="48.13347" lon="-4.26927">
        <ele>8.4</ele>
        <time>2021-07-27T13:42:39.000Z</time>
      </trkpt>
      <trkpt lat="48.13333" lon="-4.26944">
        <ele>8.2</ele>
        <time>2021-07-27T13:42:54.000Z</time>
      </trkpt>
      <trkpt lat="48.13319" lon="-4.26962">
        <ele>7.1</ele>
        <time>2021-07-27T13:43:07.000Z</time>
      </trkpt>
      <trkpt lat="48.13301" lon="-4.26972">
        <ele>6.5</ele>
        <time>2021-07-27T13:43:22.000Z</time>
      </trkpt>
      <trkpt lat="48.13282" lon="-4.26976">
        <ele>6.3</ele>
        <time>2021-07-27T13:43:37.000Z</time>
      </trkpt>
      <trkpt lat="48.13264" lon="-4.26974">
        <ele>6.3</ele>
        <time>2021-07-27T13:43:52.000Z</time>
      </trkpt>
      <trkpt lat="48.13246" lon="-4.26966">
        <ele>4.8</ele>
        <time>2021-07-27T13:44:07.000Z</time>
      </trkpt>
      <trkpt lat="48.13227" lon="-4.26969">
        <ele>5.9</ele>
        <time>2021-07-27T13:44:24.000Z</time>
      </trkpt>
      <trkpt lat="48.13209" lon="-4.26973">
        <ele>5.5</ele>
        <time>2021-07-27T13:44:36.000Z</time>
      </trkpt>
      <trkpt lat="48.1319" lon="-4.2697">
        <ele>5</ele>
        <time>2021-07-27T13:44:50.000Z</time>
      </trkpt>
      <trkpt lat="48.13172" lon="-4.26971">
        <ele>3.9</ele>
        <time>2021-07-27T13:45:04.000Z</time>
      </trkpt>
      <trkpt lat="48.13157" lon="-4.26952">
        <ele>2.6</ele>
        <time>2021-07-27T13:45:17.000Z</time>
      </trkpt>
      <trkpt lat="48.13149" lon="-4.26927">
        <ele>0.9</ele>
        <time>2021-07-27T13:45:32.000Z</time>
      </trkpt>
      <trkpt lat="48.13136" lon="-4.26908">
        <ele>1.5</ele>
        <time>2021-07-27T13:45:48.000Z</time>
      </trkpt>
      <trkpt lat="48.13122" lon="-4.2689">
        <ele>1.7</ele>
        <time>2021-07-27T13:46:02.000Z</time>
      </trkpt>
      <trkpt lat="48.1311" lon="-4.26868">
        <ele>2</ele>
        <time>2021-07-27T13:46:17.000Z</time>
      </trkpt>
      <trkpt lat="48.13098" lon="-4.26846">
        <ele>1.9</ele>
        <time>2021-07-27T13:46:31.000Z</time>
      </trkpt>
      <trkpt lat="48.13087" lon="-4.26824">
        <ele>3.1</ele>
        <time>2021-07-27T13:46:49.000Z</time>
      </trkpt>
      <trkpt lat="48.13072" lon="-4.26807">
        <ele>4.7</ele>
        <time>2021-07-27T13:47:03.000Z</time>
      </trkpt>
      <trkpt lat="48.13058" lon="-4.2679">
        <ele>5.1</ele>
        <time>2021-07-27T13:47:16.000Z</time>
      </trkpt>
      <trkpt lat="48.1304" lon="-4.26785">
        <ele>5</ele>
        <time>2021-07-27T13:47:36.000Z</time>
      </trkpt>
      <trkpt lat="48.13023" lon="-4.268">
        <ele>4.3</ele>
        <time>2021-07-27T13:47:50.000Z</time>
      </trkpt>
      <trkpt lat="48.13007" lon="-4.26813">
        <ele>5.4</ele>
        <time>2021-07-27T13:48:04.000Z</time>
      </trkpt>
      <trkpt lat="48.13016" lon="-4.26837">
        <ele>3.4</ele>
        <time>2021-07-27T13:48:21.000Z</time>
      </trkpt>
      <trkpt lat="48.13024" lon="-4.26863">
        <ele>3.8</ele>
        <time>2021-07-27T13:48:35.000Z</time>
      </trkpt>
      <trkpt lat="48.13037" lon="-4.26884">
        <ele>3.8</ele>
        <time>2021-07-27T13:48:50.000Z</time>
      </trkpt>
      <trkpt lat="48.13052" lon="-4.26901">
        <ele>4.9</ele>
        <time>2021-07-27T13:49:05.000Z</time>
      </trkpt>
      <trkpt lat="48.13061" lon="-4.26917">
        <ele>3.9</ele>
        <time>2021-07-27T13:49:17.000Z</time>
      </trkpt>
      <trkpt lat="48.13061" lon="-4.26917">
        <ele>3.7</ele>
        <time>2021-07-27T13:49:19.000Z</time>
      </trkpt>
      <trkpt lat="48.13061" lon="-4.26917">
        <ele>3.9</ele>
        <time>2021-07-27T13:49:21.000Z</time>
      </trkpt>
      <trkpt lat="48.13061" lon="-4.26917">
        <ele>4</ele>
        <time>2021-07-27T13:49:22.000Z</time>
      </trkpt>
      <trkpt lat="48.13074" lon="-4.26937">
        <ele>4.6</ele>
        <time>2021-07-27T13:49:44.000Z</time>
      </trkpt>
      <trkpt lat="48.13083" lon="-4.26961">
        <ele>5.9</ele>
        <time>2021-07-27T13:50:02.000Z</time>
      </trkpt>
      <trkpt lat="48.13094" lon="-4.26983">
        <ele>6.8</ele>
        <time>2021-07-27T13:50:15.000Z</time>
      </trkpt>
      <trkpt lat="48.13108" lon="-4.27002">
        <ele>8</ele>
        <time>2021-07-27T13:50:29.000Z</time>
      </trkpt>
      <trkpt lat="48.13119" lon="-4.27025">
        <ele>8.3</ele>
        <time>2021-07-27T13:50:43.000Z</time>
      </trkpt>
      <trkpt lat="48.13132" lon="-4.27044">
        <ele>9.2</ele>
        <time>2021-07-27T13:51:01.000Z</time>
      </trkpt>
      <trkpt lat="48.13148" lon="-4.27059">
        <ele>9.2</ele>
        <time>2021-07-27T13:51:16.000Z</time>
      </trkpt>
      <trkpt lat="48.13163" lon="-4.27075">
        <ele>10.5</ele>
        <time>2021-07-27T13:51:32.000Z</time>
      </trkpt>
      <trkpt lat="48.13179" lon="-4.2709">
        <ele>10.1</ele>
        <time>2021-07-27T13:51:48.000Z</time>
      </trkpt>
      <trkpt lat="48.13197" lon="-4.271">
        <ele>11.1</ele>
        <time>2021-07-27T13:52:03.000Z</time>
      </trkpt>
      <trkpt lat="48.13215" lon="-4.27111">
        <ele>10.5</ele>
        <time>2021-07-27T13:52:20.000Z</time>
      </trkpt>
      <trkpt lat="48.13218" lon="-4.27112">
        <ele>10.7</ele>
        <time>2021-07-27T13:52:26.000Z</time>
      </trkpt>
      <trkpt lat="48.13218" lon="-4.27112">
        <ele>10.8</ele>
        <time>2021-07-27T13:52:27.000Z</time>
      </trkpt>
      <trkpt lat="48.13235" lon="-4.27126">
        <ele>11.7</ele>
        <time>2021-07-27T13:52:45.000Z</time>
      </trkpt>
      <trkpt lat="48.13246" lon="-4.27148">
        <ele>12.5</ele>
        <time>2021-07-27T13:53:04.000Z</time>
      </trkpt>
      <trkpt lat="48.13257" lon="-4.27156">
        <ele>15.8</ele>
        <time>2021-07-27T13:53:25.000Z</time>
      </trkpt>
      <trkpt lat="48.13257" lon="-4.27156">
        <ele>15.9</ele>
        <time>2021-07-27T13:53:28.000Z</time>
      </trkpt>
      <trkpt lat="48.13275" lon="-4.27162">
        <ele>15</ele>
        <time>2021-07-27T13:53:42.000Z</time>
      </trkpt>
      <trkpt lat="48.13278" lon="-4.27167">
        <ele>15.5</ele>
        <time>2021-07-27T13:53:50.000Z</time>
      </trkpt>
      <trkpt lat="48.13279" lon="-4.27168">
        <ele>15.6</ele>
        <time>2021-07-27T13:53:51.000Z</time>
      </trkpt>
      <trkpt lat="48.13291" lon="-4.27189">
        <ele>16.8</ele>
        <time>2021-07-27T13:54:11.000Z</time>
      </trkpt>
      <trkpt lat="48.13293" lon="-4.27216">
        <ele>18.8</ele>
        <time>2021-07-27T13:54:32.000Z</time>
      </trkpt>
      <trkpt lat="48.13291" lon="-4.27244">
        <ele>21.7</ele>
        <time>2021-07-27T13:54:50.000Z</time>
      </trkpt>
      <trkpt lat="48.1329" lon="-4.27272">
        <ele>24.5</ele>
        <time>2021-07-27T13:55:05.000Z</time>
      </trkpt>
      <trkpt lat="48.13289" lon="-4.27299">
        <ele>25.4</ele>
        <time>2021-07-27T13:55:22.000Z</time>
      </trkpt>
      <trkpt lat="48.13288" lon="-4.27327">
        <ele>26.6</ele>
        <time>2021-07-27T13:55:43.000Z</time>
      </trkpt>
      <trkpt lat="48.13306" lon="-4.27331">
        <ele>25.7</ele>
        <time>2021-07-27T13:56:07.000Z</time>
      </trkpt>
      <trkpt lat="48.13318" lon="-4.27352">
        <ele>21.3</ele>
        <time>2021-07-27T13:56:22.000Z</time>
      </trkpt>
      <trkpt lat="48.13332" lon="-4.27371">
        <ele>17.2</ele>
        <time>2021-07-27T13:56:35.000Z</time>
      </trkpt>
      <trkpt lat="48.13344" lon="-4.27391">
        <ele>15.8</ele>
        <time>2021-07-27T13:56:50.000Z</time>
      </trkpt>
      <trkpt lat="48.13355" lon="-4.27413">
        <ele>14.1</ele>
        <time>2021-07-27T13:57:09.000Z</time>
      </trkpt>
      <trkpt lat="48.1337" lon="-4.27429">
        <ele>14.8</ele>
        <time>2021-07-27T13:57:25.000Z</time>
      </trkpt>
      <trkpt lat="48.13377" lon="-4.27455">
        <ele>14.8</ele>
        <time>2021-07-27T13:57:40.000Z</time>
      </trkpt>
      <trkpt lat="48.1338" lon="-4.27482">
        <ele>15.2</ele>
        <time>2021-07-27T13:57:54.000Z</time>
      </trkpt>
      <trkpt lat="48.13366" lon="-4.275">
        <ele>14.2</ele>
        <time>2021-07-27T13:58:08.000Z</time>
      </trkpt>
      <trkpt lat="48.13349" lon="-4.27506">
        <ele>14.7</ele>
        <time>2021-07-27T13:58:24.000Z</time>
      </trkpt>
      <trkpt lat="48.13337" lon="-4.27528">
        <ele>15.3</ele>
        <time>2021-07-27T13:58:37.000Z</time>
      </trkpt>
      <trkpt lat="48.13323" lon="-4.27545">
        <ele>18</ele>
        <time>2021-07-27T13:58:52.000Z</time>
      </trkpt>
      <trkpt lat="48.13306" lon="-4.27557">
        <ele>20.7</ele>
        <time>2021-07-27T13:59:08.000Z</time>
      </trkpt>
      <trkpt lat="48.13288" lon="-4.27552">
        <ele>23.8</ele>
        <time>2021-07-27T13:59:24.000Z</time>
      </trkpt>
      <trkpt lat="48.1327" lon="-4.27554">
        <ele>25</ele>
        <time>2021-07-27T13:59:40.000Z</time>
      </trkpt>
      <trkpt lat="48.13269" lon="-4.27554">
        <ele>25</ele>
        <time>2021-07-27T13:59:43.000Z</time>
      </trkpt>
      <trkpt lat="48.13269" lon="-4.27554">
        <ele>25.2</ele>
        <time>2021-07-27T13:59:53.000Z</time>
      </trkpt>
      <trkpt lat="48.1325" lon="-4.27557">
        <ele>27.1</ele>
        <time>2021-07-27T14:00:08.000Z</time>
      </trkpt>
      <trkpt lat="48.13231" lon="-4.27564">
        <ele>29</ele>
        <time>2021-07-27T14:00:22.000Z</time>
      </trkpt>
      <trkpt lat="48.13212" lon="-4.27567">
        <ele>30.9</ele>
        <time>2021-07-27T14:00:40.000Z</time>
      </trkpt>
      <trkpt lat="48.13195" lon="-4.27576">
        <ele>31.2</ele>
        <time>2021-07-27T14:00:54.000Z</time>
      </trkpt>
      <trkpt lat="48.13176" lon="-4.27578">
        <ele>32</ele>
        <time>2021-07-27T14:01:10.000Z</time>
      </trkpt>
      <trkpt lat="48.13157" lon="-4.27576">
        <ele>34.3</ele>
        <time>2021-07-27T14:01:26.000Z</time>
      </trkpt>
      <trkpt lat="48.1314" lon="-4.2757">
        <ele>37.4</ele>
        <time>2021-07-27T14:01:44.000Z</time>
      </trkpt>
      <trkpt lat="48.13127" lon="-4.2759">
        <ele>37.3</ele>
        <time>2021-07-27T14:02:05.000Z</time>
      </trkpt>
      <trkpt lat="48.13121" lon="-4.27617">
        <ele>32.8</ele>
        <time>2021-07-27T14:02:22.000Z</time>
      </trkpt>
      <trkpt lat="48.13113" lon="-4.27642">
        <ele>30.4</ele>
        <time>2021-07-27T14:02:38.000Z</time>
      </trkpt>
      <trkpt lat="48.13102" lon="-4.27665">
        <ele>29.3</ele>
        <time>2021-07-27T14:02:52.000Z</time>
      </trkpt>
      <trkpt lat="48.13092" lon="-4.27689">
        <ele>26.6</ele>
        <time>2021-07-27T14:03:06.000Z</time>
      </trkpt>
      <trkpt lat="48.13079" lon="-4.27709">
        <ele>24.8</ele>
        <time>2021-07-27T14:03:19.000Z</time>
      </trkpt>
      <trkpt lat="48.13064" lon="-4.27726">
        <ele>23.8</ele>
        <time>2021-07-27T14:03:32.000Z</time>
      </trkpt>
      <trkpt lat="48.13049" lon="-4.27741">
        <ele>24.4</ele>
        <time>2021-07-27T14:03:45.000Z</time>
      </trkpt>
      <trkpt lat="48.13033" lon="-4.27756">
        <ele>25.4</ele>
        <time>2021-07-27T14:03:59.000Z</time>
      </trkpt>
      <trkpt lat="48.13022" lon="-4.27778">
        <ele>24.7</ele>
        <time>2021-07-27T14:04:13.000Z</time>
      </trkpt>
      <trkpt lat="48.13011" lon="-4.27802">
        <ele>21.1</ele>
        <time>2021-07-27T14:04:29.000Z</time>
      </trkpt>
      <trkpt lat="48.12999" lon="-4.27822">
        <ele>19.9</ele>
        <time>2021-07-27T14:04:42.000Z</time>
      </trkpt>
      <trkpt lat="48.12986" lon="-4.2784">
        <ele>19.5</ele>
        <time>2021-07-27T14:04:56.000Z</time>
      </trkpt>
      <trkpt lat="48.1297" lon="-4.27855">
        <ele>22.2</ele>
        <time>2021-07-27T14:05:14.000Z</time>
      </trkpt>
      <trkpt lat="48.12953" lon="-4.27864">
        <ele>24.3</ele>
        <time>2021-07-27T14:05:32.000Z</time>
      </trkpt>
      <trkpt lat="48.12935" lon="-4.27868">
        <ele>23.2</ele>
        <time>2021-07-27T14:05:51.000Z</time>
      </trkpt>
      <trkpt lat="48.12916" lon="-4.27867">
        <ele>21.9</ele>
        <time>2021-07-27T14:06:05.000Z</time>
      </trkpt>
      <trkpt lat="48.12898" lon="-4.27871">
        <ele>21.1</ele>
        <time>2021-07-27T14:06:18.000Z</time>
      </trkpt>
      <trkpt lat="48.12881" lon="-4.2788">
        <ele>20.5</ele>
        <time>2021-07-27T14:06:32.000Z</time>
      </trkpt>
      <trkpt lat="48.12863" lon="-4.27892">
        <ele>20.4</ele>
        <time>2021-07-27T14:06:47.000Z</time>
      </trkpt>
      <trkpt lat="48.1285" lon="-4.27912">
        <ele>20.4</ele>
        <time>2021-07-27T14:07:01.000Z</time>
      </trkpt>
      <trkpt lat="48.12843" lon="-4.27939">
        <ele>19.5</ele>
        <time>2021-07-27T14:07:15.000Z</time>
      </trkpt>
      <trkpt lat="48.12845" lon="-4.27967">
        <ele>18.8</ele>
        <time>2021-07-27T14:07:30.000Z</time>
      </trkpt>
      <trkpt lat="48.12846" lon="-4.27994">
        <ele>16.4</ele>
        <time>2021-07-27T14:07:44.000Z</time>
      </trkpt>
      <trkpt lat="48.12837" lon="-4.28019">
        <ele>15.4</ele>
        <time>2021-07-27T14:07:59.000Z</time>
      </trkpt>
      <trkpt lat="48.12825" lon="-4.28041">
        <ele>15.7</ele>
        <time>2021-07-27T14:08:14.000Z</time>
      </trkpt>
      <trkpt lat="48.12811" lon="-4.2806">
        <ele>17.3</ele>
        <time>2021-07-27T14:08:27.000Z</time>
      </trkpt>
      <trkpt lat="48.12795" lon="-4.28073">
        <ele>17.4</ele>
        <time>2021-07-27T14:08:41.000Z</time>
      </trkpt>
      <trkpt lat="48.12777" lon="-4.2808">
        <ele>18.4</ele>
        <time>2021-07-27T14:08:55.000Z</time>
      </trkpt>
      <trkpt lat="48.1277" lon="-4.28105">
        <ele>19.1</ele>
        <time>2021-07-27T14:09:09.000Z</time>
      </trkpt>
      <trkpt lat="48.12764" lon="-4.28132">
        <ele>18.9</ele>
        <time>2021-07-27T14:09:23.000Z</time>
      </trkpt>
      <trkpt lat="48.12753" lon="-4.28155">
        <ele>19.7</ele>
        <time>2021-07-27T14:09:36.000Z</time>
      </trkpt>
      <trkpt lat="48.12741" lon="-4.28176">
        <ele>20.8</ele>
        <time>2021-07-27T14:09:49.000Z</time>
      </trkpt>
      <trkpt lat="48.12729" lon="-4.28197">
        <ele>21.6</ele>
        <time>2021-07-27T14:10:02.000Z</time>
      </trkpt>
      <trkpt lat="48.12716" lon="-4.28218">
        <ele>22.8</ele>
        <time>2021-07-27T14:10:15.000Z</time>
      </trkpt>
      <trkpt lat="48.12702" lon="-4.28235">
        <ele>23.5</ele>
        <time>2021-07-27T14:10:28.000Z</time>
      </trkpt>
      <trkpt lat="48.12685" lon="-4.28247">
        <ele>24.2</ele>
        <time>2021-07-27T14:10:41.000Z</time>
      </trkpt>
      <trkpt lat="48.12667" lon="-4.28253">
        <ele>25.3</ele>
        <time>2021-07-27T14:10:56.000Z</time>
      </trkpt>
      <trkpt lat="48.12656" lon="-4.28276">
        <ele>25.4</ele>
        <time>2021-07-27T14:11:11.000Z</time>
      </trkpt>
      <trkpt lat="48.12649" lon="-4.28303">
        <ele>23.7</ele>
        <time>2021-07-27T14:11:25.000Z</time>
      </trkpt>
      <trkpt lat="48.12643" lon="-4.2833">
        <ele>23.1</ele>
        <time>2021-07-27T14:11:39.000Z</time>
      </trkpt>
      <trkpt lat="48.12635" lon="-4.28354">
        <ele>22.9</ele>
        <time>2021-07-27T14:11:52.000Z</time>
      </trkpt>
      <trkpt lat="48.12625" lon="-4.28378">
        <ele>22.7</ele>
        <time>2021-07-27T14:12:06.000Z</time>
      </trkpt>
      <trkpt lat="48.12623" lon="-4.28405">
        <ele>21.2</ele>
        <time>2021-07-27T14:12:20.000Z</time>
      </trkpt>
      <trkpt lat="48.1262" lon="-4.28432">
        <ele>20.4</ele>
        <time>2021-07-27T14:12:35.000Z</time>
      </trkpt>
      <trkpt lat="48.1262" lon="-4.28432">
        <ele>20.3</ele>
        <time>2021-07-27T14:12:37.000Z</time>
      </trkpt>
      <trkpt lat="48.1262" lon="-4.28433">
        <ele>20.3</ele>
        <time>2021-07-27T14:12:41.000Z</time>
      </trkpt>
      <trkpt lat="48.1262" lon="-4.28433">
        <ele>20.3</ele>
        <time>2021-07-27T14:12:42.000Z</time>
      </trkpt>
      <trkpt lat="48.1262" lon="-4.28434">
        <ele>20.2</ele>
        <time>2021-07-27T14:12:48.000Z</time>
      </trkpt>
      <trkpt lat="48.12613" lon="-4.28459">
        <ele>19.4</ele>
        <time>2021-07-27T14:13:01.000Z</time>
      </trkpt>
      <trkpt lat="48.12594" lon="-4.28457">
        <ele>23.2</ele>
        <time>2021-07-27T14:13:24.000Z</time>
      </trkpt>
      <trkpt lat="48.1258" lon="-4.28437">
        <ele>24.5</ele>
        <time>2021-07-27T14:13:40.000Z</time>
      </trkpt>
      <trkpt lat="48.12566" lon="-4.28421">
        <ele>27</ele>
        <time>2021-07-27T14:13:55.000Z</time>
      </trkpt>
      <trkpt lat="48.12547" lon="-4.28419">
        <ele>28.3</ele>
        <time>2021-07-27T14:14:12.000Z</time>
      </trkpt>
      <trkpt lat="48.1254" lon="-4.28415">
        <ele>28.6</ele>
        <time>2021-07-27T14:14:21.000Z</time>
      </trkpt>
      <trkpt lat="48.1254" lon="-4.28415">
        <ele>28.5</ele>
        <time>2021-07-27T14:14:22.000Z</time>
      </trkpt>
      <trkpt lat="48.1254" lon="-4.28415">
        <ele>28.4</ele>
        <time>2021-07-27T14:14:23.000Z</time>
      </trkpt>
      <trkpt lat="48.1254" lon="-4.28415">
        <ele>28.4</ele>
        <time>2021-07-27T14:14:54.000Z</time>
      </trkpt>
      <trkpt lat="48.12539" lon="-4.28415">
        <ele>28.3</ele>
        <time>2021-07-27T14:14:56.000Z</time>
      </trkpt>
      <trkpt lat="48.12539" lon="-4.28414">
        <ele>28.3</ele>
        <time>2021-07-27T14:15:36.000Z</time>
      </trkpt>
      <trkpt lat="48.12539" lon="-4.28415">
        <ele>28.4</ele>
        <time>2021-07-27T14:15:37.000Z</time>
      </trkpt>
      <trkpt lat="48.12539" lon="-4.28415">
        <ele>28.5</ele>
        <time>2021-07-27T14:15:38.000Z</time>
      </trkpt>
      <trkpt lat="48.12521" lon="-4.28412">
        <ele>27.2</ele>
        <time>2021-07-27T14:15:55.000Z</time>
      </trkpt>
      <trkpt lat="48.12503" lon="-4.28405">
        <ele>26.2</ele>
        <time>2021-07-27T14:16:10.000Z</time>
      </trkpt>
      <trkpt lat="48.12486" lon="-4.28398">
        <ele>25.1</ele>
        <time>2021-07-27T14:16:25.000Z</time>
      </trkpt>
      <trkpt lat="48.12468" lon="-4.28389">
        <ele>25.6</ele>
        <time>2021-07-27T14:16:39.000Z</time>
      </trkpt>
      <trkpt lat="48.12451" lon="-4.28379">
        <ele>26.8</ele>
        <time>2021-07-27T14:16:53.000Z</time>
      </trkpt>
      <trkpt lat="48.12433" lon="-4.28372">
        <ele>26.9</ele>
        <time>2021-07-27T14:17:08.000Z</time>
      </trkpt>
      <trkpt lat="48.12414" lon="-4.28365">
        <ele>26.8</ele>
        <time>2021-07-27T14:17:22.000Z</time>
      </trkpt>
      <trkpt lat="48.12397" lon="-4.28351">
        <ele>28</ele>
        <time>2021-07-27T14:17:37.000Z</time>
      </trkpt>
      <trkpt lat="48.12382" lon="-4.28336">
        <ele>29.5</ele>
        <time>2021-07-27T14:17:52.000Z</time>
      </trkpt>
      <trkpt lat="48.12363" lon="-4.2833">
        <ele>30.2</ele>
        <time>2021-07-27T14:18:08.000Z</time>
      </trkpt>
      <trkpt lat="48.12344" lon="-4.28324">
        <ele>30.1</ele>
        <time>2021-07-27T14:18:23.000Z</time>
      </trkpt>
      <trkpt lat="48.12327" lon="-4.28316">
        <ele>30.8</ele>
        <time>2021-07-27T14:18:36.000Z</time>
      </trkpt>
      <trkpt lat="48.12311" lon="-4.283">
        <ele>33.1</ele>
        <time>2021-07-27T14:18:52.000Z</time>
      </trkpt>
      <trkpt lat="48.12296" lon="-4.28283">
        <ele>35.8</ele>
        <time>2021-07-27T14:19:09.000Z</time>
      </trkpt>
      <trkpt lat="48.12281" lon="-4.28265">
        <ele>38.2</ele>
        <time>2021-07-27T14:19:27.000Z</time>
      </trkpt>
      <trkpt lat="48.12264" lon="-4.28257">
        <ele>38.1</ele>
        <time>2021-07-27T14:19:44.000Z</time>
      </trkpt>
      <trkpt lat="48.12246" lon="-4.28265">
        <ele>37.1</ele>
        <time>2021-07-27T14:19:59.000Z</time>
      </trkpt>
      <trkpt lat="48.12228" lon="-4.28274">
        <ele>34.5</ele>
        <time>2021-07-27T14:20:13.000Z</time>
      </trkpt>
      <trkpt lat="48.12211" lon="-4.28283">
        <ele>33</ele>
        <time>2021-07-27T14:20:26.000Z</time>
      </trkpt>
      <trkpt lat="48.12193" lon="-4.2829">
        <ele>32.1</ele>
        <time>2021-07-27T14:20:39.000Z</time>
      </trkpt>
      <trkpt lat="48.12175" lon="-4.28291">
        <ele>30.6</ele>
        <time>2021-07-27T14:20:52.000Z</time>
      </trkpt>
      <trkpt lat="48.12156" lon="-4.2829">
        <ele>30.2</ele>
        <time>2021-07-27T14:21:07.000Z</time>
      </trkpt>
      <trkpt lat="48.12138" lon="-4.28287">
        <ele>30.9</ele>
        <time>2021-07-27T14:21:20.000Z</time>
      </trkpt>
      <trkpt lat="48.12119" lon="-4.28286">
        <ele>31.2</ele>
        <time>2021-07-27T14:21:33.000Z</time>
      </trkpt>
      <trkpt lat="48.121" lon="-4.28285">
        <ele>31</ele>
        <time>2021-07-27T14:21:47.000Z</time>
      </trkpt>
      <trkpt lat="48.12098" lon="-4.28284">
        <ele>31.2</ele>
        <time>2021-07-27T14:21:52.000Z</time>
      </trkpt>
      <trkpt lat="48.12098" lon="-4.28285">
        <ele>31.2</ele>
        <time>2021-07-27T14:21:56.000Z</time>
      </trkpt>
      <trkpt lat="48.12079" lon="-4.28287">
        <ele>31.3</ele>
        <time>2021-07-27T14:22:10.000Z</time>
      </trkpt>
      <trkpt lat="48.12063" lon="-4.28273">
        <ele>32.3</ele>
        <time>2021-07-27T14:22:27.000Z</time>
      </trkpt>
      <trkpt lat="48.12047" lon="-4.28259">
        <ele>31</ele>
        <time>2021-07-27T14:22:42.000Z</time>
      </trkpt>
      <trkpt lat="48.12029" lon="-4.28254">
        <ele>28.4</ele>
        <time>2021-07-27T14:23:01.000Z</time>
      </trkpt>
      <trkpt lat="48.1201" lon="-4.2825">
        <ele>25.2</ele>
        <time>2021-07-27T14:23:17.000Z</time>
      </trkpt>
      <trkpt lat="48.12004" lon="-4.28224">
        <ele>24.8</ele>
        <time>2021-07-27T14:23:31.000Z</time>
      </trkpt>
      <trkpt lat="48.11995" lon="-4.28199">
        <ele>24.2</ele>
        <time>2021-07-27T14:23:45.000Z</time>
      </trkpt>
      <trkpt lat="48.11994" lon="-4.28193">
        <ele>24.5</ele>
        <time>2021-07-27T14:23:52.000Z</time>
      </trkpt>
      <trkpt lat="48.11994" lon="-4.28192">
        <ele>24.3</ele>
        <time>2021-07-27T14:24:02.000Z</time>
      </trkpt>
      <trkpt lat="48.11985" lon="-4.28166">
        <ele>23</ele>
        <time>2021-07-27T14:24:16.000Z</time>
      </trkpt>
      <trkpt lat="48.11972" lon="-4.28145">
        <ele>21.8</ele>
        <time>2021-07-27T14:24:29.000Z</time>
      </trkpt>
      <trkpt lat="48.11977" lon="-4.28118">
        <ele>23.5</ele>
        <time>2021-07-27T14:24:48.000Z</time>
      </trkpt>
      <trkpt lat="48.11975" lon="-4.28091">
        <ele>25.4</ele>
        <time>2021-07-27T14:25:03.000Z</time>
      </trkpt>
      <trkpt lat="48.11966" lon="-4.28068">
        <ele>26.1</ele>
        <time>2021-07-27T14:25:17.000Z</time>
      </trkpt>
      <trkpt lat="48.1195" lon="-4.28052">
        <ele>26</ele>
        <time>2021-07-27T14:25:33.000Z</time>
      </trkpt>
      <trkpt lat="48.11936" lon="-4.28035">
        <ele>24.9</ele>
        <time>2021-07-27T14:25:48.000Z</time>
      </trkpt>
      <trkpt lat="48.11917" lon="-4.28038">
        <ele>23.2</ele>
        <time>2021-07-27T14:26:03.000Z</time>
      </trkpt>
      <trkpt lat="48.11898" lon="-4.28035">
        <ele>21.1</ele>
        <time>2021-07-27T14:26:17.000Z</time>
      </trkpt>
      <trkpt lat="48.11879" lon="-4.2803">
        <ele>18.6</ele>
        <time>2021-07-27T14:26:32.000Z</time>
      </trkpt>
      <trkpt lat="48.11862" lon="-4.28037">
        <ele>17.1</ele>
        <time>2021-07-27T14:26:45.000Z</time>
      </trkpt>
      <trkpt lat="48.11844" lon="-4.28041">
        <ele>16.8</ele>
        <time>2021-07-27T14:27:00.000Z</time>
      </trkpt>
      <trkpt lat="48.11827" lon="-4.28053">
        <ele>17.9</ele>
        <time>2021-07-27T14:27:16.000Z</time>
      </trkpt>
      <trkpt lat="48.11811" lon="-4.28069">
        <ele>19</ele>
        <time>2021-07-27T14:27:31.000Z</time>
      </trkpt>
      <trkpt lat="48.11797" lon="-4.28085">
        <ele>18.9</ele>
        <time>2021-07-27T14:27:45.000Z</time>
      </trkpt>
      <trkpt lat="48.1178" lon="-4.28097">
        <ele>18.6</ele>
        <time>2021-07-27T14:27:58.000Z</time>
      </trkpt>
      <trkpt lat="48.11764" lon="-4.28085">
        <ele>19.1</ele>
        <time>2021-07-27T14:28:13.000Z</time>
      </trkpt>
      <trkpt lat="48.11747" lon="-4.28071">
        <ele>19.6</ele>
        <time>2021-07-27T14:28:29.000Z</time>
      </trkpt>
      <trkpt lat="48.11728" lon="-4.28067">
        <ele>20.1</ele>
        <time>2021-07-27T14:28:43.000Z</time>
      </trkpt>
      <trkpt lat="48.1171" lon="-4.28065">
        <ele>18.5</ele>
        <time>2021-07-27T14:28:56.000Z</time>
      </trkpt>
      <trkpt lat="48.11692" lon="-4.28068">
        <ele>17.8</ele>
        <time>2021-07-27T14:29:09.000Z</time>
      </trkpt>
      <trkpt lat="48.11674" lon="-4.28075">
        <ele>16.7</ele>
        <time>2021-07-27T14:29:22.000Z</time>
      </trkpt>
      <trkpt lat="48.11665" lon="-4.28075">
        <ele>17.3</ele>
        <time>2021-07-27T14:29:32.000Z</time>
      </trkpt>
      <trkpt lat="48.11665" lon="-4.28075">
        <ele>17.2</ele>
        <time>2021-07-27T14:29:38.000Z</time>
      </trkpt>
      <trkpt lat="48.11666" lon="-4.28074">
        <ele>17.1</ele>
        <time>2021-07-27T14:29:42.000Z</time>
      </trkpt>
      <trkpt lat="48.11666" lon="-4.28074">
        <ele>16.9</ele>
        <time>2021-07-27T14:30:13.000Z</time>
      </trkpt>
      <trkpt lat="48.11648" lon="-4.28064">
        <ele>16.5</ele>
        <time>2021-07-27T14:30:28.000Z</time>
      </trkpt>
      <trkpt lat="48.11632" lon="-4.2805">
        <ele>15.8</ele>
        <time>2021-07-27T14:30:43.000Z</time>
      </trkpt>
      <trkpt lat="48.11616" lon="-4.28066">
        <ele>16.4</ele>
        <time>2021-07-27T14:30:56.000Z</time>
      </trkpt>
      <trkpt lat="48.116" lon="-4.28081">
        <ele>16.1</ele>
        <time>2021-07-27T14:31:09.000Z</time>
      </trkpt>
      <trkpt lat="48.11584" lon="-4.28098">
        <ele>16.5</ele>
        <time>2021-07-27T14:31:24.000Z</time>
      </trkpt>
      <trkpt lat="48.11573" lon="-4.2812">
        <ele>14.1</ele>
        <time>2021-07-27T14:31:38.000Z</time>
      </trkpt>
      <trkpt lat="48.11556" lon="-4.28131">
        <ele>11.6</ele>
        <time>2021-07-27T14:31:53.000Z</time>
      </trkpt>
      <trkpt lat="48.11552" lon="-4.28131">
        <ele>11</ele>
        <time>2021-07-27T14:32:01.000Z</time>
      </trkpt>
      <trkpt lat="48.11553" lon="-4.28131">
        <ele>11.1</ele>
        <time>2021-07-27T14:32:03.000Z</time>
      </trkpt>
      <trkpt lat="48.11553" lon="-4.28131">
        <ele>11.2</ele>
        <time>2021-07-27T14:32:04.000Z</time>
      </trkpt>
      <trkpt lat="48.11552" lon="-4.28131">
        <ele>11.2</ele>
        <time>2021-07-27T14:32:05.000Z</time>
      </trkpt>
      <trkpt lat="48.11552" lon="-4.28131">
        <ele>11.2</ele>
        <time>2021-07-27T14:32:08.000Z</time>
      </trkpt>
      <trkpt lat="48.11553" lon="-4.2813">
        <ele>11.3</ele>
        <time>2021-07-27T14:32:10.000Z</time>
      </trkpt>
      <trkpt lat="48.11535" lon="-4.2814">
        <ele>12.6</ele>
        <time>2021-07-27T14:32:27.000Z</time>
      </trkpt>
      <trkpt lat="48.11517" lon="-4.28144">
        <ele>12.5</ele>
        <time>2021-07-27T14:32:41.000Z</time>
      </trkpt>
      <trkpt lat="48.11498" lon="-4.28152">
        <ele>12.1</ele>
        <time>2021-07-27T14:32:55.000Z</time>
      </trkpt>
      <trkpt lat="48.11479" lon="-4.28154">
        <ele>11.8</ele>
        <time>2021-07-27T14:33:09.000Z</time>
      </trkpt>
      <trkpt lat="48.1146" lon="-4.28155">
        <ele>12</ele>
        <time>2021-07-27T14:33:24.000Z</time>
      </trkpt>
      <trkpt lat="48.11441" lon="-4.28157">
        <ele>11.1</ele>
        <time>2021-07-27T14:33:38.000Z</time>
      </trkpt>
      <trkpt lat="48.11423" lon="-4.28159">
        <ele>10.3</ele>
        <time>2021-07-27T14:33:51.000Z</time>
      </trkpt>
      <trkpt lat="48.11405" lon="-4.2816">
        <ele>10.5</ele>
        <time>2021-07-27T14:34:05.000Z</time>
      </trkpt>
      <trkpt lat="48.11387" lon="-4.2817">
        <ele>11.2</ele>
        <time>2021-07-27T14:34:21.000Z</time>
      </trkpt>
      <trkpt lat="48.1137" lon="-4.28185">
        <ele>11.3</ele>
        <time>2021-07-27T14:34:37.000Z</time>
      </trkpt>
      <trkpt lat="48.11352" lon="-4.28186">
        <ele>11.8</ele>
        <time>2021-07-27T14:34:53.000Z</time>
      </trkpt>
      <trkpt lat="48.11334" lon="-4.2818">
        <ele>10.6</ele>
        <time>2021-07-27T14:35:07.000Z</time>
      </trkpt>
      <trkpt lat="48.11316" lon="-4.28188">
        <ele>10.6</ele>
        <time>2021-07-27T14:35:22.000Z</time>
      </trkpt>
      <trkpt lat="48.113" lon="-4.28202">
        <ele>11.2</ele>
        <time>2021-07-27T14:35:36.000Z</time>
      </trkpt>
      <trkpt lat="48.11281" lon="-4.28208">
        <ele>11.4</ele>
        <time>2021-07-27T14:35:50.000Z</time>
      </trkpt>
      <trkpt lat="48.11263" lon="-4.28215">
        <ele>12.5</ele>
        <time>2021-07-27T14:36:04.000Z</time>
      </trkpt>
      <trkpt lat="48.11245" lon="-4.28222">
        <ele>13</ele>
        <time>2021-07-27T14:36:18.000Z</time>
      </trkpt>
      <trkpt lat="48.11227" lon="-4.28231">
        <ele>12.9</ele>
        <time>2021-07-27T14:36:32.000Z</time>
      </trkpt>
      <trkpt lat="48.11209" lon="-4.2824">
        <ele>12.4</ele>
        <time>2021-07-27T14:36:45.000Z</time>
      </trkpt>
      <trkpt lat="48.1119" lon="-4.28245">
        <ele>12.5</ele>
        <time>2021-07-27T14:36:59.000Z</time>
      </trkpt>
      <trkpt lat="48.11172" lon="-4.28248">
        <ele>13.2</ele>
        <time>2021-07-27T14:37:13.000Z</time>
      </trkpt>
      <trkpt lat="48.11154" lon="-4.28252">
        <ele>12.6</ele>
        <time>2021-07-27T14:37:26.000Z</time>
      </trkpt>
      <trkpt lat="48.11137" lon="-4.28262">
        <ele>12.5</ele>
        <time>2021-07-27T14:37:40.000Z</time>
      </trkpt>
      <trkpt lat="48.11118" lon="-4.28258">
        <ele>13</ele>
        <time>2021-07-27T14:37:54.000Z</time>
      </trkpt>
      <trkpt lat="48.11102" lon="-4.28274">
        <ele>12.9</ele>
        <time>2021-07-27T14:38:10.000Z</time>
      </trkpt>
      <trkpt lat="48.11088" lon="-4.28294">
        <ele>11.5</ele>
        <time>2021-07-27T14:38:25.000Z</time>
      </trkpt>
      <trkpt lat="48.1107" lon="-4.28296">
        <ele>12.4</ele>
        <time>2021-07-27T14:38:40.000Z</time>
      </trkpt>
      <trkpt lat="48.11051" lon="-4.28299">
        <ele>13.8</ele>
        <time>2021-07-27T14:38:55.000Z</time>
      </trkpt>
      <trkpt lat="48.11034" lon="-4.2829">
        <ele>13.9</ele>
        <time>2021-07-27T14:39:11.000Z</time>
      </trkpt>
      <trkpt lat="48.11015" lon="-4.28292">
        <ele>14.5</ele>
        <time>2021-07-27T14:39:26.000Z</time>
      </trkpt>
      <trkpt lat="48.10997" lon="-4.28293">
        <ele>15.9</ele>
        <time>2021-07-27T14:39:41.000Z</time>
      </trkpt>
      <trkpt lat="48.10978" lon="-4.28288">
        <ele>17.1</ele>
        <time>2021-07-27T14:39:56.000Z</time>
      </trkpt>
      <trkpt lat="48.10961" lon="-4.28299">
        <ele>18</ele>
        <time>2021-07-27T14:40:11.000Z</time>
      </trkpt>
      <trkpt lat="48.10943" lon="-4.28303">
        <ele>20</ele>
        <time>2021-07-27T14:40:27.000Z</time>
      </trkpt>
      <trkpt lat="48.10925" lon="-4.28311">
        <ele>21.5</ele>
        <time>2021-07-27T14:40:41.000Z</time>
      </trkpt>
      <trkpt lat="48.10908" lon="-4.28321">
        <ele>22.9</ele>
        <time>2021-07-27T14:40:55.000Z</time>
      </trkpt>
      <trkpt lat="48.10891" lon="-4.28332">
        <ele>24.2</ele>
        <time>2021-07-27T14:41:09.000Z</time>
      </trkpt>
      <trkpt lat="48.1088" lon="-4.28353">
        <ele>25.1</ele>
        <time>2021-07-27T14:41:25.000Z</time>
      </trkpt>
      <trkpt lat="48.1088" lon="-4.2838">
        <ele>25.1</ele>
        <time>2021-07-27T14:41:40.000Z</time>
      </trkpt>
      <trkpt lat="48.10866" lon="-4.28398">
        <ele>22.9</ele>
        <time>2021-07-27T14:42:00.000Z</time>
      </trkpt>
      <trkpt lat="48.10847" lon="-4.28398">
        <ele>17.9</ele>
        <time>2021-07-27T14:42:25.000Z</time>
      </trkpt>
      <trkpt lat="48.10839" lon="-4.28373">
        <ele>15.9</ele>
        <time>2021-07-27T14:42:41.000Z</time>
      </trkpt>
      <trkpt lat="48.10828" lon="-4.28396">
        <ele>9.2</ele>
        <time>2021-07-27T14:43:17.000Z</time>
      </trkpt>
      <trkpt lat="48.10817" lon="-4.28418">
        <ele>8.6</ele>
        <time>2021-07-27T14:43:37.000Z</time>
      </trkpt>
      <trkpt lat="48.10799" lon="-4.28425">
        <ele>7.5</ele>
        <time>2021-07-27T14:43:53.000Z</time>
      </trkpt>
      <trkpt lat="48.10787" lon="-4.28445">
        <ele>7.4</ele>
        <time>2021-07-27T14:44:11.000Z</time>
      </trkpt>
      <trkpt lat="48.10774" lon="-4.28466">
        <ele>7.4</ele>
        <time>2021-07-27T14:44:28.000Z</time>
      </trkpt>
      <trkpt lat="48.10757" lon="-4.28475">
        <ele>7.6</ele>
        <time>2021-07-27T14:44:42.000Z</time>
      </trkpt>
      <trkpt lat="48.1074" lon="-4.28484">
        <ele>7.7</ele>
        <time>2021-07-27T14:44:56.000Z</time>
      </trkpt>
      <trkpt lat="48.10722" lon="-4.28493">
        <ele>7.4</ele>
        <time>2021-07-27T14:45:11.000Z</time>
      </trkpt>
      <trkpt lat="48.10705" lon="-4.28502">
        <ele>7.4</ele>
        <time>2021-07-27T14:45:25.000Z</time>
      </trkpt>
      <trkpt lat="48.10686" lon="-4.28509">
        <ele>7.9</ele>
        <time>2021-07-27T14:45:40.000Z</time>
      </trkpt>
      <trkpt lat="48.10668" lon="-4.28516">
        <ele>7.8</ele>
        <time>2021-07-27T14:45:54.000Z</time>
      </trkpt>
      <trkpt lat="48.1065" lon="-4.28525">
        <ele>7.3</ele>
        <time>2021-07-27T14:46:08.000Z</time>
      </trkpt>
      <trkpt lat="48.10632" lon="-4.28532">
        <ele>7.3</ele>
        <time>2021-07-27T14:46:22.000Z</time>
      </trkpt>
      <trkpt lat="48.10614" lon="-4.28541">
        <ele>7.1</ele>
        <time>2021-07-27T14:46:36.000Z</time>
      </trkpt>
      <trkpt lat="48.10596" lon="-4.28547">
        <ele>6.8</ele>
        <time>2021-07-27T14:46:50.000Z</time>
      </trkpt>
      <trkpt lat="48.10578" lon="-4.28555">
        <ele>7.4</ele>
        <time>2021-07-27T14:47:04.000Z</time>
      </trkpt>
      <trkpt lat="48.1056" lon="-4.28562">
        <ele>7.1</ele>
        <time>2021-07-27T14:47:18.000Z</time>
      </trkpt>
      <trkpt lat="48.10542" lon="-4.28567">
        <ele>7</ele>
        <time>2021-07-27T14:47:32.000Z</time>
      </trkpt>
      <trkpt lat="48.10525" lon="-4.28575">
        <ele>7.3</ele>
        <time>2021-07-27T14:47:46.000Z</time>
      </trkpt>
      <trkpt lat="48.10507" lon="-4.28581">
        <ele>6.9</ele>
        <time>2021-07-27T14:48:00.000Z</time>
      </trkpt>
      <trkpt lat="48.10488" lon="-4.28588">
        <ele>6.6</ele>
        <time>2021-07-27T14:48:15.000Z</time>
      </trkpt>
      <trkpt lat="48.1047" lon="-4.28597">
        <ele>6.5</ele>
        <time>2021-07-27T14:48:29.000Z</time>
      </trkpt>
      <trkpt lat="48.10452" lon="-4.28597">
        <ele>6.6</ele>
        <time>2021-07-27T14:48:44.000Z</time>
      </trkpt>
      <trkpt lat="48.10434" lon="-4.28591">
        <ele>7.6</ele>
        <time>2021-07-27T14:49:03.000Z</time>
      </trkpt>
      <trkpt lat="48.10417" lon="-4.28588">
        <ele>8.8</ele>
        <time>2021-07-27T14:49:19.000Z</time>
      </trkpt>
      <trkpt lat="48.10399" lon="-4.28594">
        <ele>10</ele>
        <time>2021-07-27T14:49:33.000Z</time>
      </trkpt>
      <trkpt lat="48.1038" lon="-4.28602">
        <ele>10.9</ele>
        <time>2021-07-27T14:49:48.000Z</time>
      </trkpt>
      <trkpt lat="48.10375" lon="-4.28612">
        <ele>10.9</ele>
        <time>2021-07-27T14:50:00.000Z</time>
      </trkpt>
      <trkpt lat="48.10375" lon="-4.28612">
        <ele>10.8</ele>
        <time>2021-07-27T14:50:01.000Z</time>
      </trkpt>
      <trkpt lat="48.10375" lon="-4.28612">
        <ele>10.8</ele>
        <time>2021-07-27T14:50:02.000Z</time>
      </trkpt>
      <trkpt lat="48.10375" lon="-4.28612">
        <ele>10.7</ele>
        <time>2021-07-27T14:50:36.000Z</time>
      </trkpt>
      <trkpt lat="48.10375" lon="-4.28612">
        <ele>10.7</ele>
        <time>2021-07-27T14:50:37.000Z</time>
      </trkpt>
      <trkpt lat="48.10375" lon="-4.28612">
        <ele>10.5</ele>
        <time>2021-07-27T14:50:39.000Z</time>
      </trkpt>
      <trkpt lat="48.10374" lon="-4.28613">
        <ele>10.3</ele>
        <time>2021-07-27T14:50:43.000Z</time>
      </trkpt>
      <trkpt lat="48.10374" lon="-4.28613">
        <ele>10.4</ele>
        <time>2021-07-27T14:50:53.000Z</time>
      </trkpt>
      <trkpt lat="48.10357" lon="-4.28624">
        <ele>11.7</ele>
        <time>2021-07-27T14:51:15.000Z</time>
      </trkpt>
      <trkpt lat="48.1034" lon="-4.28634">
        <ele>13.3</ele>
        <time>2021-07-27T14:51:29.000Z</time>
      </trkpt>
      <trkpt lat="48.10322" lon="-4.28625">
        <ele>14.8</ele>
        <time>2021-07-27T14:51:45.000Z</time>
      </trkpt>
      <trkpt lat="48.10307" lon="-4.28642">
        <ele>20.2</ele>
        <time>2021-07-27T14:52:09.000Z</time>
      </trkpt>
      <trkpt lat="48.10298" lon="-4.28667">
        <ele>21</ele>
        <time>2021-07-27T14:52:23.000Z</time>
      </trkpt>
      <trkpt lat="48.10281" lon="-4.28678">
        <ele>22.3</ele>
        <time>2021-07-27T14:52:43.000Z</time>
      </trkpt>
      <trkpt lat="48.10266" lon="-4.28692">
        <ele>26.7</ele>
        <time>2021-07-27T14:53:06.000Z</time>
      </trkpt>
      <trkpt lat="48.10254" lon="-4.28713">
        <ele>29.2</ele>
        <time>2021-07-27T14:53:21.000Z</time>
      </trkpt>
      <trkpt lat="48.10253" lon="-4.28717">
        <ele>29.7</ele>
        <time>2021-07-27T14:53:27.000Z</time>
      </trkpt>
      <trkpt lat="48.10253" lon="-4.28717">
        <ele>29.7</ele>
        <time>2021-07-27T14:53:37.000Z</time>
      </trkpt>
      <trkpt lat="48.10253" lon="-4.28717">
        <ele>29.7</ele>
        <time>2021-07-27T14:53:38.000Z</time>
      </trkpt>
      <trkpt lat="48.10252" lon="-4.28717">
        <ele>29.7</ele>
        <time>2021-07-27T14:53:39.000Z</time>
      </trkpt>
      <trkpt lat="48.10242" lon="-4.2874">
        <ele>30</ele>
        <time>2021-07-27T14:53:53.000Z</time>
      </trkpt>
      <trkpt lat="48.10231" lon="-4.28763">
        <ele>30.3</ele>
        <time>2021-07-27T14:54:06.000Z</time>
      </trkpt>
      <trkpt lat="48.10219" lon="-4.28784">
        <ele>30.5</ele>
        <time>2021-07-27T14:54:19.000Z</time>
      </trkpt>
      <trkpt lat="48.10205" lon="-4.28803">
        <ele>30.8</ele>
        <time>2021-07-27T14:54:32.000Z</time>
      </trkpt>
      <trkpt lat="48.10191" lon="-4.2882">
        <ele>31.6</ele>
        <time>2021-07-27T14:54:45.000Z</time>
      </trkpt>
      <trkpt lat="48.10177" lon="-4.28837">
        <ele>31.6</ele>
        <time>2021-07-27T14:54:58.000Z</time>
      </trkpt>
      <trkpt lat="48.10163" lon="-4.28856">
        <ele>30.1</ele>
        <time>2021-07-27T14:55:11.000Z</time>
      </trkpt>
      <trkpt lat="48.10148" lon="-4.28873">
        <ele>29.9</ele>
        <time>2021-07-27T14:55:25.000Z</time>
      </trkpt>
      <trkpt lat="48.1013" lon="-4.28884">
        <ele>30.3</ele>
        <time>2021-07-27T14:55:39.000Z</time>
      </trkpt>
      <trkpt lat="48.10112" lon="-4.28888">
        <ele>31.1</ele>
        <time>2021-07-27T14:55:52.000Z</time>
      </trkpt>
      <trkpt lat="48.10093" lon="-4.28888">
        <ele>32.1</ele>
        <time>2021-07-27T14:56:06.000Z</time>
      </trkpt>
      <trkpt lat="48.10075" lon="-4.28893">
        <ele>32.3</ele>
        <time>2021-07-27T14:56:20.000Z</time>
      </trkpt>
      <trkpt lat="48.10057" lon="-4.28903">
        <ele>32.6</ele>
        <time>2021-07-27T14:56:34.000Z</time>
      </trkpt>
      <trkpt lat="48.10045" lon="-4.28924">
        <ele>30</ele>
        <time>2021-07-27T14:56:50.000Z</time>
      </trkpt>
      <trkpt lat="48.10034" lon="-4.28947">
        <ele>28</ele>
        <time>2021-07-27T14:57:03.000Z</time>
      </trkpt>
      <trkpt lat="48.10026" lon="-4.28972">
        <ele>29</ele>
        <time>2021-07-27T14:57:20.000Z</time>
      </trkpt>
      <trkpt lat="48.10038" lon="-4.28993">
        <ele>29.4</ele>
        <time>2021-07-27T14:57:34.000Z</time>
      </trkpt>
      <trkpt lat="48.10048" lon="-4.29017">
        <ele>29.3</ele>
        <time>2021-07-27T14:57:48.000Z</time>
      </trkpt>
      <trkpt lat="48.10046" lon="-4.29045">
        <ele>30.5</ele>
        <time>2021-07-27T14:58:03.000Z</time>
      </trkpt>
      <trkpt lat="48.10032" lon="-4.29063">
        <ele>33.1</ele>
        <time>2021-07-27T14:58:19.000Z</time>
      </trkpt>
      <trkpt lat="48.10015" lon="-4.29074">
        <ele>35.1</ele>
        <time>2021-07-27T14:58:34.000Z</time>
      </trkpt>
      <trkpt lat="48.09999" lon="-4.29087">
        <ele>38.1</ele>
        <time>2021-07-27T14:58:49.000Z</time>
      </trkpt>
      <trkpt lat="48.09988" lon="-4.2911">
        <ele>40</ele>
        <time>2021-07-27T14:59:04.000Z</time>
      </trkpt>
      <trkpt lat="48.09974" lon="-4.29129">
        <ele>41.2</ele>
        <time>2021-07-27T14:59:18.000Z</time>
      </trkpt>
      <trkpt lat="48.09959" lon="-4.29146">
        <ele>44.4</ele>
        <time>2021-07-27T14:59:33.000Z</time>
      </trkpt>
      <trkpt lat="48.09945" lon="-4.29163">
        <ele>46.9</ele>
        <time>2021-07-27T14:59:50.000Z</time>
      </trkpt>
      <trkpt lat="48.09943" lon="-4.29164">
        <ele>47.4</ele>
        <time>2021-07-27T14:59:53.000Z</time>
      </trkpt>
      <trkpt lat="48.09943" lon="-4.29164">
        <ele>47.6</ele>
        <time>2021-07-27T14:59:54.000Z</time>
      </trkpt>
      <trkpt lat="48.09941" lon="-4.29165">
        <ele>48.3</ele>
        <time>2021-07-27T15:00:00.000Z</time>
      </trkpt>
      <trkpt lat="48.09941" lon="-4.29165">
        <ele>48.3</ele>
        <time>2021-07-27T15:00:16.000Z</time>
      </trkpt>
      <trkpt lat="48.09941" lon="-4.29165">
        <ele>48.3</ele>
        <time>2021-07-27T15:00:17.000Z</time>
      </trkpt>
      <trkpt lat="48.09941" lon="-4.29165">
        <ele>48.4</ele>
        <time>2021-07-27T15:00:35.000Z</time>
      </trkpt>
      <trkpt lat="48.0994" lon="-4.29166">
        <ele>48.5</ele>
        <time>2021-07-27T15:00:38.000Z</time>
      </trkpt>
      <trkpt lat="48.0994" lon="-4.29166">
        <ele>48.5</ele>
        <time>2021-07-27T15:01:03.000Z</time>
      </trkpt>
      <trkpt lat="48.0994" lon="-4.29166">
        <ele>48.6</ele>
        <time>2021-07-27T15:01:05.000Z</time>
      </trkpt>
      <trkpt lat="48.09939" lon="-4.29166">
        <ele>48.6</ele>
        <time>2021-07-27T15:01:30.000Z</time>
      </trkpt>
      <trkpt lat="48.09939" lon="-4.29166">
        <ele>48.6</ele>
        <time>2021-07-27T15:01:31.000Z</time>
      </trkpt>
      <trkpt lat="48.0994" lon="-4.29166">
        <ele>48.6</ele>
        <time>2021-07-27T15:01:32.000Z</time>
      </trkpt>
      <trkpt lat="48.0994" lon="-4.29166">
        <ele>48.6</ele>
        <time>2021-07-27T15:01:33.000Z</time>
      </trkpt>
      <trkpt lat="48.09939" lon="-4.29166">
        <ele>48.6</ele>
        <time>2021-07-27T15:01:46.000Z</time>
      </trkpt>
      <trkpt lat="48.09939" lon="-4.29166">
        <ele>48.6</ele>
        <time>2021-07-27T15:01:47.000Z</time>
      </trkpt>
      <trkpt lat="48.09939" lon="-4.29167">
        <ele>48.5</ele>
        <time>2021-07-27T15:02:09.000Z</time>
      </trkpt>
      <trkpt lat="48.09938" lon="-4.29194">
        <ele>48.7</ele>
        <time>2021-07-27T15:02:29.000Z</time>
      </trkpt>
      <trkpt lat="48.0994" lon="-4.29222">
        <ele>47.9</ele>
        <time>2021-07-27T15:02:45.000Z</time>
      </trkpt>
      <trkpt lat="48.09943" lon="-4.29249">
        <ele>46.3</ele>
        <time>2021-07-27T15:03:01.000Z</time>
      </trkpt>
      <trkpt lat="48.09946" lon="-4.29275">
        <ele>44.4</ele>
        <time>2021-07-27T15:03:21.000Z</time>
      </trkpt>
      <trkpt lat="48.09946" lon="-4.29275">
        <ele>44.4</ele>
        <time>2021-07-27T15:03:26.000Z</time>
      </trkpt>
      <trkpt lat="48.09951" lon="-4.29302">
        <ele>42.4</ele>
        <time>2021-07-27T15:03:46.000Z</time>
      </trkpt>
      <trkpt lat="48.09952" lon="-4.29329">
        <ele>38.4</ele>
        <time>2021-07-27T15:04:09.000Z</time>
      </trkpt>
      <trkpt lat="48.09937" lon="-4.29346">
        <ele>37.3</ele>
        <time>2021-07-27T15:04:29.000Z</time>
      </trkpt>
      <trkpt lat="48.0992" lon="-4.29357">
        <ele>38.6</ele>
        <time>2021-07-27T15:04:47.000Z</time>
      </trkpt>
      <trkpt lat="48.09903" lon="-4.29367">
        <ele>38.4</ele>
        <time>2021-07-27T15:05:05.000Z</time>
      </trkpt>
      <trkpt lat="48.09884" lon="-4.29372">
        <ele>38.5</ele>
        <time>2021-07-27T15:05:22.000Z</time>
      </trkpt>
      <trkpt lat="48.09865" lon="-4.29371">
        <ele>39.7</ele>
        <time>2021-07-27T15:05:42.000Z</time>
      </trkpt>
      <trkpt lat="48.09849" lon="-4.2936">
        <ele>42.9</ele>
        <time>2021-07-27T15:06:05.000Z</time>
      </trkpt>
      <trkpt lat="48.09831" lon="-4.29367">
        <ele>44.6</ele>
        <time>2021-07-27T15:06:24.000Z</time>
      </trkpt>
      <trkpt lat="48.09813" lon="-4.29376">
        <ele>45.3</ele>
        <time>2021-07-27T15:06:43.000Z</time>
      </trkpt>
      <trkpt lat="48.09795" lon="-4.29385">
        <ele>45.6</ele>
        <time>2021-07-27T15:07:01.000Z</time>
      </trkpt>
      <trkpt lat="48.09777" lon="-4.29393">
        <ele>45.3</ele>
        <time>2021-07-27T15:07:19.000Z</time>
      </trkpt>
      <trkpt lat="48.09759" lon="-4.29401">
        <ele>44.7</ele>
        <time>2021-07-27T15:07:36.000Z</time>
      </trkpt>
      <trkpt lat="48.09741" lon="-4.2941">
        <ele>43.2</ele>
        <time>2021-07-27T15:07:54.000Z</time>
      </trkpt>
      <trkpt lat="48.09723" lon="-4.29419">
        <ele>41.2</ele>
        <time>2021-07-27T15:08:12.000Z</time>
      </trkpt>
      <trkpt lat="48.09715" lon="-4.29443">
        <ele>38.2</ele>
        <time>2021-07-27T15:08:34.000Z</time>
      </trkpt>
      <trkpt lat="48.09702" lon="-4.29462">
        <ele>36.6</ele>
        <time>2021-07-27T15:08:53.000Z</time>
      </trkpt>
      <trkpt lat="48.09692" lon="-4.29485">
        <ele>35.9</ele>
        <time>2021-07-27T15:09:12.000Z</time>
      </trkpt>
      <trkpt lat="48.09689" lon="-4.29511">
        <ele>34.7</ele>
        <time>2021-07-27T15:09:29.000Z</time>
      </trkpt>
      <trkpt lat="48.09685" lon="-4.29538">
        <ele>32.9</ele>
        <time>2021-07-27T15:09:48.000Z</time>
      </trkpt>
      <trkpt lat="48.09682" lon="-4.29565">
        <ele>29.9</ele>
        <time>2021-07-27T15:10:07.000Z</time>
      </trkpt>
      <trkpt lat="48.0967" lon="-4.29587">
        <ele>28.3</ele>
        <time>2021-07-27T15:10:26.000Z</time>
      </trkpt>
      <trkpt lat="48.09654" lon="-4.29603">
        <ele>26</ele>
        <time>2021-07-27T15:10:44.000Z</time>
      </trkpt>
      <trkpt lat="48.09638" lon="-4.29616">
        <ele>25.9</ele>
        <time>2021-07-27T15:11:03.000Z</time>
      </trkpt>
      <trkpt lat="48.09621" lon="-4.29626">
        <ele>28.2</ele>
        <time>2021-07-27T15:11:30.000Z</time>
      </trkpt>
      <trkpt lat="48.09604" lon="-4.29635">
        <ele>30.4</ele>
        <time>2021-07-27T15:11:57.000Z</time>
      </trkpt>
      <trkpt lat="48.09586" lon="-4.29643">
        <ele>32.9</ele>
        <time>2021-07-27T15:12:20.000Z</time>
      </trkpt>
      <trkpt lat="48.09574" lon="-4.29664">
        <ele>34.3</ele>
        <time>2021-07-27T15:12:41.000Z</time>
      </trkpt>
      <trkpt lat="48.09561" lon="-4.29683">
        <ele>34.7</ele>
        <time>2021-07-27T15:13:01.000Z</time>
      </trkpt>
      <trkpt lat="48.09544" lon="-4.29695">
        <ele>35.8</ele>
        <time>2021-07-27T15:13:21.000Z</time>
      </trkpt>
      <trkpt lat="48.09527" lon="-4.29707">
        <ele>36.5</ele>
        <time>2021-07-27T15:13:40.000Z</time>
      </trkpt>
      <trkpt lat="48.0951" lon="-4.29719">
        <ele>35.9</ele>
        <time>2021-07-27T15:13:59.000Z</time>
      </trkpt>
      <trkpt lat="48.09494" lon="-4.2973">
        <ele>35.4</ele>
        <time>2021-07-27T15:14:17.000Z</time>
      </trkpt>
      <trkpt lat="48.09477" lon="-4.29743">
        <ele>35.1</ele>
        <time>2021-07-27T15:14:35.000Z</time>
      </trkpt>
      <trkpt lat="48.09464" lon="-4.29724">
        <ele>35.6</ele>
        <time>2021-07-27T15:15:07.000Z</time>
      </trkpt>
      <trkpt lat="48.09461" lon="-4.29696">
        <ele>37.9</ele>
        <time>2021-07-27T15:15:31.000Z</time>
      </trkpt>
      <trkpt lat="48.09458" lon="-4.29669">
        <ele>39.8</ele>
        <time>2021-07-27T15:15:53.000Z</time>
      </trkpt>
      <trkpt lat="48.09455" lon="-4.29642">
        <ele>42</ele>
        <time>2021-07-27T15:16:17.000Z</time>
      </trkpt>
      <trkpt lat="48.09452" lon="-4.29614">
        <ele>44.4</ele>
        <time>2021-07-27T15:16:39.000Z</time>
      </trkpt>
      <trkpt lat="48.0945" lon="-4.29586">
        <ele>45.6</ele>
        <time>2021-07-27T15:17:00.000Z</time>
      </trkpt>
      <trkpt lat="48.09446" lon="-4.29559">
        <ele>46.7</ele>
        <time>2021-07-27T15:17:20.000Z</time>
      </trkpt>
      <trkpt lat="48.09444" lon="-4.29532">
        <ele>48.5</ele>
        <time>2021-07-27T15:17:39.000Z</time>
      </trkpt>
      <trkpt lat="48.0944" lon="-4.29504">
        <ele>49.2</ele>
        <time>2021-07-27T15:17:58.000Z</time>
      </trkpt>
      <trkpt lat="48.09437" lon="-4.29477">
        <ele>50.1</ele>
        <time>2021-07-27T15:18:16.000Z</time>
      </trkpt>
      <trkpt lat="48.0943" lon="-4.29452">
        <ele>50.9</ele>
        <time>2021-07-27T15:18:37.000Z</time>
      </trkpt>
      <trkpt lat="48.09429" lon="-4.29451">
        <ele>50.8</ele>
        <time>2021-07-27T15:18:40.000Z</time>
      </trkpt>
      <trkpt lat="48.0943" lon="-4.29451">
        <ele>50.8</ele>
        <time>2021-07-27T15:18:55.000Z</time>
      </trkpt>
      <trkpt lat="48.0943" lon="-4.29451">
        <ele>50.8</ele>
        <time>2021-07-27T15:18:56.000Z</time>
      </trkpt>
      <trkpt lat="48.0943" lon="-4.2945">
        <ele>50.8</ele>
        <time>2021-07-27T15:19:04.000Z</time>
      </trkpt>
      <trkpt lat="48.0943" lon="-4.2945">
        <ele>50.8</ele>
        <time>2021-07-27T15:19:05.000Z</time>
      </trkpt>
      <trkpt lat="48.0943" lon="-4.29451">
        <ele>50.8</ele>
        <time>2021-07-27T15:19:14.000Z</time>
      </trkpt>
      <trkpt lat="48.0943" lon="-4.29451">
        <ele>50.7</ele>
        <time>2021-07-27T15:19:15.000Z</time>
      </trkpt>
      <trkpt lat="48.09429" lon="-4.29451">
        <ele>50.7</ele>
        <time>2021-07-27T15:19:16.000Z</time>
      </trkpt>
      <trkpt lat="48.09429" lon="-4.29451">
        <ele>50.5</ele>
        <time>2021-07-27T15:19:17.000Z</time>
      </trkpt>
      <trkpt lat="48.09429" lon="-4.29451">
        <ele>50.3</ele>
        <time>2021-07-27T15:19:49.000Z</time>
      </trkpt>
      <trkpt lat="48.09429" lon="-4.29451">
        <ele>50.3</ele>
        <time>2021-07-27T15:19:50.000Z</time>
      </trkpt>
      <trkpt lat="48.09429" lon="-4.2945">
        <ele>50.1</ele>
        <time>2021-07-27T15:20:17.000Z</time>
      </trkpt>
      <trkpt lat="48.09428" lon="-4.2945">
        <ele>49.8</ele>
        <time>2021-07-27T15:20:23.000Z</time>
      </trkpt>
      <trkpt lat="48.09428" lon="-4.2945">
        <ele>49.8</ele>
        <time>2021-07-27T15:20:24.000Z</time>
      </trkpt>
      <trkpt lat="48.09428" lon="-4.2945">
        <ele>49.8</ele>
        <time>2021-07-27T15:20:25.000Z</time>
      </trkpt>
      <trkpt lat="48.09428" lon="-4.2945">
        <ele>49.8</ele>
        <time>2021-07-27T15:20:28.000Z</time>
      </trkpt>
      <trkpt lat="48.09428" lon="-4.2945">
        <ele>49.8</ele>
        <time>2021-07-27T15:20:29.000Z</time>
      </trkpt>
      <trkpt lat="48.09427" lon="-4.2945">
        <ele>49.9</ele>
        <time>2021-07-27T15:20:34.000Z</time>
      </trkpt>
      <trkpt lat="48.0941" lon="-4.29459">
        <ele>50.7</ele>
        <time>2021-07-27T15:20:54.000Z</time>
      </trkpt>
      <trkpt lat="48.09393" lon="-4.2947">
        <ele>49.7</ele>
        <time>2021-07-27T15:21:13.000Z</time>
      </trkpt>
      <trkpt lat="48.09375" lon="-4.29476">
        <ele>47.5</ele>
        <time>2021-07-27T15:21:35.000Z</time>
      </trkpt>
      <trkpt lat="48.09361" lon="-4.29457">
        <ele>46.2</ele>
        <time>2021-07-27T15:21:57.000Z</time>
      </trkpt>
      <trkpt lat="48.09357" lon="-4.2943">
        <ele>46.8</ele>
        <time>2021-07-27T15:22:16.000Z</time>
      </trkpt>
      <trkpt lat="48.09352" lon="-4.29404">
        <ele>45.9</ele>
        <time>2021-07-27T15:22:32.000Z</time>
      </trkpt>
      <trkpt lat="48.0935" lon="-4.29376">
        <ele>44.3</ele>
        <time>2021-07-27T15:22:47.000Z</time>
      </trkpt>
      <trkpt lat="48.09345" lon="-4.29349">
        <ele>42.3</ele>
        <time>2021-07-27T15:23:04.000Z</time>
      </trkpt>
      <trkpt lat="48.09341" lon="-4.29322">
        <ele>42.1</ele>
        <time>2021-07-27T15:23:21.000Z</time>
      </trkpt>
      <trkpt lat="48.0934" lon="-4.29309">
        <ele>42.3</ele>
        <time>2021-07-27T15:23:31.000Z</time>
      </trkpt>
      <trkpt lat="48.0934" lon="-4.29308">
        <ele>42.2</ele>
        <time>2021-07-27T15:23:34.000Z</time>
      </trkpt>
      <trkpt lat="48.09321" lon="-4.29305">
        <ele>41.3</ele>
        <time>2021-07-27T15:23:55.000Z</time>
      </trkpt>
      <trkpt lat="48.09307" lon="-4.29324">
        <ele>37.8</ele>
        <time>2021-07-27T15:24:14.000Z</time>
      </trkpt>
      <trkpt lat="48.09294" lon="-4.29342">
        <ele>34.7</ele>
        <time>2021-07-27T15:24:32.000Z</time>
      </trkpt>
      <trkpt lat="48.0928" lon="-4.2936">
        <ele>32.3</ele>
        <time>2021-07-27T15:24:50.000Z</time>
      </trkpt>
      <trkpt lat="48.09268" lon="-4.29382">
        <ele>29.4</ele>
        <time>2021-07-27T15:25:08.000Z</time>
      </trkpt>
      <trkpt lat="48.09258" lon="-4.29404">
        <ele>26.4</ele>
        <time>2021-07-27T15:25:25.000Z</time>
      </trkpt>
      <trkpt lat="48.0925" lon="-4.2943">
        <ele>24.2</ele>
        <time>2021-07-27T15:25:43.000Z</time>
      </trkpt>
      <trkpt lat="48.09243" lon="-4.29456">
        <ele>22.5</ele>
        <time>2021-07-27T15:26:02.000Z</time>
      </trkpt>
      <trkpt lat="48.09238" lon="-4.29483">
        <ele>20.4</ele>
        <time>2021-07-27T15:26:20.000Z</time>
      </trkpt>
      <trkpt lat="48.09238" lon="-4.2951">
        <ele>19.3</ele>
        <time>2021-07-27T15:26:38.000Z</time>
      </trkpt>
      <trkpt lat="48.09237" lon="-4.29538">
        <ele>17.8</ele>
        <time>2021-07-27T15:26:58.000Z</time>
      </trkpt>
      <trkpt lat="48.09233" lon="-4.29566">
        <ele>16.6</ele>
        <time>2021-07-27T15:27:16.000Z</time>
      </trkpt>
      <trkpt lat="48.0923" lon="-4.29593">
        <ele>15.5</ele>
        <time>2021-07-27T15:27:34.000Z</time>
      </trkpt>
      <trkpt lat="48.09223" lon="-4.29619">
        <ele>12.3</ele>
        <time>2021-07-27T15:27:54.000Z</time>
      </trkpt>
      <trkpt lat="48.09207" lon="-4.29633">
        <ele>10.6</ele>
        <time>2021-07-27T15:28:18.000Z</time>
      </trkpt>
      <trkpt lat="48.09197" lon="-4.29655">
        <ele>9.9</ele>
        <time>2021-07-27T15:28:37.000Z</time>
      </trkpt>
      <trkpt lat="48.09186" lon="-4.29677">
        <ele>9.7</ele>
        <time>2021-07-27T15:28:55.000Z</time>
      </trkpt>
      <trkpt lat="48.09188" lon="-4.29693">
        <ele>9.7</ele>
        <time>2021-07-27T15:29:09.000Z</time>
      </trkpt>
      <trkpt lat="48.09188" lon="-4.29694">
        <ele>9.7</ele>
        <time>2021-07-27T15:29:11.000Z</time>
      </trkpt>
      <trkpt lat="48.09174" lon="-4.29711">
        <ele>10.4</ele>
        <time>2021-07-27T15:29:30.000Z</time>
      </trkpt>
      <trkpt lat="48.0916" lon="-4.29729">
        <ele>10.8</ele>
        <time>2021-07-27T15:29:46.000Z</time>
      </trkpt>
      <trkpt lat="48.09145" lon="-4.29745">
        <ele>12</ele>
        <time>2021-07-27T15:30:03.000Z</time>
      </trkpt>
      <trkpt lat="48.09129" lon="-4.29759">
        <ele>13.7</ele>
        <time>2021-07-27T15:30:21.000Z</time>
      </trkpt>
      <trkpt lat="48.09116" lon="-4.2978">
        <ele>13.3</ele>
        <time>2021-07-27T15:30:38.000Z</time>
      </trkpt>
      <trkpt lat="48.09101" lon="-4.29796">
        <ele>13.6</ele>
        <time>2021-07-27T15:30:55.000Z</time>
      </trkpt>
      <trkpt lat="48.09086" lon="-4.29812">
        <ele>13.4</ele>
        <time>2021-07-27T15:31:13.000Z</time>
      </trkpt>
      <trkpt lat="48.09071" lon="-4.29829">
        <ele>13.7</ele>
        <time>2021-07-27T15:31:32.000Z</time>
      </trkpt>
      <trkpt lat="48.09056" lon="-4.29847">
        <ele>15.2</ele>
        <time>2021-07-27T15:31:51.000Z</time>
      </trkpt>
      <trkpt lat="48.09043" lon="-4.29867">
        <ele>15.7</ele>
        <time>2021-07-27T15:32:09.000Z</time>
      </trkpt>
      <trkpt lat="48.09039" lon="-4.29894">
        <ele>18.9</ele>
        <time>2021-07-27T15:32:27.000Z</time>
      </trkpt>
      <trkpt lat="48.09037" lon="-4.29921">
        <ele>20.2</ele>
        <time>2021-07-27T15:32:44.000Z</time>
      </trkpt>
      <trkpt lat="48.09033" lon="-4.29947">
        <ele>20.9</ele>
        <time>2021-07-27T15:33:01.000Z</time>
      </trkpt>
      <trkpt lat="48.09026" lon="-4.29973">
        <ele>22.3</ele>
        <time>2021-07-27T15:33:19.000Z</time>
      </trkpt>
      <trkpt lat="48.09022" lon="-4.3">
        <ele>23.8</ele>
        <time>2021-07-27T15:33:37.000Z</time>
      </trkpt>
      <trkpt lat="48.0902" lon="-4.30027">
        <ele>25.5</ele>
        <time>2021-07-27T15:33:55.000Z</time>
      </trkpt>
      <trkpt lat="48.09017" lon="-4.30054">
        <ele>27.6</ele>
        <time>2021-07-27T15:34:12.000Z</time>
      </trkpt>
      <trkpt lat="48.09015" lon="-4.30081">
        <ele>30.5</ele>
        <time>2021-07-27T15:34:29.000Z</time>
      </trkpt>
      <trkpt lat="48.09013" lon="-4.3011">
        <ele>33.2</ele>
        <time>2021-07-27T15:34:47.000Z</time>
      </trkpt>
      <trkpt lat="48.09008" lon="-4.30137">
        <ele>35.2</ele>
        <time>2021-07-27T15:35:03.000Z</time>
      </trkpt>
      <trkpt lat="48.09001" lon="-4.30163">
        <ele>34.8</ele>
        <time>2021-07-27T15:35:19.000Z</time>
      </trkpt>
      <trkpt lat="48.08993" lon="-4.30188">
        <ele>35.4</ele>
        <time>2021-07-27T15:35:35.000Z</time>
      </trkpt>
      <trkpt lat="48.08983" lon="-4.30212">
        <ele>35.9</ele>
        <time>2021-07-27T15:35:51.000Z</time>
      </trkpt>
      <trkpt lat="48.08974" lon="-4.30235">
        <ele>36.9</ele>
        <time>2021-07-27T15:36:07.000Z</time>
      </trkpt>
      <trkpt lat="48.08964" lon="-4.30259">
        <ele>38.4</ele>
        <time>2021-07-27T15:36:23.000Z</time>
      </trkpt>
      <trkpt lat="48.08953" lon="-4.30281">
        <ele>39.5</ele>
        <time>2021-07-27T15:36:39.000Z</time>
      </trkpt>
      <trkpt lat="48.08942" lon="-4.30304">
        <ele>41.3</ele>
        <time>2021-07-27T15:36:55.000Z</time>
      </trkpt>
      <trkpt lat="48.08931" lon="-4.30326">
        <ele>43</ele>
        <time>2021-07-27T15:37:11.000Z</time>
      </trkpt>
      <trkpt lat="48.0892" lon="-4.30348">
        <ele>44.2</ele>
        <time>2021-07-27T15:37:27.000Z</time>
      </trkpt>
      <trkpt lat="48.08907" lon="-4.30369">
        <ele>46</ele>
        <time>2021-07-27T15:37:43.000Z</time>
      </trkpt>
      <trkpt lat="48.08893" lon="-4.30387">
        <ele>48.3</ele>
        <time>2021-07-27T15:37:59.000Z</time>
      </trkpt>
      <trkpt lat="48.08878" lon="-4.30403">
        <ele>49.2</ele>
        <time>2021-07-27T15:38:16.000Z</time>
      </trkpt>
      <trkpt lat="48.08863" lon="-4.3042">
        <ele>49.9</ele>
        <time>2021-07-27T15:38:33.000Z</time>
      </trkpt>
      <trkpt lat="48.08848" lon="-4.30434">
        <ele>51.5</ele>
        <time>2021-07-27T15:38:49.000Z</time>
      </trkpt>
      <trkpt lat="48.08833" lon="-4.30449">
        <ele>52.9</ele>
        <time>2021-07-27T15:39:05.000Z</time>
      </trkpt>
      <trkpt lat="48.08818" lon="-4.30465">
        <ele>54.5</ele>
        <time>2021-07-27T15:39:21.000Z</time>
      </trkpt>
      <trkpt lat="48.08808" lon="-4.3049">
        <ele>56</ele>
        <time>2021-07-27T15:39:36.000Z</time>
      </trkpt>
      <trkpt lat="48.08799" lon="-4.30514">
        <ele>58.5</ele>
        <time>2021-07-27T15:39:52.000Z</time>
      </trkpt>
      <trkpt lat="48.0879" lon="-4.30538">
        <ele>60.5</ele>
        <time>2021-07-27T15:40:07.000Z</time>
      </trkpt>
      <trkpt lat="48.08785" lon="-4.30566">
        <ele>61</ele>
        <time>2021-07-27T15:40:23.000Z</time>
      </trkpt>
      <trkpt lat="48.08785" lon="-4.30594">
        <ele>62.9</ele>
        <time>2021-07-27T15:40:38.000Z</time>
      </trkpt>
      <trkpt lat="48.08789" lon="-4.30621">
        <ele>64</ele>
        <time>2021-07-27T15:40:53.000Z</time>
      </trkpt>
      <trkpt lat="48.08806" lon="-4.30631">
        <ele>63.9</ele>
        <time>2021-07-27T15:41:18.000Z</time>
      </trkpt>
      <trkpt lat="48.08823" lon="-4.30643">
        <ele>62.1</ele>
        <time>2021-07-27T15:41:39.000Z</time>
      </trkpt>
      <trkpt lat="48.08841" lon="-4.30651">
        <ele>60.1</ele>
        <time>2021-07-27T15:42:06.000Z</time>
      </trkpt>
      <trkpt lat="48.08849" lon="-4.30677">
        <ele>57.2</ele>
        <time>2021-07-27T15:42:27.000Z</time>
      </trkpt>
      <trkpt lat="48.08861" lon="-4.307">
        <ele>55.5</ele>
        <time>2021-07-27T15:42:45.000Z</time>
      </trkpt>
      <trkpt lat="48.08867" lon="-4.30726">
        <ele>56.2</ele>
        <time>2021-07-27T15:43:03.000Z</time>
      </trkpt>
      <trkpt lat="48.08881" lon="-4.30745">
        <ele>55</ele>
        <time>2021-07-27T15:43:21.000Z</time>
      </trkpt>
      <trkpt lat="48.08898" lon="-4.30754">
        <ele>50.5</ele>
        <time>2021-07-27T15:43:40.000Z</time>
      </trkpt>
      <trkpt lat="48.08913" lon="-4.3077">
        <ele>45.8</ele>
        <time>2021-07-27T15:43:56.000Z</time>
      </trkpt>
      <trkpt lat="48.08922" lon="-4.30795">
        <ele>42.3</ele>
        <time>2021-07-27T15:44:17.000Z</time>
      </trkpt>
      <trkpt lat="48.08932" lon="-4.30817">
        <ele>42</ele>
        <time>2021-07-27T15:44:30.000Z</time>
      </trkpt>
      <trkpt lat="48.08941" lon="-4.30841">
        <ele>39.9</ele>
        <time>2021-07-27T15:44:43.000Z</time>
      </trkpt>
      <trkpt lat="48.08952" lon="-4.30863">
        <ele>37.7</ele>
        <time>2021-07-27T15:45:00.000Z</time>
      </trkpt>
      <trkpt lat="48.0896" lon="-4.30889">
        <ele>37.9</ele>
        <time>2021-07-27T15:45:13.000Z</time>
      </trkpt>
      <trkpt lat="48.08968" lon="-4.30913">
        <ele>37.4</ele>
        <time>2021-07-27T15:45:26.000Z</time>
      </trkpt>
      <trkpt lat="48.08979" lon="-4.30936">
        <ele>36.5</ele>
        <time>2021-07-27T15:45:36.000Z</time>
      </trkpt>
      <trkpt lat="48.08987" lon="-4.3096">
        <ele>35.7</ele>
        <time>2021-07-27T15:45:50.000Z</time>
      </trkpt>
      <trkpt lat="48.08993" lon="-4.30987">
        <ele>36.6</ele>
        <time>2021-07-27T15:46:05.000Z</time>
      </trkpt>
      <trkpt lat="48.08995" lon="-4.31016">
        <ele>36.2</ele>
        <time>2021-07-27T15:46:20.000Z</time>
      </trkpt>
      <trkpt lat="48.08999" lon="-4.31044">
        <ele>36.3</ele>
        <time>2021-07-27T15:46:34.000Z</time>
      </trkpt>
      <trkpt lat="48.09006" lon="-4.31069">
        <ele>36.5</ele>
        <time>2021-07-27T15:46:46.000Z</time>
      </trkpt>
      <trkpt lat="48.09012" lon="-4.31097">
        <ele>35.9</ele>
        <time>2021-07-27T15:47:01.000Z</time>
      </trkpt>
      <trkpt lat="48.0902" lon="-4.31122">
        <ele>34.4</ele>
        <time>2021-07-27T15:47:14.000Z</time>
      </trkpt>
      <trkpt lat="48.09031" lon="-4.31145">
        <ele>32</ele>
        <time>2021-07-27T15:47:26.000Z</time>
      </trkpt>
      <trkpt lat="48.09041" lon="-4.31167">
        <ele>32.7</ele>
        <time>2021-07-27T15:47:39.000Z</time>
      </trkpt>
      <trkpt lat="48.09052" lon="-4.3119">
        <ele>30.8</ele>
        <time>2021-07-27T15:47:52.000Z</time>
      </trkpt>
      <trkpt lat="48.09058" lon="-4.31215">
        <ele>27</ele>
        <time>2021-07-27T15:48:08.000Z</time>
      </trkpt>
      <trkpt lat="48.09066" lon="-4.31242">
        <ele>28</ele>
        <time>2021-07-27T15:48:25.000Z</time>
      </trkpt>
      <trkpt lat="48.09078" lon="-4.31265">
        <ele>26.6</ele>
        <time>2021-07-27T15:48:39.000Z</time>
      </trkpt>
      <trkpt lat="48.09088" lon="-4.31288">
        <ele>23.2</ele>
        <time>2021-07-27T15:48:54.000Z</time>
      </trkpt>
      <trkpt lat="48.09099" lon="-4.3131">
        <ele>21.2</ele>
        <time>2021-07-27T15:49:06.000Z</time>
      </trkpt>
      <trkpt lat="48.09111" lon="-4.31332">
        <ele>23.2</ele>
        <time>2021-07-27T15:49:16.000Z</time>
      </trkpt>
      <trkpt lat="48.09124" lon="-4.31354">
        <ele>24.3</ele>
        <time>2021-07-27T15:49:29.000Z</time>
      </trkpt>
      <trkpt lat="48.09133" lon="-4.31379">
        <ele>24.4</ele>
        <time>2021-07-27T15:49:43.000Z</time>
      </trkpt>
      <trkpt lat="48.09145" lon="-4.314">
        <ele>26</ele>
        <time>2021-07-27T15:49:56.000Z</time>
      </trkpt>
      <trkpt lat="48.09159" lon="-4.31418">
        <ele>27.6</ele>
        <time>2021-07-27T15:50:11.000Z</time>
      </trkpt>
      <trkpt lat="48.09173" lon="-4.31436">
        <ele>28.4</ele>
        <time>2021-07-27T15:50:26.000Z</time>
      </trkpt>
      <trkpt lat="48.0918" lon="-4.31462">
        <ele>30.9</ele>
        <time>2021-07-27T15:50:42.000Z</time>
      </trkpt>
      <trkpt lat="48.09186" lon="-4.31488">
        <ele>31.4</ele>
        <time>2021-07-27T15:50:55.000Z</time>
      </trkpt>
      <trkpt lat="48.0919" lon="-4.31515">
        <ele>31.7</ele>
        <time>2021-07-27T15:51:09.000Z</time>
      </trkpt>
      <trkpt lat="48.09189" lon="-4.31544">
        <ele>31</ele>
        <time>2021-07-27T15:51:22.000Z</time>
      </trkpt>
      <trkpt lat="48.09192" lon="-4.31572">
        <ele>29.4</ele>
        <time>2021-07-27T15:51:34.000Z</time>
      </trkpt>
      <trkpt lat="48.09193" lon="-4.31601">
        <ele>28.4</ele>
        <time>2021-07-27T15:51:48.000Z</time>
      </trkpt>
      <trkpt lat="48.09192" lon="-4.31628">
        <ele>27.2</ele>
        <time>2021-07-27T15:52:02.000Z</time>
      </trkpt>
      <trkpt lat="48.09189" lon="-4.31656">
        <ele>26.8</ele>
        <time>2021-07-27T15:52:17.000Z</time>
      </trkpt>
      <trkpt lat="48.09189" lon="-4.31684">
        <ele>27.9</ele>
        <time>2021-07-27T15:52:31.000Z</time>
      </trkpt>
      <trkpt lat="48.09189" lon="-4.31712">
        <ele>27.9</ele>
        <time>2021-07-27T15:52:44.000Z</time>
      </trkpt>
      <trkpt lat="48.09191" lon="-4.31739">
        <ele>28.4</ele>
        <time>2021-07-27T15:52:56.000Z</time>
      </trkpt>
      <trkpt lat="48.0919" lon="-4.31767">
        <ele>29</ele>
        <time>2021-07-27T15:53:08.000Z</time>
      </trkpt>
      <trkpt lat="48.09185" lon="-4.31795">
        <ele>28.9</ele>
        <time>2021-07-27T15:53:23.000Z</time>
      </trkpt>
      <trkpt lat="48.09181" lon="-4.31823">
        <ele>28.6</ele>
        <time>2021-07-27T15:53:38.000Z</time>
      </trkpt>
      <trkpt lat="48.09174" lon="-4.31851">
        <ele>27.6</ele>
        <time>2021-07-27T15:53:55.000Z</time>
      </trkpt>
      <trkpt lat="48.09164" lon="-4.31873">
        <ele>26.4</ele>
        <time>2021-07-27T15:54:10.000Z</time>
      </trkpt>
      <trkpt lat="48.09164" lon="-4.319">
        <ele>23.8</ele>
        <time>2021-07-27T15:54:32.000Z</time>
      </trkpt>
      <trkpt lat="48.09179" lon="-4.31915">
        <ele>23.3</ele>
        <time>2021-07-27T15:54:51.000Z</time>
      </trkpt>
      <trkpt lat="48.09197" lon="-4.31923">
        <ele>19.8</ele>
        <time>2021-07-27T15:55:05.000Z</time>
      </trkpt>
      <trkpt lat="48.09188" lon="-4.31946">
        <ele>20.2</ele>
        <time>2021-07-27T15:55:26.000Z</time>
      </trkpt>
      <trkpt lat="48.09187" lon="-4.31965">
        <ele>18.3</ele>
        <time>2021-07-27T15:55:40.000Z</time>
      </trkpt>
      <trkpt lat="48.09188" lon="-4.31965">
        <ele>18.1</ele>
        <time>2021-07-27T15:55:41.000Z</time>
      </trkpt>
      <trkpt lat="48.09193" lon="-4.31991">
        <ele>19</ele>
        <time>2021-07-27T15:55:57.000Z</time>
      </trkpt>
      <trkpt lat="48.09204" lon="-4.32015">
        <ele>17.5</ele>
        <time>2021-07-27T15:56:09.000Z</time>
      </trkpt>
      <trkpt lat="48.09214" lon="-4.32038">
        <ele>17.6</ele>
        <time>2021-07-27T15:56:21.000Z</time>
      </trkpt>
      <trkpt lat="48.09218" lon="-4.32067">
        <ele>19.4</ele>
        <time>2021-07-27T15:56:36.000Z</time>
      </trkpt>
      <trkpt lat="48.09217" lon="-4.32094">
        <ele>21.4</ele>
        <time>2021-07-27T15:56:51.000Z</time>
      </trkpt>
      <trkpt lat="48.09211" lon="-4.32121">
        <ele>21.6</ele>
        <time>2021-07-27T15:57:07.000Z</time>
      </trkpt>
      <trkpt lat="48.09205" lon="-4.32146">
        <ele>18.5</ele>
        <time>2021-07-27T15:57:23.000Z</time>
      </trkpt>
      <trkpt lat="48.09215" lon="-4.3217">
        <ele>18.3</ele>
        <time>2021-07-27T15:57:39.000Z</time>
      </trkpt>
      <trkpt lat="48.09224" lon="-4.32194">
        <ele>20.8</ele>
        <time>2021-07-27T15:57:54.000Z</time>
      </trkpt>
      <trkpt lat="48.09237" lon="-4.32213">
        <ele>21.3</ele>
        <time>2021-07-27T15:58:08.000Z</time>
      </trkpt>
      <trkpt lat="48.09246" lon="-4.32237">
        <ele>22.6</ele>
        <time>2021-07-27T15:58:22.000Z</time>
      </trkpt>
      <trkpt lat="48.09252" lon="-4.32262">
        <ele>22.9</ele>
        <time>2021-07-27T15:58:36.000Z</time>
      </trkpt>
      <trkpt lat="48.09258" lon="-4.32288">
        <ele>23.6</ele>
        <time>2021-07-27T15:58:49.000Z</time>
      </trkpt>
      <trkpt lat="48.09267" lon="-4.32311">
        <ele>24.7</ele>
        <time>2021-07-27T15:59:03.000Z</time>
      </trkpt>
      <trkpt lat="48.09275" lon="-4.32338">
        <ele>24.8</ele>
        <time>2021-07-27T15:59:17.000Z</time>
      </trkpt>
      <trkpt lat="48.09284" lon="-4.32362">
        <ele>25</ele>
        <time>2021-07-27T15:59:32.000Z</time>
      </trkpt>
      <trkpt lat="48.09291" lon="-4.32387">
        <ele>23.4</ele>
        <time>2021-07-27T15:59:45.000Z</time>
      </trkpt>
      <trkpt lat="48.09298" lon="-4.32412">
        <ele>22.4</ele>
        <time>2021-07-27T16:00:00.000Z</time>
      </trkpt>
      <trkpt lat="48.09315" lon="-4.32425">
        <ele>21.7</ele>
        <time>2021-07-27T16:00:19.000Z</time>
      </trkpt>
      <trkpt lat="48.09331" lon="-4.32437">
        <ele>21.4</ele>
        <time>2021-07-27T16:00:37.000Z</time>
      </trkpt>
      <trkpt lat="48.09346" lon="-4.32453">
        <ele>20.4</ele>
        <time>2021-07-27T16:00:51.000Z</time>
      </trkpt>
      <trkpt lat="48.09352" lon="-4.3248">
        <ele>18.4</ele>
        <time>2021-07-27T16:01:08.000Z</time>
      </trkpt>
      <trkpt lat="48.09355" lon="-4.32508">
        <ele>18.8</ele>
        <time>2021-07-27T16:01:24.000Z</time>
      </trkpt>
      <trkpt lat="48.09353" lon="-4.32535">
        <ele>17.7</ele>
        <time>2021-07-27T16:01:37.000Z</time>
      </trkpt>
      <trkpt lat="48.09351" lon="-4.32563">
        <ele>18.1</ele>
        <time>2021-07-27T16:01:52.000Z</time>
      </trkpt>
      <trkpt lat="48.0935" lon="-4.3259">
        <ele>19.5</ele>
        <time>2021-07-27T16:02:06.000Z</time>
      </trkpt>
      <trkpt lat="48.09339" lon="-4.32612">
        <ele>21.1</ele>
        <time>2021-07-27T16:02:23.000Z</time>
      </trkpt>
      <trkpt lat="48.09332" lon="-4.32637">
        <ele>23.1</ele>
        <time>2021-07-27T16:02:38.000Z</time>
      </trkpt>
      <trkpt lat="48.0933" lon="-4.32665">
        <ele>25.4</ele>
        <time>2021-07-27T16:02:54.000Z</time>
      </trkpt>
      <trkpt lat="48.09332" lon="-4.32693">
        <ele>27.2</ele>
        <time>2021-07-27T16:03:08.000Z</time>
      </trkpt>
      <trkpt lat="48.0933" lon="-4.32721">
        <ele>28.9</ele>
        <time>2021-07-27T16:03:23.000Z</time>
      </trkpt>
      <trkpt lat="48.09329" lon="-4.32748">
        <ele>29.9</ele>
        <time>2021-07-27T16:03:38.000Z</time>
      </trkpt>
      <trkpt lat="48.09331" lon="-4.32776">
        <ele>30.1</ele>
        <time>2021-07-27T16:03:51.000Z</time>
      </trkpt>
      <trkpt lat="48.09329" lon="-4.32804">
        <ele>30.5</ele>
        <time>2021-07-27T16:04:08.000Z</time>
      </trkpt>
      <trkpt lat="48.09323" lon="-4.32829">
        <ele>31.7</ele>
        <time>2021-07-27T16:04:26.000Z</time>
      </trkpt>
      <trkpt lat="48.0932" lon="-4.32857">
        <ele>32.8</ele>
        <time>2021-07-27T16:04:40.000Z</time>
      </trkpt>
      <trkpt lat="48.0932" lon="-4.32885">
        <ele>34.8</ele>
        <time>2021-07-27T16:04:56.000Z</time>
      </trkpt>
      <trkpt lat="48.09305" lon="-4.32902">
        <ele>37.1</ele>
        <time>2021-07-27T16:05:13.000Z</time>
      </trkpt>
      <trkpt lat="48.09291" lon="-4.32922">
        <ele>37.2</ele>
        <time>2021-07-27T16:05:26.000Z</time>
      </trkpt>
      <trkpt lat="48.0928" lon="-4.32943">
        <ele>36.3</ele>
        <time>2021-07-27T16:05:39.000Z</time>
      </trkpt>
      <trkpt lat="48.0927" lon="-4.32968">
        <ele>37.6</ele>
        <time>2021-07-27T16:05:53.000Z</time>
      </trkpt>
      <trkpt lat="48.0926" lon="-4.3299">
        <ele>38.6</ele>
        <time>2021-07-27T16:06:06.000Z</time>
      </trkpt>
      <trkpt lat="48.0925" lon="-4.33013">
        <ele>37.9</ele>
        <time>2021-07-27T16:06:20.000Z</time>
      </trkpt>
      <trkpt lat="48.09242" lon="-4.33038">
        <ele>36.9</ele>
        <time>2021-07-27T16:06:34.000Z</time>
      </trkpt>
      <trkpt lat="48.09233" lon="-4.33062">
        <ele>36.8</ele>
        <time>2021-07-27T16:06:49.000Z</time>
      </trkpt>
      <trkpt lat="48.0923" lon="-4.33061">
        <ele>35.5</ele>
        <time>2021-07-27T16:06:55.000Z</time>
      </trkpt>
      <trkpt lat="48.09229" lon="-4.33061">
        <ele>35.4</ele>
        <time>2021-07-27T16:07:02.000Z</time>
      </trkpt>
      <trkpt lat="48.09229" lon="-4.33061">
        <ele>35.4</ele>
        <time>2021-07-27T16:07:03.000Z</time>
      </trkpt>
      <trkpt lat="48.09229" lon="-4.33061">
        <ele>35.4</ele>
        <time>2021-07-27T16:07:03.000Z</time>
      </trkpt>
      <trkpt lat="48.09229" lon="-4.33061">
        <ele>35.4</ele>
        <time>2021-07-27T16:07:03.000Z</time>
      </trkpt>
      <trkpt lat="48.09229" lon="-4.33061">
        <ele>35.4</ele>
        <time>2021-07-27T16:07:03.000Z</time>
      </trkpt>
    </trkseg>
  </trk>
</gpx>